Données brutes

Données brutes de la station

Données brutes (2000 dernières valeurs)

Date Temp Humidity Wind Gust Direction Pressure Rain
2021-03-04 04:24:00 8.0°C 72% 5.5 km/h 9.0 km/h 162° 1022.9 hPa 0.000 mm
2021-03-04 04:23:00 8.0°C 72% 6.8 km/h 9.0 km/h 178° 1022.9 hPa 0.000 mm
2021-03-04 04:22:00 7.9°C 72% 6.8 km/h 10.6 km/h 152° 1023.0 hPa 0.000 mm
2021-03-04 04:21:00 7.8°C 72% 5.7 km/h 7.9 km/h 182° 1023.0 hPa 0.000 mm
2021-03-04 04:20:00 7.8°C 72% 4.7 km/h 6.3 km/h 123° 1023.1 hPa 0.000 mm
2021-03-04 04:19:00 7.8°C 72% 3.8 km/h 6.9 km/h 195° 1023.0 hPa 0.000 mm
2021-03-04 04:18:00 7.8°C 72% 5.5 km/h 7.9 km/h 176° 1023.1 hPa 0.000 mm
2021-03-04 04:17:00 7.9°C 72% 3.8 km/h 7.9 km/h 93° 1023.1 hPa 0.000 mm
2021-03-04 04:16:00 7.9°C 71% 5.9 km/h 7.4 km/h 126° 1023.0 hPa 0.000 mm
2021-03-04 04:15:00 8.0°C 71% 5.4 km/h 7.4 km/h 169° 1023.1 hPa 0.000 mm
2021-03-04 04:14:00 8.0°C 71% 5.8 km/h 8.4 km/h 170° 1023.1 hPa 0.000 mm
2021-03-04 04:13:00 7.8°C 71% 5.5 km/h 8.4 km/h 177° 1023.1 hPa 0.000 mm
2021-03-04 04:12:00 7.9°C 71% 3.2 km/h 4.8 km/h 173° 1023.1 hPa 0.000 mm
2021-03-04 04:11:00 7.9°C 71% 3.1 km/h 4.8 km/h 170° 1023.1 hPa 0.000 mm
2021-03-04 04:10:00 7.8°C 71% 3.1 km/h 4.8 km/h 142° 1023.1 hPa 0.000 mm
2021-03-04 04:09:00 8.0°C 71% 4.6 km/h 5.8 km/h 188° 1023.1 hPa 0.000 mm
2021-03-04 04:08:00 7.8°C 71% 3.7 km/h 4.8 km/h 137° 1023.2 hPa 0.000 mm
2021-03-04 04:07:00 7.8°C 71% 2.7 km/h 4.2 km/h 165° 1023.1 hPa 0.000 mm
2021-03-04 04:06:00 7.8°C 71% 2.6 km/h 5.8 km/h 183° 1023.2 hPa 0.000 mm
2021-03-04 04:05:00 7.6°C 71% 3.3 km/h 4.2 km/h 138° 1023.2 hPa 0.000 mm
2021-03-04 04:04:00 7.5°C 72% 1.4 km/h 2.6 km/h 167° 1023.2 hPa 0.000 mm
2021-03-04 04:03:00 7.5°C 71% 1.6 km/h 4.2 km/h 167° 1023.2 hPa 0.000 mm
2021-03-04 04:02:00 7.8°C 71% 1.5 km/h 3.7 km/h 197° 1023.2 hPa 0.000 mm
2021-03-04 04:01:00 7.7°C 71% 2.0 km/h 2.6 km/h 154° 1023.2 hPa 0.000 mm
2021-03-04 04:00:00 7.6°C 72% 1.8 km/h 2.6 km/h 146° 1023.2 hPa 0.000 mm
2021-03-04 03:59:00 7.4°C 71% 1.6 km/h 2.6 km/h 160° 1023.2 hPa 0.000 mm
2021-03-04 03:58:00 7.6°C 71% 0.9 km/h 2.1 km/h 155° 1023.2 hPa 0.000 mm
2021-03-04 03:57:00 7.8°C 71% 2.2 km/h 2.6 km/h 227° 1023.2 hPa 0.000 mm
2021-03-04 03:56:00 7.9°C 70% 2.0 km/h 3.2 km/h 251° 1023.2 hPa 0.000 mm
2021-03-04 03:55:00 7.8°C 71% 0.8 km/h 2.1 km/h 100° 1023.2 hPa 0.000 mm
2021-03-04 03:54:00 7.8°C 71% 1.1 km/h 2.1 km/h 161° 1023.3 hPa 0.000 mm
2021-03-04 03:53:00 7.8°C 71% 2.7 km/h 4.2 km/h 218° 1023.2 hPa 0.000 mm
2021-03-04 03:52:00 7.8°C 71% 3.9 km/h 6.9 km/h 199° 1023.3 hPa 0.000 mm
2021-03-04 03:51:00 7.8°C 71% 3.0 km/h 4.8 km/h 228° 1023.3 hPa 0.000 mm
2021-03-04 03:50:00 7.9°C 70% 1.6 km/h 4.8 km/h 213° 1023.4 hPa 0.000 mm
2021-03-04 03:49:00 8.0°C 70% 3.0 km/h 4.8 km/h 230° 1023.3 hPa 0.000 mm
2021-03-04 03:48:00 8.1°C 70% 4.1 km/h 5.8 km/h 240° 1023.3 hPa 0.000 mm
2021-03-04 03:47:00 8.2°C 70% 3.0 km/h 4.8 km/h 179° 1023.4 hPa 0.000 mm
2021-03-04 03:46:00 8.2°C 70% 2.8 km/h 4.8 km/h 136° 1023.4 hPa 0.000 mm
2021-03-04 03:45:00 8.2°C 70% 2.8 km/h 6.3 km/h 206° 1023.4 hPa 0.000 mm
2021-03-04 03:44:00 8.2°C 70% 2.6 km/h 5.3 km/h 125° 1023.4 hPa 0.000 mm
2021-03-04 03:43:00 8.2°C 70% 3.8 km/h 5.3 km/h 186° 1023.4 hPa 0.000 mm
2021-03-04 03:42:00 8.1°C 70% 4.6 km/h 7.4 km/h 135° 1023.4 hPa 0.000 mm
2021-03-04 03:41:00 8.2°C 70% 3.1 km/h 5.8 km/h 168° 1023.4 hPa 0.000 mm
2021-03-04 03:40:00 8.2°C 70% 1.8 km/h 3.7 km/h 155° 1023.4 hPa 0.000 mm
2021-03-04 03:39:00 8.3°C 70% 2.3 km/h 4.2 km/h 199° 1023.5 hPa 0.000 mm
2021-03-04 03:38:00 8.2°C 70% 4.6 km/h 6.3 km/h 199° 1023.5 hPa 0.000 mm
2021-03-04 03:37:00 8.2°C 70% 2.8 km/h 4.8 km/h 178° 1023.5 hPa 0.000 mm
2021-03-04 03:36:00 8.3°C 70% 2.8 km/h 4.2 km/h 173° 1023.5 hPa 0.000 mm
2021-03-04 03:35:00 8.4°C 70% 3.6 km/h 6.3 km/h 143° 1023.5 hPa 0.000 mm
2021-03-04 03:34:00 8.4°C 70% 4.5 km/h 6.9 km/h 151° 1023.5 hPa 0.000 mm
2021-03-04 03:33:00 8.2°C 71% 3.9 km/h 5.3 km/h 124° 1023.5 hPa 0.000 mm
2021-03-04 03:32:00 8.2°C 71% 2.6 km/h 5.8 km/h 204° 1023.5 hPa 0.000 mm
2021-03-04 03:31:00 8.4°C 70% 3.2 km/h 5.8 km/h 158° 1023.5 hPa 0.000 mm
2021-03-04 03:30:00 8.3°C 71% 4.8 km/h 7.4 km/h 132° 1023.5 hPa 0.000 mm
2021-03-04 03:29:00 8.4°C 71% 5.9 km/h 7.4 km/h 159° 1023.5 hPa 0.000 mm
2021-03-04 03:28:00 8.4°C 70% 4.9 km/h 9.0 km/h 173° 1023.5 hPa 0.000 mm
2021-03-04 03:27:00 8.5°C 70% 5.7 km/h 10.0 km/h 196° 1023.5 hPa 0.000 mm
2021-03-04 03:26:00 8.5°C 71% 5.9 km/h 8.4 km/h 118° 1023.5 hPa 0.000 mm
2021-03-04 03:25:00 8.3°C 71% 5.9 km/h 9.0 km/h 127° 1023.6 hPa 0.270 mm
2021-03-04 03:24:00 8.2°C 72% 4.6 km/h 5.8 km/h 180° 1023.6 hPa 0.000 mm
2021-03-04 03:23:00 8.2°C 72% 4.2 km/h 7.4 km/h 173° 1023.6 hPa 0.000 mm
2021-03-04 03:22:00 8.3°C 72% 4.1 km/h 6.3 km/h 174° 1023.6 hPa 0.000 mm
2021-03-04 03:21:00 8.2°C 72% 4.5 km/h 5.8 km/h 179° 1023.6 hPa 0.000 mm
2021-03-04 03:20:00 8.2°C 72% 5.1 km/h 7.4 km/h 180° 1023.7 hPa 0.000 mm
2021-03-04 03:19:00 8.3°C 71% 4.9 km/h 6.3 km/h 205° 1023.6 hPa 0.000 mm
2021-03-04 03:18:00 8.5°C 71% 6.5 km/h 8.4 km/h 168° 1023.6 hPa 0.000 mm
2021-03-04 03:17:00 8.4°C 71% 7.2 km/h 9.0 km/h 152° 1023.6 hPa 0.000 mm
2021-03-04 03:16:00 8.4°C 72% 6.1 km/h 8.4 km/h 143° 1023.7 hPa 0.000 mm
2021-03-04 03:15:00 8.6°C 71% 6.3 km/h 9.5 km/h 177° 1023.7 hPa 0.000 mm
2021-03-04 03:14:00 8.5°C 72% 8.6 km/h 12.1 km/h 209° 1023.7 hPa 0.000 mm
2021-03-04 03:13:00 8.4°C 72% 6.0 km/h 8.4 km/h 176° 1023.7 hPa 0.000 mm
2021-03-04 03:12:00 8.6°C 71% 6.4 km/h 7.9 km/h 162° 1023.7 hPa 0.000 mm
2021-03-04 03:11:00 8.6°C 72% 5.9 km/h 9.5 km/h 154° 1023.7 hPa 0.000 mm
2021-03-04 03:10:00 8.5°C 72% 5.3 km/h 7.9 km/h 137° 1023.7 hPa 0.000 mm
2021-03-04 03:09:00 8.6°C 71% 5.2 km/h 6.9 km/h 115° 1023.7 hPa 0.000 mm
2021-03-04 03:08:00 8.6°C 72% 8.4 km/h 11.1 km/h 162° 1023.7 hPa 0.000 mm
2021-03-04 03:07:00 8.6°C 72% 6.3 km/h 10.0 km/h 124° 1023.7 hPa 0.000 mm
2021-03-04 03:06:00 8.6°C 71% 9.6 km/h 12.7 km/h 182° 1023.7 hPa 0.000 mm
2021-03-04 03:05:00 8.6°C 72% 7.6 km/h 11.1 km/h 186° 1023.7 hPa 0.000 mm
2021-03-04 03:04:00 8.6°C 72% 7.3 km/h 10.0 km/h 100° 1023.7 hPa 0.000 mm
2021-03-04 03:03:00 8.5°C 72% 5.9 km/h 6.9 km/h 169° 1023.7 hPa 0.000 mm
2021-03-04 03:02:00 8.5°C 72% 5.9 km/h 7.9 km/h 185° 1023.7 hPa 0.000 mm
2021-03-04 03:01:00 8.6°C 72% 5.9 km/h 10.0 km/h 168° 1023.7 hPa 0.000 mm
2021-03-04 03:00:00 8.6°C 72% 7.2 km/h 10.0 km/h 213° 1023.7 hPa 0.000 mm
2021-03-04 02:59:00 8.6°C 72% 7.6 km/h 11.1 km/h 155° 1023.7 hPa 0.000 mm
2021-03-04 02:58:00 8.5°C 72% 8.2 km/h 14.2 km/h 170° 1023.8 hPa 0.000 mm
2021-03-04 02:57:00 8.6°C 72% 7.3 km/h 9.5 km/h 189° 1023.8 hPa 0.000 mm
2021-03-04 02:56:00 8.6°C 72% 7.0 km/h 9.5 km/h 159° 1023.8 hPa 0.000 mm
2021-03-04 02:55:00 8.6°C 72% 6.5 km/h 7.9 km/h 188° 1023.8 hPa 0.000 mm
2021-03-04 02:54:00 8.5°C 73% 6.2 km/h 9.0 km/h 119° 1023.8 hPa 0.000 mm
2021-03-04 02:53:00 8.5°C 72% 5.2 km/h 6.9 km/h 190° 1023.8 hPa 0.000 mm
2021-03-04 02:52:00 8.5°C 73% 5.2 km/h 6.9 km/h 221° 1023.9 hPa 0.000 mm
2021-03-04 02:51:00 8.6°C 72% 7.0 km/h 9.5 km/h 190° 1023.9 hPa 0.000 mm
2021-03-04 02:50:00 8.6°C 72% 6.0 km/h 8.4 km/h 203° 1023.9 hPa 0.000 mm
2021-03-04 02:49:00 8.7°C 72% 7.6 km/h 10.6 km/h 216° 1024.0 hPa 0.000 mm
2021-03-04 02:48:00 8.7°C 72% 9.0 km/h 11.6 km/h 186° 1024.0 hPa 0.000 mm
2021-03-04 02:47:00 8.7°C 72% 8.1 km/h 13.7 km/h 187° 1024.0 hPa 0.000 mm
2021-03-04 02:46:00 8.6°C 72% 6.2 km/h 9.5 km/h 190° 1024.0 hPa 0.000 mm
2021-03-04 02:45:00 8.6°C 72% 4.9 km/h 6.9 km/h 173° 1024.0 hPa 0.000 mm
2021-03-04 02:44:00 8.6°C 72% 6.5 km/h 10.0 km/h 176° 1024.0 hPa 0.000 mm
2021-03-04 02:43:00 8.6°C 72% 5.2 km/h 7.9 km/h 182° 1024.0 hPa 0.000 mm
2021-03-04 02:42:00 8.6°C 72% 6.4 km/h 9.0 km/h 180° 1024.0 hPa 0.000 mm
2021-03-04 02:41:00 8.7°C 72% 5.2 km/h 6.3 km/h 215° 1024.0 hPa 0.000 mm
2021-03-04 02:40:00 8.7°C 72% 7.3 km/h 11.1 km/h 171° 1024.0 hPa 0.000 mm
2021-03-04 02:39:00 8.8°C 71% 5.5 km/h 6.3 km/h 174° 1024.0 hPa 0.000 mm
2021-03-04 02:38:00 8.7°C 71% 2.9 km/h 6.3 km/h 123° 1024.0 hPa 0.000 mm
2021-03-04 02:37:00 8.8°C 71% 4.1 km/h 5.3 km/h 146° 1024.0 hPa 0.000 mm
2021-03-04 02:36:00 8.7°C 72% 5.0 km/h 7.4 km/h 170° 1024.0 hPa 0.000 mm
2021-03-04 02:35:00 8.7°C 71% 6.1 km/h 8.4 km/h 158° 1024.0 hPa 0.000 mm
2021-03-04 02:34:00 8.7°C 71% 4.1 km/h 8.4 km/h 185° 1024.0 hPa 0.000 mm
2021-03-04 02:33:00 8.7°C 71% 4.0 km/h 5.8 km/h 145° 1024.1 hPa 0.000 mm
2021-03-04 02:32:00 8.8°C 71% 4.8 km/h 5.8 km/h 168° 1024.1 hPa 0.000 mm
2021-03-04 02:31:00 8.8°C 71% 8.5 km/h 11.6 km/h 198° 1024.0 hPa 0.000 mm
2021-03-04 02:30:00 8.7°C 71% 5.3 km/h 7.9 km/h 187° 1024.1 hPa 0.000 mm
2021-03-04 02:29:00 8.8°C 71% 6.0 km/h 7.9 km/h 233° 1024.1 hPa 0.000 mm
2021-03-04 02:28:00 8.8°C 71% 7.1 km/h 11.1 km/h 212° 1024.1 hPa 0.000 mm
2021-03-04 02:27:00 8.8°C 71% 7.4 km/h 12.1 km/h 186° 1024.1 hPa 0.000 mm
2021-03-04 02:26:00 8.7°C 71% 4.3 km/h 5.8 km/h 189° 1024.1 hPa 0.000 mm
2021-03-04 02:25:00 8.8°C 71% 6.9 km/h 9.0 km/h 173° 1024.1 hPa 0.000 mm
2021-03-04 02:24:00 8.7°C 71% 6.9 km/h 9.0 km/h 188° 1024.1 hPa 0.000 mm
2021-03-04 02:23:00 8.7°C 71% 8.1 km/h 10.6 km/h 177° 1024.1 hPa 0.000 mm
2021-03-04 02:22:00 8.6°C 71% 4.9 km/h 6.3 km/h 158° 1024.1 hPa 0.000 mm
2021-03-04 02:21:00 8.7°C 71% 7.0 km/h 9.5 km/h 137° 1024.1 hPa 0.000 mm
2021-03-04 02:20:00 8.8°C 71% 8.1 km/h 13.7 km/h 155° 1024.0 hPa 0.000 mm
2021-03-04 02:19:00 8.7°C 71% 8.2 km/h 10.6 km/h 155° 1024.1 hPa 0.000 mm
2021-03-04 02:18:00 8.7°C 71% 6.9 km/h 9.5 km/h 179° 1024.0 hPa 0.000 mm
2021-03-04 02:17:00 8.6°C 71% 9.9 km/h 13.2 km/h 170° 1024.1 hPa 0.000 mm
2021-03-04 02:16:00 8.6°C 71% 9.0 km/h 12.1 km/h 186° 1024.1 hPa 0.000 mm
2021-03-04 02:15:00 8.5°C 71% 6.9 km/h 8.4 km/h 165° 1024.1 hPa 0.000 mm
2021-03-04 02:14:00 8.6°C 71% 7.2 km/h 8.4 km/h 172° 1024.0 hPa 0.000 mm
2021-03-04 02:13:00 8.6°C 71% 8.2 km/h 10.6 km/h 171° 1024.1 hPa 0.000 mm
2021-03-04 02:12:00 8.6°C 71% 7.9 km/h 10.6 km/h 167° 1024.1 hPa 0.000 mm
2021-03-04 02:11:00 8.6°C 70% 8.2 km/h 9.5 km/h 169° 1024.1 hPa 0.000 mm
2021-03-04 02:10:00 8.7°C 70% 7.2 km/h 11.6 km/h 194° 1024.2 hPa 0.000 mm
2021-03-04 02:09:00 8.6°C 70% 9.1 km/h 12.7 km/h 163° 1024.2 hPa 0.000 mm
2021-03-04 02:08:00 8.7°C 70% 7.4 km/h 11.6 km/h 185° 1024.2 hPa 0.000 mm
2021-03-04 02:07:00 8.6°C 70% 8.2 km/h 9.5 km/h 190° 1024.2 hPa 0.000 mm
2021-03-04 02:06:00 8.5°C 70% 8.2 km/h 10.0 km/h 164° 1024.2 hPa 0.000 mm
2021-03-04 02:05:00 8.5°C 70% 6.9 km/h 10.0 km/h 128° 1024.2 hPa 0.000 mm
2021-03-04 02:04:00 8.5°C 70% 8.0 km/h 11.6 km/h 204° 1024.2 hPa 0.000 mm
2021-03-04 02:03:00 8.4°C 70% 7.3 km/h 9.5 km/h 164° 1024.3 hPa 0.000 mm
2021-03-04 02:02:00 8.4°C 70% 8.1 km/h 11.1 km/h 127° 1024.3 hPa 0.000 mm
2021-03-04 02:01:00 8.5°C 70% 6.5 km/h 10.6 km/h 174° 1024.3 hPa 0.000 mm
2021-03-04 02:00:00 8.4°C 70% 5.0 km/h 7.4 km/h 205° 1024.3 hPa 0.000 mm
2021-03-04 01:59:00 8.4°C 69% 7.7 km/h 9.0 km/h 155° 1024.2 hPa 0.000 mm
2021-03-04 01:58:00 8.3°C 69% 5.7 km/h 9.0 km/h 147° 1024.3 hPa 0.000 mm
2021-03-04 01:57:00 8.4°C 69% 6.2 km/h 7.4 km/h 198° 1024.3 hPa 0.000 mm
2021-03-04 01:56:00 8.6°C 69% 5.4 km/h 6.9 km/h 194° 1024.3 hPa 0.000 mm
2021-03-04 01:55:00 8.5°C 69% 6.7 km/h 10.0 km/h 136° 1024.4 hPa 0.000 mm
2021-03-04 01:54:00 8.6°C 69% 5.8 km/h 7.4 km/h 189° 1024.4 hPa 0.000 mm
2021-03-04 01:53:00 8.5°C 69% 6.9 km/h 9.0 km/h 169° 1024.4 hPa 0.000 mm
2021-03-04 01:52:00 8.4°C 69% 3.6 km/h 7.9 km/h 203° 1024.4 hPa 0.000 mm
2021-03-04 01:51:00 8.3°C 69% 3.1 km/h 4.8 km/h 195° 1024.4 hPa 0.000 mm
2021-03-04 01:50:00 8.4°C 68% 4.5 km/h 6.9 km/h 199° 1024.5 hPa 0.000 mm
2021-03-04 01:49:00 8.6°C 68% 4.1 km/h 7.9 km/h 208° 1024.5 hPa 0.000 mm
2021-03-04 01:48:00 8.5°C 68% 4.9 km/h 7.4 km/h 178° 1024.4 hPa 0.000 mm
2021-03-04 01:47:00 8.5°C 68% 3.7 km/h 5.3 km/h 162° 1024.5 hPa 0.000 mm
2021-03-04 01:46:00 8.4°C 68% 1.0 km/h 3.2 km/h 227° 1024.5 hPa 0.000 mm
2021-03-04 01:45:00 8.4°C 68% 2.4 km/h 4.2 km/h 235° 1024.5 hPa 0.000 mm
2021-03-04 01:44:00 8.2°C 68% 1.6 km/h 3.2 km/h 115° 1024.4 hPa 0.000 mm
2021-03-04 01:43:00 8.3°C 68% 1.0 km/h 2.1 km/h 189° 1024.4 hPa 0.000 mm
2021-03-04 01:42:00 8.5°C 67% 2.3 km/h 3.7 km/h 236° 1024.5 hPa 0.000 mm
2021-03-04 01:41:00 8.6°C 67% 4.1 km/h 5.8 km/h 183° 1024.5 hPa 0.000 mm
2021-03-04 01:40:00 8.6°C 67% 2.5 km/h 6.3 km/h 219° 1024.5 hPa 0.000 mm
2021-03-04 01:39:00 8.6°C 67% 3.2 km/h 5.3 km/h 138° 1024.5 hPa 0.000 mm
2021-03-04 01:38:00 8.3°C 67% 2.3 km/h 4.2 km/h 188° 1024.5 hPa 0.000 mm
2021-03-04 01:37:00 8.6°C 67% 0.1 km/h 0.5 km/h 156° 1024.5 hPa 0.000 mm
2021-03-04 01:36:00 8.7°C 66% 0.2 km/h 1.1 km/h 165° 1024.5 hPa 0.000 mm
2021-03-04 01:35:00 8.9°C 66% 1.8 km/h 4.2 km/h 165° 1024.5 hPa 0.000 mm
2021-03-04 01:34:00 8.9°C 66% 4.3 km/h 6.9 km/h 172° 1024.5 hPa 0.000 mm
2021-03-04 01:33:00 8.9°C 66% 4.9 km/h 9.5 km/h 143° 1024.5 hPa 0.000 mm
2021-03-04 01:32:00 8.9°C 66% 6.4 km/h 10.6 km/h 192° 1024.5 hPa 0.000 mm
2021-03-04 01:31:00 8.9°C 66% 4.3 km/h 7.4 km/h 137° 1024.5 hPa 0.000 mm
2021-03-04 01:30:00 8.8°C 66% 6.1 km/h 9.0 km/h 196° 1024.5 hPa 0.000 mm
2021-03-04 01:29:00 8.8°C 66% 4.4 km/h 6.3 km/h 140° 1024.5 hPa 0.000 mm
2021-03-04 01:28:00 8.8°C 66% 4.4 km/h 9.0 km/h 168° 1024.5 hPa 0.000 mm
2021-03-04 01:27:00 8.9°C 66% 4.8 km/h 6.9 km/h 150° 1024.6 hPa 0.000 mm
2021-03-04 01:26:00 9.0°C 65% 4.2 km/h 5.8 km/h 160° 1024.6 hPa 0.000 mm
2021-03-04 01:25:00 8.8°C 66% 7.3 km/h 10.6 km/h 138° 1024.6 hPa 0.000 mm
2021-03-04 01:24:00 8.9°C 65% 4.6 km/h 6.9 km/h 192° 1024.6 hPa 0.000 mm
2021-03-04 01:23:00 8.9°C 66% 6.8 km/h 8.4 km/h 186° 1024.6 hPa 0.000 mm
2021-03-04 01:22:00 8.5°C 66% 5.1 km/h 7.9 km/h 189° 1024.6 hPa 0.000 mm
2021-03-04 01:21:00 8.6°C 65% 0.8 km/h 1.6 km/h 140° 1024.7 hPa 0.000 mm
2021-03-04 01:20:00 8.7°C 65% 1.0 km/h 1.6 km/h 119° 1024.7 hPa 0.000 mm
2021-03-04 01:19:00 8.7°C 65% 0.8 km/h 1.1 km/h 197° 1024.7 hPa 0.000 mm
2021-03-04 01:18:00 8.8°C 65% 1.2 km/h 2.1 km/h 163° 1024.7 hPa 0.000 mm
2021-03-04 01:17:00 8.9°C 65% 1.3 km/h 2.1 km/h 159° 1024.7 hPa 0.000 mm
2021-03-04 01:16:00 9.0°C 65% 1.1 km/h 2.1 km/h 106° 1024.7 hPa 0.000 mm
2021-03-04 01:15:00 9.0°C 64% 2.5 km/h 4.2 km/h 158° 1024.7 hPa 0.000 mm
2021-03-04 01:14:00 9.1°C 64% 4.1 km/h 6.3 km/h 163° 1024.7 hPa 0.000 mm
2021-03-04 01:13:00 8.9°C 65% 4.6 km/h 6.3 km/h 113° 1024.6 hPa 0.000 mm
2021-03-04 01:12:00 9.1°C 64% 3.5 km/h 5.8 km/h 186° 1024.7 hPa 0.000 mm
2021-03-04 01:11:00 9.0°C 64% 5.6 km/h 8.4 km/h 182° 1024.7 hPa 0.000 mm
2021-03-04 01:10:00 8.9°C 65% 8.2 km/h 11.1 km/h 180° 1024.6 hPa 0.000 mm
2021-03-04 01:09:00 8.9°C 64% 4.8 km/h 6.9 km/h 142° 1024.6 hPa 0.000 mm
2021-03-04 01:08:00 9.0°C 64% 6.2 km/h 9.0 km/h 125° 1024.6 hPa 0.000 mm
2021-03-04 01:07:00 9.0°C 64% 4.8 km/h 6.3 km/h 178° 1024.7 hPa 0.000 mm
2021-03-04 01:06:00 9.1°C 64% 3.8 km/h 5.3 km/h 118° 1024.7 hPa 0.000 mm
2021-03-04 01:05:00 9.1°C 63% 4.3 km/h 6.3 km/h 141° 1024.7 hPa 0.000 mm
2021-03-04 01:04:00 9.1°C 64% 4.3 km/h 6.3 km/h 135° 1024.7 hPa 0.000 mm
2021-03-04 01:03:00 9.0°C 63% 3.4 km/h 4.2 km/h 154° 1024.7 hPa 0.000 mm
2021-03-04 01:02:00 9.1°C 63% 4.7 km/h 6.9 km/h 143° 1024.7 hPa 0.000 mm
2021-03-04 01:01:00 9.2°C 63% 4.5 km/h 5.8 km/h 129° 1024.7 hPa 0.000 mm
2021-03-04 01:00:00 9.0°C 63% 6.7 km/h 9.5 km/h 158° 1024.7 hPa 0.000 mm
2021-03-04 00:59:00 9.1°C 63% 5.5 km/h 6.9 km/h 155° 1024.7 hPa 0.000 mm
2021-03-04 00:58:00 9.1°C 63% 3.8 km/h 8.4 km/h 120° 1024.7 hPa 0.000 mm
2021-03-04 00:57:00 8.9°C 63% 2.4 km/h 3.2 km/h 138° 1024.7 hPa 0.000 mm
2021-03-04 00:56:00 9.1°C 62% 3.4 km/h 4.8 km/h 158° 1024.8 hPa 0.000 mm
2021-03-04 00:55:00 9.2°C 62% 4.4 km/h 5.8 km/h 191° 1024.8 hPa 0.000 mm
2021-03-04 00:54:00 9.3°C 62% 4.7 km/h 5.8 km/h 119° 1024.8 hPa 0.000 mm
2021-03-04 00:53:00 9.4°C 62% 5.8 km/h 8.4 km/h 147° 1024.8 hPa 0.000 mm
2021-03-04 00:52:00 9.3°C 62% 7.0 km/h 8.4 km/h 154° 1024.8 hPa 0.000 mm
2021-03-04 00:51:00 9.3°C 62% 6.4 km/h 9.0 km/h 120° 1024.8 hPa 0.000 mm
2021-03-04 00:50:00 9.3°C 62% 5.3 km/h 9.0 km/h 146° 1024.8 hPa 0.000 mm
2021-03-04 00:49:00 9.3°C 61% 3.5 km/h 7.4 km/h 120° 1024.8 hPa 0.000 mm
2021-03-04 00:48:00 9.4°C 61% 3.7 km/h 6.3 km/h 151° 1024.8 hPa 0.000 mm
2021-03-04 00:47:00 9.4°C 61% 5.7 km/h 8.4 km/h 147° 1024.8 hPa 0.000 mm
2021-03-04 00:46:00 9.3°C 62% 4.1 km/h 6.3 km/h 191° 1024.9 hPa 0.000 mm
2021-03-04 00:45:00 9.2°C 61% 4.3 km/h 6.9 km/h 160° 1024.9 hPa 0.000 mm
2021-03-04 00:44:00 9.2°C 61% 3.2 km/h 5.3 km/h 252° 1024.9 hPa 0.000 mm
2021-03-04 00:43:00 9.2°C 61% 1.6 km/h 2.6 km/h 219° 1025.0 hPa 0.000 mm
2021-03-04 00:42:00 9.3°C 61% 0.8 km/h 1.6 km/h 182° 1024.9 hPa 0.000 mm
2021-03-04 00:41:00 9.3°C 61% 1.5 km/h 3.2 km/h 231° 1025.0 hPa 0.000 mm
2021-03-04 00:40:00 9.3°C 61% 3.2 km/h 4.8 km/h 223° 1025.0 hPa 0.000 mm
2021-03-04 00:39:00 9.3°C 61% 4.5 km/h 7.4 km/h 191° 1025.0 hPa 0.000 mm
2021-03-04 00:38:00 9.3°C 61% 4.6 km/h 7.9 km/h 243° 1024.9 hPa 0.000 mm
2021-03-04 00:37:00 9.4°C 61% 3.6 km/h 5.8 km/h 217° 1025.0 hPa 0.000 mm
2021-03-04 00:36:00 9.4°C 61% 4.6 km/h 6.9 km/h 236° 1024.9 hPa 0.000 mm
2021-03-04 00:35:00 9.4°C 61% 5.8 km/h 8.4 km/h 191° 1024.9 hPa 0.000 mm
2021-03-04 00:34:00 9.4°C 60% 3.2 km/h 6.3 km/h 213° 1024.9 hPa 0.000 mm
2021-03-04 00:33:00 9.4°C 60% 0.9 km/h 2.6 km/h 111° 1024.9 hPa 0.000 mm
2021-03-04 00:32:00 9.3°C 61% 2.4 km/h 3.2 km/h 168° 1024.9 hPa 0.000 mm
2021-03-04 00:31:00 9.2°C 61% 1.5 km/h 2.6 km/h 131° 1024.9 hPa 0.000 mm
2021-03-04 00:30:00 9.2°C 61% 4.0 km/h 5.8 km/h 129° 1024.9 hPa 0.000 mm
2021-03-04 00:29:00 9.3°C 61% 2.5 km/h 4.2 km/h 164° 1024.9 hPa 0.000 mm
2021-03-04 00:28:00 9.4°C 60% 1.6 km/h 3.2 km/h 154° 1024.8 hPa 0.000 mm
2021-03-04 00:27:00 9.5°C 60% 3.2 km/h 5.8 km/h 126° 1024.9 hPa 0.000 mm
2021-03-04 00:26:00 9.3°C 60% 3.1 km/h 4.8 km/h 165° 1024.8 hPa 0.000 mm
2021-03-04 00:25:00 9.4°C 60% 2.8 km/h 4.8 km/h 123° 1024.8 hPa 0.000 mm
2021-03-04 00:24:00 9.5°C 60% 3.6 km/h 4.8 km/h 159° 1024.9 hPa 0.000 mm
2021-03-04 00:23:00 9.5°C 60% 3.5 km/h 5.8 km/h 122° 1024.9 hPa 0.000 mm
2021-03-04 00:22:00 9.4°C 60% 2.8 km/h 4.2 km/h 124° 1024.9 hPa 0.000 mm
2021-03-04 00:21:00 9.5°C 60% 2.2 km/h 3.2 km/h 122° 1025.0 hPa 0.000 mm
2021-03-04 00:20:00 9.5°C 60% 2.0 km/h 3.2 km/h 138° 1025.0 hPa 0.000 mm
2021-03-04 00:19:00 9.6°C 60% 3.5 km/h 4.8 km/h 206° 1025.0 hPa 0.000 mm
2021-03-04 00:18:00 9.6°C 60% 2.1 km/h 4.2 km/h 197° 1025.0 hPa 0.000 mm
2021-03-04 00:17:00 9.5°C 60% 2.2 km/h 4.8 km/h 110° 1025.0 hPa 0.000 mm
2021-03-04 00:16:00 9.5°C 60% 1.8 km/h 2.6 km/h 127° 1025.0 hPa 0.000 mm
2021-03-04 00:15:00 9.7°C 59% 2.4 km/h 3.2 km/h 203° 1025.0 hPa 0.000 mm
2021-03-04 00:14:00 9.6°C 60% 1.1 km/h 1.6 km/h 127° 1025.0 hPa 0.000 mm
2021-03-04 00:14:00 9.7°C 59% 2.2 km/h 3.7 km/h 191° 1025.0 hPa 0.000 mm
2021-03-04 00:13:00 9.5°C 60% 2.1 km/h 3.2 km/h 146° 1025.0 hPa 0.000 mm
2021-03-04 00:12:00 9.5°C 60% 2.0 km/h 3.2 km/h 215° 1025.0 hPa 0.000 mm
2021-03-04 00:11:00 9.5°C 60% 1.1 km/h 2.6 km/h 255° 1025.0 hPa 0.000 mm
2021-03-04 00:10:00 9.5°C 60% 1.4 km/h 4.2 km/h 239° 1025.0 hPa 0.000 mm
2021-03-04 00:09:00 9.6°C 59% 2.4 km/h 4.8 km/h 278° 1025.0 hPa 0.000 mm
2021-03-04 00:08:00 9.7°C 59% 3.4 km/h 4.8 km/h 233° 1025.0 hPa 0.000 mm
2021-03-04 00:07:00 9.7°C 59% 2.5 km/h 4.2 km/h 151° 1025.0 hPa 0.000 mm
2021-03-04 00:06:00 9.8°C 58% 1.2 km/h 2.1 km/h 113° 1025.0 hPa 0.000 mm
2021-03-04 00:05:00 9.9°C 58% 1.4 km/h 2.6 km/h 92° 1025.0 hPa 0.000 mm
2021-03-04 00:04:00 9.9°C 58% 2.7 km/h 3.7 km/h 171° 1025.0 hPa 0.000 mm
2021-03-04 00:03:00 9.8°C 58% 2.4 km/h 3.7 km/h 149° 1025.0 hPa 0.000 mm
2021-03-04 00:02:00 9.8°C 58% 2.4 km/h 4.2 km/h 131° 1025.0 hPa 0.000 mm
2021-03-04 00:01:00 9.7°C 58% 2.4 km/h 5.8 km/h 155° 1025.0 hPa 0.000 mm
2021-03-04 00:00:00 9.7°C 58% 3.5 km/h 6.3 km/h 201° 1025.0 hPa 0.000 mm
2021-03-03 23:59:00 9.8°C 58% 0.9 km/h 2.6 km/h 89° 1025.0 hPa 0.000 mm
2021-03-03 23:58:00 9.8°C 58% 2.6 km/h 4.2 km/h 143° 1025.0 hPa 0.000 mm
2021-03-03 23:57:00 9.7°C 58% 3.5 km/h 5.3 km/h 107° 1025.0 hPa 0.000 mm
2021-03-03 23:56:00 9.8°C 58% 3.3 km/h 6.3 km/h 200° 1025.0 hPa 0.000 mm
2021-03-03 23:55:00 9.9°C 57% 1.9 km/h 2.6 km/h 200° 1025.0 hPa 0.000 mm
2021-03-03 23:54:00 9.9°C 57% 2.9 km/h 3.7 km/h 245° 1025.0 hPa 0.000 mm
2021-03-03 23:53:00 10.0°C 57% 3.4 km/h 4.2 km/h 197° 1025.0 hPa 0.000 mm
2021-03-03 23:52:00 9.9°C 57% 1.9 km/h 4.2 km/h 123° 1025.0 hPa 0.000 mm
2021-03-03 23:51:00 9.9°C 57% 1.6 km/h 4.2 km/h 136° 1025.0 hPa 0.000 mm
2021-03-03 23:50:00 10.0°C 57% 1.8 km/h 3.7 km/h 209° 1025.0 hPa 0.000 mm
2021-03-03 23:49:00 10.0°C 57% 4.0 km/h 6.3 km/h 186° 1025.1 hPa 0.000 mm
2021-03-03 23:48:00 9.9°C 57% 5.4 km/h 7.4 km/h 221° 1025.0 hPa 0.000 mm
2021-03-03 23:47:00 9.8°C 57% 1.6 km/h 3.2 km/h 98° 1025.1 hPa 0.000 mm
2021-03-03 23:46:00 9.9°C 56% 1.8 km/h 2.6 km/h 194° 1025.0 hPa 0.000 mm
2021-03-03 23:45:00 9.9°C 56% 1.7 km/h 3.2 km/h 151° 1025.1 hPa 0.000 mm
2021-03-03 23:44:00 9.9°C 56% 2.3 km/h 3.7 km/h 167° 1025.0 hPa 0.000 mm
2021-03-03 23:43:00 10.1°C 56% 1.5 km/h 2.1 km/h 152° 1025.0 hPa 0.000 mm
2021-03-03 23:42:00 10.1°C 56% 1.6 km/h 2.6 km/h 174° 1025.0 hPa 0.000 mm
2021-03-03 23:41:00 10.1°C 56% 1.7 km/h 3.2 km/h 190° 1025.0 hPa 0.000 mm
2021-03-03 23:40:00 10.1°C 56% 2.3 km/h 4.2 km/h 179° 1025.0 hPa 0.000 mm
2021-03-03 23:39:00 10.1°C 56% 5.9 km/h 7.4 km/h 152° 1025.1 hPa 0.000 mm
2021-03-03 23:38:00 10.2°C 55% 4.6 km/h 6.9 km/h 204° 1025.1 hPa 0.000 mm
2021-03-03 23:37:00 10.1°C 55% 7.2 km/h 9.0 km/h 129° 1025.1 hPa 0.000 mm
2021-03-03 23:36:00 10.1°C 56% 7.1 km/h 12.7 km/h 158° 1025.0 hPa 0.000 mm
2021-03-03 23:35:00 9.9°C 56% 5.6 km/h 10.0 km/h 174° 1025.1 hPa 0.000 mm
2021-03-03 23:34:00 10.1°C 55% 5.0 km/h 7.4 km/h 178° 1025.0 hPa 0.000 mm
2021-03-03 23:33:00 10.1°C 55% 4.6 km/h 6.9 km/h 164° 1025.1 hPa 0.000 mm
2021-03-03 23:32:00 10.0°C 56% 6.5 km/h 8.4 km/h 153° 1025.1 hPa 0.000 mm
2021-03-03 23:31:00 10.0°C 56% 2.6 km/h 4.2 km/h 140° 1025.1 hPa 0.000 mm
2021-03-03 23:30:00 10.1°C 55% 2.7 km/h 5.8 km/h 187° 1025.1 hPa 0.000 mm
2021-03-03 23:29:00 10.2°C 55% 4.1 km/h 5.3 km/h 190° 1025.1 hPa 0.000 mm
2021-03-03 23:28:00 10.1°C 55% 4.6 km/h 5.8 km/h 133° 1025.1 hPa 0.000 mm
2021-03-03 23:27:00 10.1°C 55% 5.3 km/h 7.9 km/h 156° 1025.1 hPa 0.000 mm
2021-03-03 23:26:00 10.1°C 55% 6.7 km/h 9.0 km/h 172° 1025.1 hPa 0.000 mm
2021-03-03 23:25:00 10.1°C 55% 6.8 km/h 11.1 km/h 165° 1025.1 hPa 0.000 mm
2021-03-03 23:24:00 10.0°C 55% 4.2 km/h 6.3 km/h 168° 1025.2 hPa 0.000 mm
2021-03-03 23:23:00 9.9°C 55% 3.1 km/h 4.2 km/h 133° 1025.2 hPa 0.000 mm
2021-03-03 23:22:00 10.1°C 55% 5.6 km/h 6.9 km/h 209° 1025.2 hPa 0.000 mm
2021-03-03 23:21:00 10.1°C 55% 4.3 km/h 5.3 km/h 141° 1025.1 hPa 0.000 mm
2021-03-03 23:20:00 10.0°C 55% 5.4 km/h 6.9 km/h 146° 1025.2 hPa 0.000 mm
2021-03-03 23:19:00 10.1°C 55% 7.2 km/h 12.1 km/h 164° 1025.2 hPa 0.000 mm
2021-03-03 23:18:00 10.1°C 55% 6.2 km/h 8.4 km/h 195° 1025.1 hPa 0.000 mm
2021-03-03 23:17:00 10.0°C 55% 6.5 km/h 9.0 km/h 186° 1025.1 hPa 0.000 mm
2021-03-03 23:16:00 10.1°C 55% 5.5 km/h 9.0 km/h 180° 1025.2 hPa 0.000 mm
2021-03-03 23:15:00 10.0°C 55% 6.1 km/h 9.0 km/h 177° 1025.1 hPa 0.000 mm
2021-03-03 23:14:00 10.1°C 54% 6.0 km/h 7.4 km/h 173° 1025.2 hPa 0.000 mm
2021-03-03 23:13:00 10.2°C 54% 5.3 km/h 6.9 km/h 149° 1025.2 hPa 0.000 mm
2021-03-03 23:12:00 10.1°C 54% 8.9 km/h 12.1 km/h 169° 1025.2 hPa 0.000 mm
2021-03-03 23:11:00 10.2°C 54% 6.6 km/h 7.9 km/h 177° 1025.2 hPa 0.000 mm
2021-03-03 23:10:00 10.2°C 54% 6.7 km/h 9.0 km/h 191° 1025.2 hPa 0.000 mm
2021-03-03 23:09:00 10.2°C 54% 7.5 km/h 9.5 km/h 144° 1025.2 hPa 0.000 mm
2021-03-03 23:08:00 10.2°C 54% 6.2 km/h 8.4 km/h 160° 1025.2 hPa 0.000 mm
2021-03-03 23:07:00 10.1°C 54% 6.1 km/h 8.4 km/h 159° 1025.3 hPa 0.000 mm
2021-03-03 23:06:00 10.1°C 54% 5.4 km/h 7.4 km/h 155° 1025.3 hPa 0.000 mm
2021-03-03 23:05:00 10.0°C 54% 7.0 km/h 9.5 km/h 149° 1025.3 hPa 0.000 mm
2021-03-03 23:04:00 10.1°C 54% 4.5 km/h 7.4 km/h 156° 1025.3 hPa 0.000 mm
2021-03-03 23:03:00 10.1°C 54% 4.8 km/h 6.3 km/h 171° 1025.3 hPa 0.000 mm
2021-03-03 23:02:00 10.1°C 54% 7.6 km/h 13.2 km/h 188° 1025.3 hPa 0.000 mm
2021-03-03 23:01:00 10.1°C 54% 5.9 km/h 12.1 km/h 187° 1025.4 hPa 0.000 mm
2021-03-03 23:00:00 10.1°C 54% 5.9 km/h 9.5 km/h 147° 1025.3 hPa 0.000 mm
2021-03-03 22:59:00 10.1°C 54% 7.1 km/h 10.0 km/h 161° 1025.3 hPa 0.000 mm
2021-03-03 22:58:00 10.1°C 53% 6.4 km/h 8.4 km/h 185° 1025.4 hPa 0.000 mm
2021-03-03 22:57:00 10.1°C 53% 3.4 km/h 6.9 km/h 176° 1025.4 hPa 0.000 mm
2021-03-03 22:56:00 10.1°C 53% 5.6 km/h 6.3 km/h 206° 1025.4 hPa 0.000 mm
2021-03-03 22:55:00 10.1°C 53% 5.9 km/h 9.5 km/h 123° 1025.4 hPa 0.000 mm
2021-03-03 22:54:00 10.1°C 53% 5.1 km/h 7.9 km/h 151° 1025.4 hPa 0.000 mm
2021-03-03 22:53:00 10.3°C 53% 8.0 km/h 12.7 km/h 182° 1025.3 hPa 0.000 mm
2021-03-03 22:52:00 10.2°C 53% 8.8 km/h 11.6 km/h 138° 1025.4 hPa 0.000 mm
2021-03-03 22:51:00 10.2°C 53% 7.1 km/h 9.5 km/h 151° 1025.4 hPa 0.000 mm
2021-03-03 22:50:00 10.2°C 53% 5.3 km/h 6.9 km/h 97° 1025.3 hPa 0.000 mm
2021-03-03 22:49:00 10.2°C 53% 7.1 km/h 10.0 km/h 153° 1025.3 hPa 0.000 mm
2021-03-03 22:48:00 10.2°C 53% 6.7 km/h 13.2 km/h 162° 1025.4 hPa 0.000 mm
2021-03-03 22:47:00 10.2°C 53% 6.6 km/h 9.5 km/h 116° 1025.4 hPa 0.000 mm
2021-03-03 22:46:00 10.1°C 53% 8.5 km/h 12.7 km/h 146° 1025.4 hPa 0.000 mm
2021-03-03 22:45:00 10.2°C 53% 8.7 km/h 13.7 km/h 176° 1025.4 hPa 0.000 mm
2021-03-03 22:44:00 10.2°C 53% 8.4 km/h 11.1 km/h 138° 1025.4 hPa 0.000 mm
2021-03-03 22:43:00 10.0°C 54% 5.4 km/h 10.6 km/h 114° 1025.5 hPa 0.000 mm
2021-03-03 22:42:00 10.1°C 53% 3.8 km/h 6.3 km/h 215° 1025.5 hPa 0.000 mm
2021-03-03 22:41:00 10.1°C 54% 5.7 km/h 8.4 km/h 167° 1025.5 hPa 0.000 mm
2021-03-03 22:40:00 10.1°C 53% 4.9 km/h 6.9 km/h 161° 1025.4 hPa 0.000 mm
2021-03-03 22:39:00 10.0°C 53% 2.7 km/h 4.8 km/h 187° 1025.5 hPa 0.000 mm
2021-03-03 22:38:00 10.0°C 53% 3.0 km/h 3.7 km/h 189° 1025.5 hPa 0.000 mm
2021-03-03 22:37:00 9.9°C 53% 2.7 km/h 5.3 km/h 143° 1025.5 hPa 0.000 mm
2021-03-03 22:36:00 9.8°C 54% 2.3 km/h 5.8 km/h 143° 1025.5 hPa 0.000 mm
2021-03-03 22:35:00 9.8°C 54% 0.9 km/h 1.6 km/h 100° 1025.5 hPa 0.000 mm
2021-03-03 22:34:00 9.8°C 54% 2.3 km/h 3.2 km/h 214° 1025.5 hPa 0.000 mm
2021-03-03 22:33:00 10.1°C 52% 2.8 km/h 4.8 km/h 196° 1025.5 hPa 0.000 mm
2021-03-03 22:32:00 10.1°C 52% 2.6 km/h 4.8 km/h 232° 1025.5 hPa 0.000 mm
2021-03-03 22:31:00 10.2°C 52% 3.0 km/h 4.8 km/h 239° 1025.5 hPa 0.000 mm
2021-03-03 22:30:00 10.2°C 52% 4.8 km/h 6.9 km/h 200° 1025.5 hPa 0.000 mm
2021-03-03 22:29:00 10.2°C 52% 4.5 km/h 7.4 km/h 197° 1025.5 hPa 0.000 mm
2021-03-03 22:28:00 10.1°C 52% 4.6 km/h 7.4 km/h 232° 1025.5 hPa 0.000 mm
2021-03-03 22:27:00 10.2°C 52% 2.7 km/h 5.3 km/h 146° 1025.5 hPa 0.000 mm
2021-03-03 22:26:00 10.2°C 52% 7.7 km/h 11.1 km/h 173° 1025.6 hPa 0.000 mm
2021-03-03 22:25:00 10.2°C 52% 5.5 km/h 7.4 km/h 138° 1025.7 hPa 0.000 mm
2021-03-03 22:24:00 10.2°C 52% 3.8 km/h 5.8 km/h 176° 1025.7 hPa 0.000 mm
2021-03-03 22:23:00 10.2°C 52% 4.4 km/h 7.4 km/h 170° 1025.6 hPa 0.000 mm
2021-03-03 22:22:00 10.1°C 52% 3.5 km/h 5.8 km/h 150° 1025.6 hPa 0.000 mm
2021-03-03 22:21:00 10.0°C 52% 1.8 km/h 2.6 km/h 161° 1025.7 hPa 0.000 mm
2021-03-03 22:20:00 10.2°C 51% 2.9 km/h 6.9 km/h 136° 1025.7 hPa 0.000 mm
2021-03-03 22:19:00 10.2°C 51% 3.0 km/h 6.3 km/h 165° 1025.7 hPa 0.000 mm
2021-03-03 22:18:00 10.3°C 51% 4.2 km/h 7.4 km/h 138° 1025.7 hPa 0.000 mm
2021-03-03 22:17:00 10.3°C 51% 6.5 km/h 8.4 km/h 152° 1025.6 hPa 0.000 mm
2021-03-03 22:16:00 10.2°C 51% 2.4 km/h 5.3 km/h 158° 1025.6 hPa 0.000 mm
2021-03-03 22:15:00 10.1°C 51% 2.1 km/h 4.2 km/h 174° 1025.6 hPa 0.000 mm
2021-03-03 22:14:00 10.0°C 51% 2.6 km/h 4.8 km/h 174° 1025.6 hPa 0.000 mm
2021-03-03 22:13:00 10.2°C 51% 3.1 km/h 5.3 km/h 138° 1025.6 hPa 0.000 mm
2021-03-03 22:12:00 10.1°C 51% 3.3 km/h 4.8 km/h 213° 1025.6 hPa 0.000 mm
2021-03-03 22:11:00 10.2°C 51% 4.9 km/h 7.9 km/h 132° 1025.6 hPa 0.000 mm
2021-03-03 22:10:00 10.1°C 51% 3.2 km/h 5.8 km/h 215° 1025.6 hPa 0.000 mm
2021-03-03 22:09:00 10.1°C 50% 1.9 km/h 3.2 km/h 169° 1025.6 hPa 0.000 mm
2021-03-03 22:08:00 10.2°C 50% 4.6 km/h 6.9 km/h 198° 1025.5 hPa 0.000 mm
2021-03-03 22:07:00 10.1°C 50% 2.7 km/h 4.8 km/h 224° 1025.6 hPa 0.000 mm
2021-03-03 22:06:00 10.3°C 50% 3.8 km/h 5.8 km/h 187° 1025.6 hPa 0.000 mm
2021-03-03 22:05:00 10.3°C 50% 4.9 km/h 6.9 km/h 174° 1025.6 hPa 0.000 mm
2021-03-03 22:04:00 10.3°C 50% 3.1 km/h 4.8 km/h 154° 1025.5 hPa 0.000 mm
2021-03-03 22:03:00 10.3°C 50% 6.0 km/h 10.0 km/h 122° 1025.5 hPa 0.000 mm
2021-03-03 22:02:00 10.2°C 50% 4.6 km/h 8.4 km/h 151° 1025.5 hPa 0.000 mm
2021-03-03 22:01:00 10.3°C 50% 3.1 km/h 5.8 km/h 145° 1025.5 hPa 0.000 mm
2021-03-03 22:00:00 10.2°C 50% 6.7 km/h 9.0 km/h 185° 1025.5 hPa 0.000 mm
2021-03-03 21:59:00 10.2°C 50% 4.3 km/h 7.4 km/h 180° 1025.5 hPa 0.000 mm
2021-03-03 21:58:00 10.2°C 50% 3.7 km/h 5.8 km/h 154° 1025.5 hPa 0.000 mm
2021-03-03 21:57:00 10.2°C 50% 3.8 km/h 5.3 km/h 180° 1025.5 hPa 0.000 mm
2021-03-03 21:56:00 10.2°C 50% 3.3 km/h 5.8 km/h 199° 1025.5 hPa 0.000 mm
2021-03-03 21:55:00 10.3°C 49% 2.7 km/h 4.8 km/h 135° 1025.5 hPa 0.000 mm
2021-03-03 21:54:00 10.3°C 49% 3.0 km/h 4.2 km/h 155° 1025.5 hPa 0.000 mm
2021-03-03 21:53:00 10.3°C 49% 5.9 km/h 7.9 km/h 143° 1025.5 hPa 0.000 mm
2021-03-03 21:52:00 10.2°C 49% 4.8 km/h 7.4 km/h 153° 1025.5 hPa 0.000 mm
2021-03-03 21:51:00 10.3°C 49% 2.3 km/h 4.8 km/h 161° 1025.5 hPa 0.000 mm
2021-03-03 21:50:00 10.4°C 49% 4.0 km/h 5.8 km/h 183° 1025.5 hPa 0.000 mm
2021-03-03 21:49:00 10.4°C 49% 5.7 km/h 9.0 km/h 154° 1025.5 hPa 0.000 mm
2021-03-03 21:48:00 10.5°C 49% 7.3 km/h 10.6 km/h 187° 1025.5 hPa 0.000 mm
2021-03-03 21:47:00 10.4°C 49% 5.6 km/h 8.4 km/h 137° 1025.5 hPa 0.000 mm
2021-03-03 21:46:00 10.4°C 49% 5.5 km/h 7.4 km/h 192° 1025.5 hPa 0.000 mm
2021-03-03 21:45:00 10.3°C 49% 6.1 km/h 9.5 km/h 159° 1025.5 hPa 0.000 mm
2021-03-03 21:44:00 10.4°C 49% 5.1 km/h 6.9 km/h 169° 1025.5 hPa 0.000 mm
2021-03-03 21:43:00 10.4°C 49% 3.9 km/h 5.8 km/h 177° 1025.5 hPa 0.000 mm
2021-03-03 21:42:00 10.4°C 49% 2.8 km/h 5.3 km/h 145° 1025.5 hPa 0.000 mm
2021-03-03 21:41:00 10.3°C 49% 4.5 km/h 7.4 km/h 137° 1025.5 hPa 0.000 mm
2021-03-03 21:40:00 10.4°C 49% 3.6 km/h 6.3 km/h 169° 1025.5 hPa 0.000 mm
2021-03-03 21:39:00 10.6°C 48% 4.2 km/h 6.3 km/h 158° 1025.6 hPa 0.000 mm
2021-03-03 21:38:00 10.7°C 48% 6.4 km/h 10.6 km/h 178° 1025.5 hPa 0.000 mm
2021-03-03 21:37:00 10.7°C 48% 8.8 km/h 12.1 km/h 194° 1025.6 hPa 0.000 mm
2021-03-03 21:36:00 10.7°C 48% 8.1 km/h 11.6 km/h 164° 1025.6 hPa 0.000 mm
2021-03-03 21:35:00 10.5°C 49% 6.8 km/h 9.5 km/h 146° 1025.6 hPa 0.000 mm
2021-03-03 21:34:00 10.5°C 49% 7.9 km/h 13.7 km/h 200° 1025.6 hPa 0.000 mm
2021-03-03 21:33:00 10.5°C 49% 8.5 km/h 12.7 km/h 150° 1025.5 hPa 0.000 mm
2021-03-03 21:32:00 10.5°C 49% 8.9 km/h 11.6 km/h 181° 1025.5 hPa 0.000 mm
2021-03-03 21:31:00 10.5°C 49% 12.5 km/h 16.4 km/h 219° 1025.5 hPa 0.000 mm
2021-03-03 21:30:00 10.5°C 49% 10.8 km/h 13.7 km/h 168° 1025.5 hPa 0.000 mm
2021-03-03 21:29:00 10.5°C 49% 10.4 km/h 16.9 km/h 174° 1025.5 hPa 0.000 mm
2021-03-03 21:28:00 10.4°C 49% 6.4 km/h 12.1 km/h 187° 1025.5 hPa 0.000 mm
2021-03-03 21:27:00 10.4°C 49% 5.6 km/h 7.9 km/h 178° 1025.5 hPa 0.000 mm
2021-03-03 21:26:00 10.5°C 49% 8.4 km/h 12.1 km/h 171° 1025.5 hPa 0.000 mm
2021-03-03 21:25:00 10.5°C 49% 7.7 km/h 10.0 km/h 182° 1025.6 hPa 0.000 mm
2021-03-03 21:24:00 10.5°C 49% 10.2 km/h 12.7 km/h 171° 1025.6 hPa 0.000 mm
2021-03-03 21:23:00 10.5°C 49% 10.9 km/h 16.9 km/h 179° 1025.6 hPa 0.000 mm
2021-03-03 21:22:00 10.5°C 49% 10.5 km/h 16.9 km/h 100° 1025.6 hPa 0.000 mm
2021-03-03 21:21:00 10.5°C 49% 6.9 km/h 10.0 km/h 138° 1025.6 hPa 0.000 mm
2021-03-03 21:20:00 10.5°C 49% 5.6 km/h 13.7 km/h 116° 1025.6 hPa 0.000 mm
2021-03-03 21:19:00 10.4°C 50% 7.0 km/h 9.0 km/h 138° 1025.6 hPa 0.000 mm
2021-03-03 21:18:00 10.5°C 49% 7.1 km/h 10.6 km/h 196° 1025.6 hPa 0.000 mm
2021-03-03 21:17:00 10.4°C 50% 8.4 km/h 12.1 km/h 179° 1025.6 hPa 0.000 mm
2021-03-03 21:16:00 10.5°C 50% 6.9 km/h 8.4 km/h 151° 1025.6 hPa 0.000 mm
2021-03-03 21:15:00 10.5°C 49% 6.8 km/h 10.0 km/h 124° 1025.6 hPa 0.000 mm
2021-03-03 21:14:00 10.5°C 50% 6.7 km/h 9.0 km/h 153° 1025.6 hPa 0.000 mm
2021-03-03 21:13:00 10.5°C 49% 8.4 km/h 11.1 km/h 204° 1025.6 hPa 0.000 mm
2021-03-03 21:12:00 10.4°C 49% 9.2 km/h 14.2 km/h 164° 1025.6 hPa 0.000 mm
2021-03-03 21:11:00 10.6°C 49% 7.0 km/h 10.6 km/h 159° 1025.6 hPa 0.000 mm
2021-03-03 21:10:00 10.6°C 49% 8.7 km/h 11.6 km/h 150° 1025.6 hPa 0.000 mm
2021-03-03 21:09:00 10.5°C 49% 9.4 km/h 12.7 km/h 111° 1025.6 hPa 0.000 mm
2021-03-03 21:08:00 10.5°C 49% 4.1 km/h 9.5 km/h 101° 1025.6 hPa 0.000 mm
2021-03-03 21:07:00 10.5°C 49% 6.3 km/h 7.9 km/h 161° 1025.6 hPa 0.000 mm
2021-03-03 21:06:00 10.5°C 49% 6.9 km/h 9.5 km/h 182° 1025.7 hPa 0.000 mm
2021-03-03 21:05:00 10.6°C 49% 9.2 km/h 12.1 km/h 201° 1025.7 hPa 0.000 mm
2021-03-03 21:04:00 10.6°C 48% 7.0 km/h 11.6 km/h 174° 1025.7 hPa 0.000 mm
2021-03-03 21:03:00 10.7°C 48% 6.7 km/h 12.7 km/h 162° 1025.7 hPa 0.000 mm
2021-03-03 21:02:00 10.6°C 48% 9.1 km/h 13.2 km/h 187° 1025.7 hPa 0.000 mm
2021-03-03 21:01:00 10.7°C 48% 6.9 km/h 9.5 km/h 178° 1025.6 hPa 0.000 mm
2021-03-03 21:00:00 10.7°C 48% 8.7 km/h 12.1 km/h 152° 1025.7 hPa 0.000 mm
2021-03-03 20:59:00 10.6°C 48% 8.8 km/h 12.1 km/h 165° 1025.7 hPa 0.000 mm
2021-03-03 20:58:00 10.6°C 48% 5.2 km/h 7.9 km/h 158° 1025.7 hPa 0.000 mm
2021-03-03 20:57:00 10.6°C 48% 7.9 km/h 11.6 km/h 177° 1025.8 hPa 0.000 mm
2021-03-03 20:56:00 10.5°C 48% 7.5 km/h 10.0 km/h 151° 1025.8 hPa 0.000 mm
2021-03-03 20:55:00 10.5°C 48% 6.4 km/h 9.0 km/h 185° 1025.7 hPa 0.000 mm
2021-03-03 20:54:00 10.7°C 48% 7.4 km/h 10.6 km/h 135° 1025.7 hPa 0.000 mm
2021-03-03 20:53:00 10.7°C 48% 8.4 km/h 11.1 km/h 158° 1025.7 hPa 0.000 mm
2021-03-03 20:52:00 10.7°C 48% 8.4 km/h 13.2 km/h 156° 1025.7 hPa 0.000 mm
2021-03-03 20:51:00 10.6°C 48% 7.4 km/h 9.5 km/h 179° 1025.7 hPa 0.000 mm
2021-03-03 20:50:00 10.6°C 48% 7.0 km/h 10.0 km/h 186° 1025.7 hPa 0.000 mm
2021-03-03 20:49:00 10.6°C 48% 9.7 km/h 15.8 km/h 140° 1025.7 hPa 0.000 mm
2021-03-03 20:48:00 10.7°C 48% 8.9 km/h 12.1 km/h 126° 1025.7 hPa 0.000 mm
2021-03-03 20:47:00 10.6°C 48% 7.5 km/h 12.1 km/h 150° 1025.8 hPa 0.000 mm
2021-03-03 20:46:00 10.6°C 48% 11.9 km/h 17.4 km/h 140° 1025.8 hPa 0.000 mm
2021-03-03 20:45:00 10.7°C 47% 14.3 km/h 21.1 km/h 169° 1025.8 hPa 0.000 mm
2021-03-03 20:44:00 10.6°C 48% 8.7 km/h 13.7 km/h 122° 1025.8 hPa 0.000 mm
2021-03-03 20:43:00 10.7°C 47% 8.0 km/h 10.0 km/h 150° 1025.8 hPa 0.000 mm
2021-03-03 20:42:00 10.6°C 47% 8.2 km/h 12.1 km/h 128° 1025.8 hPa 0.000 mm
2021-03-03 20:41:00 10.6°C 47% 7.4 km/h 14.2 km/h 134° 1025.8 hPa 0.000 mm
2021-03-03 20:40:00 10.7°C 47% 8.7 km/h 13.7 km/h 118° 1025.8 hPa 0.000 mm
2021-03-03 20:39:00 10.7°C 47% 8.3 km/h 10.0 km/h 154° 1025.8 hPa 0.000 mm
2021-03-03 20:38:00 10.7°C 47% 9.7 km/h 14.8 km/h 125° 1025.8 hPa 0.000 mm
2021-03-03 20:37:00 10.6°C 47% 8.0 km/h 12.1 km/h 176° 1025.8 hPa 0.000 mm
2021-03-03 20:36:00 10.6°C 47% 5.8 km/h 9.5 km/h 125° 1025.8 hPa 0.000 mm
2021-03-03 20:35:00 10.7°C 47% 6.6 km/h 9.5 km/h 140° 1025.8 hPa 0.000 mm
2021-03-03 20:34:00 10.6°C 47% 7.6 km/h 11.1 km/h 169° 1025.8 hPa 0.000 mm
2021-03-03 20:33:00 10.6°C 47% 7.5 km/h 10.6 km/h 133° 1025.9 hPa 0.000 mm
2021-03-03 20:32:00 10.7°C 47% 7.3 km/h 10.0 km/h 136° 1025.9 hPa 0.000 mm
2021-03-03 20:31:00 10.7°C 46% 7.2 km/h 10.6 km/h 170° 1025.8 hPa 0.000 mm
2021-03-03 20:30:00 10.8°C 46% 9.0 km/h 13.2 km/h 183° 1025.9 hPa 0.000 mm
2021-03-03 20:29:00 10.7°C 47% 10.3 km/h 12.1 km/h 168° 1025.9 hPa 0.000 mm
2021-03-03 20:28:00 10.8°C 46% 9.3 km/h 15.8 km/h 180° 1025.9 hPa 0.000 mm
2021-03-03 20:27:00 10.7°C 46% 6.8 km/h 9.5 km/h 151° 1025.9 hPa 0.000 mm
2021-03-03 20:26:00 10.7°C 46% 7.6 km/h 11.1 km/h 189° 1025.9 hPa 0.000 mm
2021-03-03 20:25:00 10.7°C 46% 7.3 km/h 9.5 km/h 141° 1025.9 hPa 0.000 mm
2021-03-03 20:24:00 10.7°C 46% 5.4 km/h 7.9 km/h 152° 1025.9 hPa 0.000 mm
2021-03-03 20:23:00 10.6°C 46% 7.0 km/h 10.0 km/h 150° 1025.9 hPa 0.000 mm
2021-03-03 20:22:00 10.7°C 46% 7.0 km/h 10.0 km/h 174° 1025.9 hPa 0.000 mm
2021-03-03 20:21:00 10.7°C 46% 5.3 km/h 6.9 km/h 146° 1025.9 hPa 0.000 mm
2021-03-03 20:20:00 10.9°C 45% 8.6 km/h 12.7 km/h 181° 1026.0 hPa 0.000 mm
2021-03-03 20:19:00 10.8°C 45% 6.3 km/h 9.0 km/h 168° 1026.0 hPa 0.000 mm
2021-03-03 20:18:00 10.8°C 45% 7.2 km/h 10.0 km/h 116° 1026.0 hPa 0.000 mm
2021-03-03 20:17:00 10.7°C 45% 7.5 km/h 11.1 km/h 146° 1026.0 hPa 0.000 mm
2021-03-03 20:16:00 10.6°C 46% 6.5 km/h 9.5 km/h 208° 1026.0 hPa 0.000 mm
2021-03-03 20:15:00 10.6°C 46% 4.3 km/h 6.9 km/h 204° 1026.0 hPa 0.000 mm
2021-03-03 20:14:00 10.6°C 46% 2.5 km/h 6.3 km/h 116° 1025.9 hPa 0.000 mm
2021-03-03 20:13:00 10.7°C 45% 6.9 km/h 10.6 km/h 174° 1025.9 hPa 0.000 mm
2021-03-03 20:12:00 10.7°C 45% 4.3 km/h 5.3 km/h 177° 1025.9 hPa 0.000 mm
2021-03-03 20:11:00 10.8°C 45% 2.6 km/h 5.8 km/h 163° 1025.9 hPa 0.000 mm
2021-03-03 20:10:00 10.8°C 45% 3.2 km/h 5.8 km/h 170° 1026.0 hPa 0.000 mm
2021-03-03 20:09:00 10.8°C 45% 3.0 km/h 4.8 km/h 154° 1025.9 hPa 0.000 mm
2021-03-03 20:08:00 10.8°C 45% 5.8 km/h 8.4 km/h 173° 1025.9 hPa 0.000 mm
2021-03-03 20:07:00 10.8°C 45% 6.5 km/h 9.0 km/h 141° 1026.0 hPa 0.000 mm
2021-03-03 20:06:00 10.8°C 45% 6.2 km/h 7.9 km/h 113° 1025.9 hPa 0.000 mm
2021-03-03 20:05:00 10.8°C 45% 6.1 km/h 10.0 km/h 140° 1026.0 hPa 0.000 mm
2021-03-03 20:04:00 10.7°C 45% 5.6 km/h 9.0 km/h 169° 1026.0 hPa 0.000 mm
2021-03-03 20:03:00 10.8°C 45% 5.5 km/h 7.4 km/h 188° 1026.0 hPa 0.000 mm
2021-03-03 20:02:00 10.7°C 45% 4.8 km/h 7.4 km/h 128° 1026.0 hPa 0.000 mm
2021-03-03 20:01:00 10.7°C 45% 5.4 km/h 6.9 km/h 178° 1026.0 hPa 0.000 mm
2021-03-03 20:00:00 10.7°C 45% 4.8 km/h 7.9 km/h 180° 1026.0 hPa 0.000 mm
2021-03-03 19:59:00 10.6°C 45% 4.4 km/h 6.3 km/h 123° 1026.0 hPa 0.000 mm
2021-03-03 19:58:00 10.8°C 45% 7.1 km/h 9.0 km/h 187° 1026.0 hPa 0.000 mm
2021-03-03 19:57:00 10.7°C 45% 8.3 km/h 11.1 km/h 111° 1026.0 hPa 0.000 mm
2021-03-03 19:56:00 10.8°C 45% 5.0 km/h 6.3 km/h 206° 1026.0 hPa 0.000 mm
2021-03-03 19:55:00 10.9°C 44% 6.3 km/h 10.0 km/h 168° 1026.0 hPa 0.000 mm
2021-03-03 19:54:00 10.9°C 44% 8.5 km/h 11.6 km/h 160° 1026.0 hPa 0.000 mm
2021-03-03 19:53:00 10.8°C 45% 6.7 km/h 11.1 km/h 155° 1026.0 hPa 0.000 mm
2021-03-03 19:52:00 10.8°C 44% 6.5 km/h 8.4 km/h 191° 1026.0 hPa 0.000 mm
2021-03-03 19:51:00 10.9°C 44% 5.7 km/h 8.4 km/h 156° 1026.0 hPa 0.000 mm
2021-03-03 19:50:00 10.9°C 44% 7.2 km/h 10.0 km/h 169° 1026.0 hPa 0.000 mm
2021-03-03 19:49:00 10.8°C 44% 5.2 km/h 6.3 km/h 156° 1026.0 hPa 0.000 mm
2021-03-03 19:48:00 10.8°C 44% 6.4 km/h 8.4 km/h 192° 1026.0 hPa 0.000 mm
2021-03-03 19:47:00 10.9°C 44% 6.5 km/h 9.0 km/h 168° 1026.0 hPa 0.000 mm
2021-03-03 19:46:00 10.8°C 44% 7.7 km/h 10.0 km/h 169° 1026.0 hPa 0.000 mm
2021-03-03 19:45:00 10.8°C 45% 6.2 km/h 10.6 km/h 151° 1026.0 hPa 0.000 mm
2021-03-03 19:44:00 10.8°C 44% 7.5 km/h 9.5 km/h 186° 1026.0 hPa 0.000 mm
2021-03-03 19:43:00 10.8°C 44% 6.7 km/h 9.0 km/h 150° 1025.9 hPa 0.000 mm
2021-03-03 19:42:00 10.7°C 44% 7.9 km/h 11.6 km/h 179° 1025.9 hPa 0.000 mm
2021-03-03 19:41:00 10.8°C 44% 7.6 km/h 11.1 km/h 170° 1025.9 hPa 0.000 mm
2021-03-03 19:40:00 10.8°C 44% 7.8 km/h 10.0 km/h 164° 1025.9 hPa 0.000 mm
2021-03-03 19:39:00 10.8°C 44% 8.5 km/h 12.1 km/h 196° 1025.9 hPa 0.000 mm
2021-03-03 19:38:00 10.8°C 44% 6.9 km/h 9.0 km/h 182° 1026.0 hPa 0.000 mm
2021-03-03 19:37:00 10.9°C 44% 7.2 km/h 10.6 km/h 172° 1025.9 hPa 0.000 mm
2021-03-03 19:36:00 10.9°C 44% 11.0 km/h 15.8 km/h 143° 1025.9 hPa 0.000 mm
2021-03-03 19:35:00 10.9°C 44% 9.2 km/h 12.1 km/h 145° 1025.9 hPa 0.000 mm
2021-03-03 19:34:00 10.8°C 44% 7.6 km/h 10.6 km/h 150° 1025.9 hPa 0.000 mm
2021-03-03 19:33:00 10.8°C 44% 7.8 km/h 12.7 km/h 170° 1026.0 hPa 0.000 mm
2021-03-03 19:32:00 10.7°C 44% 5.8 km/h 8.4 km/h 132° 1026.0 hPa 0.000 mm
2021-03-03 19:31:00 10.7°C 45% 7.8 km/h 10.6 km/h 159° 1026.0 hPa 0.000 mm
2021-03-03 19:30:00 10.7°C 44% 8.1 km/h 12.7 km/h 153° 1026.1 hPa 0.000 mm
2021-03-03 19:29:00 10.9°C 44% 7.0 km/h 9.0 km/h 159° 1026.1 hPa 0.000 mm
2021-03-03 19:28:00 10.7°C 44% 6.5 km/h 11.6 km/h 172° 1026.1 hPa 0.000 mm
2021-03-03 19:27:00 10.8°C 44% 6.2 km/h 9.0 km/h 146° 1026.1 hPa 0.000 mm
2021-03-03 19:26:00 10.7°C 44% 5.2 km/h 9.5 km/h 118° 1026.1 hPa 0.000 mm
2021-03-03 19:25:00 10.8°C 44% 4.9 km/h 7.4 km/h 153° 1026.1 hPa 0.000 mm
2021-03-03 19:24:00 10.8°C 44% 8.1 km/h 13.2 km/h 162° 1026.1 hPa 0.000 mm
2021-03-03 19:23:00 10.8°C 44% 5.2 km/h 7.9 km/h 123° 1026.1 hPa 0.000 mm
2021-03-03 19:22:00 10.8°C 44% 8.5 km/h 15.3 km/h 185° 1026.2 hPa 0.000 mm
2021-03-03 19:21:00 10.8°C 44% 7.4 km/h 9.5 km/h 188° 1026.1 hPa 0.000 mm
2021-03-03 19:20:00 10.9°C 44% 6.3 km/h 7.9 km/h 168° 1026.2 hPa 0.000 mm
2021-03-03 19:19:00 10.8°C 44% 8.1 km/h 11.1 km/h 174° 1026.1 hPa 0.000 mm
2021-03-03 19:18:00 10.7°C 44% 5.6 km/h 7.9 km/h 105° 1026.2 hPa 0.000 mm
2021-03-03 19:17:00 10.8°C 44% 4.0 km/h 9.5 km/h 158° 1026.2 hPa 0.000 mm
2021-03-03 19:16:00 10.8°C 44% 6.6 km/h 10.0 km/h 154° 1026.3 hPa 0.000 mm
2021-03-03 19:15:00 10.8°C 44% 4.9 km/h 7.4 km/h 163° 1026.3 hPa 0.000 mm
2021-03-03 19:14:00 10.8°C 44% 4.4 km/h 6.9 km/h 171° 1026.2 hPa 0.000 mm
2021-03-03 19:13:00 10.8°C 43% 8.7 km/h 11.6 km/h 185° 1026.2 hPa 0.000 mm
2021-03-03 19:12:00 10.9°C 43% 6.6 km/h 9.0 km/h 198° 1026.2 hPa 0.000 mm
2021-03-03 19:11:00 10.9°C 43% 6.6 km/h 10.0 km/h 149° 1026.2 hPa 0.000 mm
2021-03-03 19:10:00 10.8°C 44% 5.2 km/h 6.9 km/h 128° 1026.2 hPa 0.000 mm
2021-03-03 19:09:00 10.9°C 43% 3.7 km/h 5.8 km/h 118° 1026.2 hPa 0.000 mm
2021-03-03 19:08:00 10.8°C 43% 5.2 km/h 7.4 km/h 114° 1026.2 hPa 0.000 mm
2021-03-03 19:07:00 10.9°C 43% 5.1 km/h 7.9 km/h 119° 1026.2 hPa 0.000 mm
2021-03-03 19:06:00 10.9°C 43% 7.6 km/h 11.6 km/h 120° 1026.2 hPa 0.000 mm
2021-03-03 19:05:00 10.9°C 43% 5.0 km/h 6.3 km/h 158° 1026.2 hPa 0.000 mm
2021-03-03 19:04:00 10.9°C 43% 5.9 km/h 7.4 km/h 172° 1026.2 hPa 0.000 mm
2021-03-03 19:03:00 10.9°C 43% 5.6 km/h 8.4 km/h 207° 1026.2 hPa 0.000 mm
2021-03-03 19:02:00 10.9°C 43% 5.8 km/h 8.4 km/h 167° 1026.2 hPa 0.000 mm
2021-03-03 19:01:00 10.8°C 43% 5.3 km/h 7.9 km/h 156° 1026.2 hPa 0.000 mm
2021-03-03 19:00:00 11.0°C 43% 3.4 km/h 5.3 km/h 138° 1026.2 hPa 0.000 mm
2021-03-03 18:59:00 10.9°C 43% 7.3 km/h 10.0 km/h 173° 1026.2 hPa 0.000 mm
2021-03-03 18:58:00 10.9°C 43% 8.0 km/h 10.0 km/h 146° 1026.2 hPa 0.000 mm
2021-03-03 18:57:00 10.9°C 43% 5.6 km/h 7.4 km/h 154° 1026.2 hPa 0.000 mm
2021-03-03 18:56:00 10.9°C 43% 6.7 km/h 9.0 km/h 129° 1026.2 hPa 0.000 mm
2021-03-03 18:55:00 11.0°C 43% 5.1 km/h 7.4 km/h 114° 1026.2 hPa 0.000 mm
2021-03-03 18:54:00 11.1°C 43% 8.1 km/h 9.0 km/h 187° 1026.2 hPa 0.000 mm
2021-03-03 18:53:00 11.1°C 43% 9.5 km/h 13.7 km/h 163° 1026.1 hPa 0.000 mm
2021-03-03 18:52:00 11.1°C 42% 8.3 km/h 13.2 km/h 122° 1026.1 hPa 0.000 mm
2021-03-03 18:51:00 11.0°C 43% 5.7 km/h 7.4 km/h 151° 1026.1 hPa 0.000 mm
2021-03-03 18:50:00 11.0°C 43% 6.2 km/h 7.9 km/h 144° 1026.1 hPa 0.000 mm
2021-03-03 18:49:00 11.1°C 42% 6.7 km/h 11.1 km/h 169° 1026.1 hPa 0.000 mm
2021-03-03 18:48:00 11.1°C 42% 8.2 km/h 11.1 km/h 146° 1026.1 hPa 0.000 mm
2021-03-03 18:47:00 11.0°C 43% 11.1 km/h 14.2 km/h 144° 1026.1 hPa 0.000 mm
2021-03-03 18:46:00 11.0°C 43% 6.4 km/h 8.4 km/h 150° 1026.0 hPa 0.000 mm
2021-03-03 18:45:00 11.1°C 42% 7.1 km/h 9.5 km/h 153° 1026.0 hPa 0.000 mm
2021-03-03 18:44:00 11.1°C 42% 7.0 km/h 9.0 km/h 150° 1026.0 hPa 0.000 mm
2021-03-03 18:43:00 11.1°C 43% 9.7 km/h 14.2 km/h 146° 1026.0 hPa 0.000 mm
2021-03-03 18:42:00 10.8°C 43% 10.7 km/h 13.7 km/h 132° 1026.0 hPa 0.000 mm
2021-03-03 18:41:00 11.0°C 43% 8.6 km/h 11.1 km/h 177° 1026.0 hPa 0.000 mm
2021-03-03 18:40:00 11.2°C 42% 7.7 km/h 10.0 km/h 135° 1026.0 hPa 0.000 mm
2021-03-03 18:39:00 11.2°C 42% 8.6 km/h 11.1 km/h 185° 1026.0 hPa 0.000 mm
2021-03-03 18:38:00 11.2°C 42% 10.0 km/h 13.2 km/h 115° 1026.0 hPa 0.000 mm
2021-03-03 18:37:00 11.2°C 42% 7.1 km/h 9.5 km/h 156° 1026.0 hPa 0.000 mm
2021-03-03 18:36:00 11.1°C 42% 9.2 km/h 12.1 km/h 161° 1026.0 hPa 0.000 mm
2021-03-03 18:35:00 11.2°C 42% 8.7 km/h 13.2 km/h 105° 1026.0 hPa 0.000 mm
2021-03-03 18:34:00 11.2°C 42% 8.3 km/h 12.1 km/h 140° 1026.0 hPa 0.000 mm
2021-03-03 18:33:00 11.2°C 42% 10.6 km/h 13.2 km/h 145° 1026.0 hPa 0.000 mm
2021-03-03 18:32:00 11.3°C 42% 10.3 km/h 14.8 km/h 163° 1026.0 hPa 0.000 mm
2021-03-03 18:31:00 11.2°C 42% 9.9 km/h 13.7 km/h 122° 1026.0 hPa 0.000 mm
2021-03-03 18:30:00 11.3°C 42% 10.7 km/h 15.3 km/h 149° 1026.0 hPa 0.000 mm
2021-03-03 18:29:00 11.1°C 42% 8.6 km/h 13.2 km/h 126° 1026.0 hPa 0.000 mm
2021-03-03 18:28:00 11.1°C 42% 7.9 km/h 12.7 km/h 140° 1026.0 hPa 0.000 mm
2021-03-03 18:27:00 11.1°C 42% 6.6 km/h 9.0 km/h 147° 1026.0 hPa 0.000 mm
2021-03-03 18:26:00 11.2°C 42% 7.9 km/h 14.2 km/h 169° 1025.9 hPa 0.000 mm
2021-03-03 18:25:00 11.2°C 42% 7.6 km/h 11.1 km/h 151° 1025.9 hPa 0.000 mm
2021-03-03 18:24:00 11.2°C 42% 9.2 km/h 13.2 km/h 150° 1025.9 hPa 0.000 mm
2021-03-03 18:23:00 11.3°C 42% 10.2 km/h 14.2 km/h 136° 1026.0 hPa 0.000 mm
2021-03-03 18:22:00 11.3°C 42% 10.2 km/h 15.8 km/h 163° 1026.0 hPa 0.000 mm
2021-03-03 18:21:00 11.2°C 42% 9.4 km/h 13.2 km/h 125° 1025.9 hPa 0.000 mm
2021-03-03 18:20:00 11.2°C 42% 9.2 km/h 13.2 km/h 128° 1026.0 hPa 0.000 mm
2021-03-03 18:19:00 11.2°C 42% 9.1 km/h 12.1 km/h 150° 1026.0 hPa 0.000 mm
2021-03-03 18:18:00 11.2°C 42% 8.4 km/h 11.6 km/h 117° 1026.0 hPa 0.000 mm
2021-03-03 18:17:00 11.2°C 42% 9.4 km/h 12.7 km/h 132° 1026.0 hPa 0.000 mm
2021-03-03 18:16:00 11.2°C 42% 8.1 km/h 10.0 km/h 122° 1026.0 hPa 0.000 mm
2021-03-03 18:15:00 11.3°C 42% 9.7 km/h 12.1 km/h 140° 1026.0 hPa 0.000 mm
2021-03-03 18:14:00 11.3°C 42% 10.9 km/h 15.8 km/h 168° 1026.0 hPa 0.000 mm
2021-03-03 18:13:00 11.4°C 41% 10.5 km/h 12.7 km/h 147° 1026.0 hPa 0.000 mm
2021-03-03 18:12:00 11.3°C 42% 10.3 km/h 12.7 km/h 150° 1026.0 hPa 0.000 mm
2021-03-03 18:11:00 11.4°C 41% 9.9 km/h 12.1 km/h 159° 1026.0 hPa 0.000 mm
2021-03-03 18:10:00 11.4°C 41% 9.3 km/h 12.1 km/h 162° 1026.0 hPa 0.000 mm
2021-03-03 18:09:00 11.3°C 41% 9.8 km/h 14.2 km/h 149° 1026.0 hPa 0.000 mm
2021-03-03 18:08:00 11.4°C 41% 8.3 km/h 10.0 km/h 127° 1026.0 hPa 0.000 mm
2021-03-03 18:07:00 11.3°C 41% 10.1 km/h 14.2 km/h 117° 1026.1 hPa 0.000 mm
2021-03-03 18:06:00 11.4°C 41% 9.8 km/h 12.1 km/h 203° 1026.0 hPa 0.000 mm
2021-03-03 18:05:00 11.5°C 41% 8.9 km/h 11.6 km/h 187° 1026.0 hPa 0.000 mm
2021-03-03 18:04:00 11.4°C 41% 9.4 km/h 12.7 km/h 136° 1026.0 hPa 0.000 mm
2021-03-03 18:03:00 11.3°C 42% 9.6 km/h 14.8 km/h 160° 1026.0 hPa 0.000 mm
2021-03-03 18:02:00 11.3°C 42% 8.5 km/h 11.1 km/h 147° 1026.0 hPa 0.000 mm
2021-03-03 18:01:00 11.3°C 42% 8.9 km/h 13.2 km/h 190° 1026.0 hPa 0.000 mm
2021-03-03 18:00:00 11.3°C 41% 8.6 km/h 11.1 km/h 126° 1026.0 hPa 0.000 mm
2021-03-03 17:59:00 11.3°C 41% 7.3 km/h 10.0 km/h 150° 1026.0 hPa 0.000 mm
2021-03-03 17:58:00 11.4°C 41% 8.3 km/h 13.7 km/h 115° 1026.0 hPa 0.000 mm
2021-03-03 17:57:00 11.4°C 41% 9.6 km/h 13.7 km/h 105° 1026.0 hPa 0.000 mm
2021-03-03 17:56:00 11.5°C 41% 7.9 km/h 10.6 km/h 156° 1026.0 hPa 0.000 mm
2021-03-03 17:55:00 11.5°C 41% 7.4 km/h 10.0 km/h 131° 1026.0 hPa 0.000 mm
2021-03-03 17:54:00 11.4°C 41% 9.6 km/h 13.2 km/h 140° 1026.0 hPa 0.000 mm
2021-03-03 17:53:00 11.4°C 41% 10.4 km/h 15.8 km/h 151° 1026.0 hPa 0.000 mm
2021-03-03 17:52:00 11.5°C 41% 10.3 km/h 13.7 km/h 125° 1026.0 hPa 0.000 mm
2021-03-03 17:51:00 11.4°C 41% 7.4 km/h 12.1 km/h 155° 1026.0 hPa 0.000 mm
2021-03-03 17:50:00 11.4°C 41% 9.1 km/h 11.6 km/h 178° 1026.0 hPa 0.000 mm
2021-03-03 17:49:00 11.5°C 41% 11.5 km/h 15.8 km/h 146° 1026.0 hPa 0.000 mm
2021-03-03 17:48:00 11.4°C 41% 9.8 km/h 14.2 km/h 154° 1026.0 hPa 0.000 mm
2021-03-03 17:47:00 11.5°C 41% 9.6 km/h 14.8 km/h 165° 1026.0 hPa 0.000 mm
2021-03-03 17:46:00 11.6°C 41% 9.1 km/h 13.2 km/h 117° 1026.0 hPa 0.000 mm
2021-03-03 17:45:00 11.6°C 41% 9.2 km/h 14.2 km/h 140° 1026.0 hPa 0.000 mm
2021-03-03 17:44:00 11.4°C 41% 4.8 km/h 8.4 km/h 137° 1026.1 hPa 0.000 mm
2021-03-03 17:43:00 11.4°C 42% 8.3 km/h 10.6 km/h 181° 1026.1 hPa 0.000 mm
2021-03-03 17:42:00 11.5°C 41% 8.7 km/h 10.6 km/h 164° 1026.2 hPa 0.000 mm
2021-03-03 17:41:00 11.4°C 42% 8.9 km/h 11.6 km/h 101° 1026.1 hPa 0.000 mm
2021-03-03 17:40:00 11.5°C 41% 7.3 km/h 9.5 km/h 152° 1026.0 hPa 0.000 mm
2021-03-03 17:39:00 11.6°C 41% 9.7 km/h 12.7 km/h 131° 1026.1 hPa 0.000 mm
2021-03-03 17:38:00 11.5°C 41% 7.7 km/h 11.6 km/h 136° 1026.1 hPa 0.000 mm
2021-03-03 17:37:00 11.4°C 42% 8.3 km/h 11.1 km/h 186° 1026.1 hPa 0.000 mm
2021-03-03 17:36:00 11.5°C 41% 5.7 km/h 7.9 km/h 142° 1026.1 hPa 0.000 mm
2021-03-03 17:35:00 11.6°C 41% 6.8 km/h 8.4 km/h 145° 1026.2 hPa 0.000 mm
2021-03-03 17:34:00 11.7°C 41% 6.7 km/h 11.6 km/h 118° 1026.2 hPa 0.000 mm
2021-03-03 17:33:00 11.7°C 40% 10.4 km/h 14.8 km/h 150° 1026.1 hPa 0.000 mm
2021-03-03 17:32:00 11.7°C 40% 10.3 km/h 13.7 km/h 158° 1026.1 hPa 0.000 mm
2021-03-03 17:31:00 11.6°C 41% 9.5 km/h 12.1 km/h 159° 1026.2 hPa 0.000 mm
2021-03-03 17:30:00 11.6°C 41% 9.7 km/h 14.2 km/h 126° 1026.2 hPa 0.000 mm
2021-03-03 17:29:00 11.5°C 41% 5.9 km/h 8.4 km/h 172° 1026.2 hPa 0.000 mm
2021-03-03 17:28:00 11.6°C 41% 6.5 km/h 9.0 km/h 154° 1026.2 hPa 0.000 mm
2021-03-03 17:27:00 11.7°C 40% 7.5 km/h 12.7 km/h 172° 1026.2 hPa 0.000 mm
2021-03-03 17:26:00 11.8°C 40% 9.0 km/h 12.1 km/h 137° 1026.2 hPa 0.000 mm
2021-03-03 17:25:00 11.8°C 40% 9.2 km/h 16.4 km/h 136° 1026.2 hPa 0.000 mm
2021-03-03 17:24:00 11.8°C 40% 6.1 km/h 10.0 km/h 147° 1026.2 hPa 0.000 mm
2021-03-03 17:23:00 11.8°C 40% 10.3 km/h 12.7 km/h 155° 1026.2 hPa 0.000 mm
2021-03-03 17:22:00 11.7°C 40% 6.7 km/h 10.0 km/h 126° 1026.2 hPa 0.000 mm
2021-03-03 17:21:00 11.8°C 40% 6.6 km/h 8.4 km/h 136° 1026.2 hPa 0.000 mm
2021-03-03 17:20:00 11.7°C 41% 8.4 km/h 10.6 km/h 165° 1026.2 hPa 0.000 mm
2021-03-03 17:19:00 11.8°C 40% 9.2 km/h 11.6 km/h 122° 1026.2 hPa 0.000 mm
2021-03-03 17:18:00 11.8°C 40% 10.9 km/h 13.7 km/h 169° 1026.2 hPa 0.000 mm
2021-03-03 17:17:00 11.8°C 40% 11.5 km/h 15.3 km/h 155° 1026.2 hPa 0.000 mm
2021-03-03 17:16:00 11.8°C 40% 10.8 km/h 14.8 km/h 124° 1026.2 hPa 0.000 mm
2021-03-03 17:15:00 11.8°C 40% 9.6 km/h 13.2 km/h 155° 1026.2 hPa 0.000 mm
2021-03-03 17:14:00 11.8°C 41% 8.8 km/h 12.1 km/h 171° 1026.2 hPa 0.000 mm
2021-03-03 17:13:00 11.7°C 41% 8.3 km/h 11.6 km/h 159° 1026.3 hPa 0.000 mm
2021-03-03 17:12:00 11.8°C 40% 9.3 km/h 12.7 km/h 147° 1026.2 hPa 0.000 mm
2021-03-03 17:11:00 11.8°C 41% 9.7 km/h 14.8 km/h 137° 1026.2 hPa 0.000 mm
2021-03-03 17:10:00 11.8°C 41% 7.4 km/h 10.0 km/h 170° 1026.2 hPa 0.000 mm
2021-03-03 17:09:00 11.8°C 40% 9.4 km/h 11.6 km/h 127° 1026.2 hPa 0.000 mm
2021-03-03 17:08:00 11.8°C 41% 8.5 km/h 10.0 km/h 196° 1026.3 hPa 0.000 mm
2021-03-03 17:07:00 11.8°C 41% 7.9 km/h 11.1 km/h 137° 1026.3 hPa 0.000 mm
2021-03-03 17:06:00 11.8°C 41% 8.1 km/h 10.0 km/h 153° 1026.3 hPa 0.000 mm
2021-03-03 17:05:00 11.9°C 40% 8.8 km/h 12.1 km/h 146° 1026.3 hPa 0.000 mm
2021-03-03 17:04:00 11.9°C 40% 6.7 km/h 10.6 km/h 159° 1026.3 hPa 0.000 mm
2021-03-03 17:03:00 11.9°C 40% 8.0 km/h 11.1 km/h 162° 1026.3 hPa 0.000 mm
2021-03-03 17:02:00 11.9°C 41% 8.6 km/h 10.6 km/h 133° 1026.3 hPa 0.000 mm
2021-03-03 17:01:00 11.9°C 41% 11.3 km/h 13.2 km/h 165° 1026.3 hPa 0.000 mm
2021-03-03 17:00:00 11.9°C 40% 7.9 km/h 10.6 km/h 97° 1026.3 hPa 0.000 mm
2021-03-03 16:59:00 11.8°C 41% 9.2 km/h 12.1 km/h 171° 1026.3 hPa 0.000 mm
2021-03-03 16:58:00 11.9°C 41% 8.7 km/h 11.6 km/h 169° 1026.3 hPa 0.000 mm
2021-03-03 16:57:00 12.0°C 40% 10.9 km/h 13.2 km/h 140° 1026.4 hPa 0.000 mm
2021-03-03 16:56:00 12.0°C 40% 10.6 km/h 14.8 km/h 141° 1026.4 hPa 0.000 mm
2021-03-03 16:55:00 12.0°C 40% 9.5 km/h 13.2 km/h 135° 1026.4 hPa 0.000 mm
2021-03-03 16:54:00 12.1°C 40% 8.8 km/h 12.7 km/h 133° 1026.4 hPa 0.000 mm
2021-03-03 16:53:00 12.1°C 40% 9.6 km/h 11.1 km/h 126° 1026.4 hPa 0.000 mm
2021-03-03 16:52:00 12.2°C 39% 10.1 km/h 12.7 km/h 151° 1026.4 hPa 0.000 mm
2021-03-03 16:51:00 12.1°C 40% 7.7 km/h 12.7 km/h 146° 1026.4 hPa 0.000 mm
2021-03-03 16:50:00 12.1°C 40% 7.9 km/h 11.6 km/h 159° 1026.4 hPa 0.000 mm
2021-03-03 16:49:00 12.1°C 40% 12.0 km/h 14.8 km/h 173° 1026.4 hPa 0.000 mm
2021-03-03 16:48:00 12.1°C 40% 10.3 km/h 15.8 km/h 124° 1026.4 hPa 0.000 mm
2021-03-03 16:47:00 12.2°C 39% 10.4 km/h 13.2 km/h 158° 1026.4 hPa 0.000 mm
2021-03-03 16:46:00 12.2°C 39% 10.4 km/h 13.2 km/h 124° 1026.4 hPa 0.000 mm
2021-03-03 16:45:00 12.2°C 40% 11.4 km/h 16.9 km/h 128° 1026.4 hPa 0.000 mm
2021-03-03 16:44:00 12.2°C 40% 7.9 km/h 12.1 km/h 120° 1026.4 hPa 0.000 mm
2021-03-03 16:43:00 12.2°C 40% 9.0 km/h 13.7 km/h 158° 1026.4 hPa 0.000 mm
2021-03-03 16:42:00 12.2°C 39% 10.2 km/h 13.2 km/h 159° 1026.5 hPa 0.000 mm
2021-03-03 16:41:00 12.2°C 40% 5.7 km/h 6.9 km/h 151° 1026.5 hPa 0.000 mm
2021-03-03 16:40:00 12.3°C 39% 8.2 km/h 10.0 km/h 119° 1026.5 hPa 0.000 mm
2021-03-03 16:39:00 12.2°C 39% 7.4 km/h 9.5 km/h 191° 1026.5 hPa 0.000 mm
2021-03-03 16:38:00 12.3°C 39% 11.2 km/h 14.2 km/h 137° 1026.5 hPa 0.000 mm
2021-03-03 16:37:00 12.3°C 39% 14.1 km/h 16.9 km/h 141° 1026.5 hPa 0.000 mm
2021-03-03 16:36:00 12.3°C 39% 11.2 km/h 13.7 km/h 118° 1026.5 hPa 0.000 mm
2021-03-03 16:35:00 12.3°C 39% 9.5 km/h 13.7 km/h 137° 1026.5 hPa 0.000 mm
2021-03-03 16:34:00 12.3°C 40% 7.7 km/h 10.0 km/h 159° 1026.5 hPa 0.000 mm
2021-03-03 16:33:00 12.4°C 39% 7.8 km/h 10.0 km/h 134° 1026.6 hPa 0.000 mm
2021-03-03 16:32:00 12.3°C 40% 6.8 km/h 9.5 km/h 92° 1026.6 hPa 0.000 mm
2021-03-03 16:31:00 12.4°C 39% 9.1 km/h 12.1 km/h 167° 1026.5 hPa 0.000 mm
2021-03-03 16:30:00 12.4°C 39% 10.0 km/h 13.7 km/h 167° 1026.5 hPa 0.000 mm
2021-03-03 16:29:00 12.4°C 39% 12.7 km/h 17.9 km/h 163° 1026.6 hPa 0.000 mm
2021-03-03 16:28:00 12.4°C 39% 10.3 km/h 14.8 km/h 168° 1026.5 hPa 0.000 mm
2021-03-03 16:27:00 12.4°C 39% 13.0 km/h 16.4 km/h 172° 1026.6 hPa 0.000 mm
2021-03-03 16:26:00 12.4°C 39% 12.2 km/h 15.8 km/h 168° 1026.5 hPa 0.000 mm
2021-03-03 16:25:00 12.4°C 39% 12.5 km/h 15.8 km/h 149° 1026.6 hPa 0.000 mm
2021-03-03 16:24:00 12.5°C 39% 9.4 km/h 11.1 km/h 173° 1026.6 hPa 0.000 mm
2021-03-03 16:23:00 12.5°C 39% 10.8 km/h 13.7 km/h 135° 1026.6 hPa 0.000 mm
2021-03-03 16:22:00 12.5°C 39% 11.2 km/h 17.4 km/h 177° 1026.6 hPa 0.000 mm
2021-03-03 16:21:00 12.5°C 39% 10.3 km/h 14.8 km/h 167° 1026.6 hPa 0.000 mm
2021-03-03 16:20:00 12.6°C 39% 12.7 km/h 17.9 km/h 135° 1026.6 hPa 0.000 mm
2021-03-03 16:19:00 12.6°C 38% 8.8 km/h 11.6 km/h 147° 1026.6 hPa 0.000 mm
2021-03-03 16:18:00 12.6°C 39% 10.9 km/h 15.8 km/h 186° 1026.6 hPa 0.000 mm
2021-03-03 16:17:00 12.6°C 39% 9.8 km/h 12.7 km/h 167° 1026.6 hPa 0.000 mm
2021-03-03 16:16:00 12.6°C 38% 12.5 km/h 17.9 km/h 194° 1026.6 hPa 0.000 mm
2021-03-03 16:15:00 12.6°C 39% 11.0 km/h 15.8 km/h 165° 1026.7 hPa 0.000 mm
2021-03-03 16:14:00 12.6°C 40% 9.3 km/h 13.7 km/h 176° 1026.7 hPa 0.000 mm
2021-03-03 16:13:00 12.7°C 39% 8.3 km/h 11.1 km/h 156° 1026.7 hPa 0.000 mm
2021-03-03 16:12:00 12.6°C 38% 8.0 km/h 10.6 km/h 164° 1026.7 hPa 0.000 mm
2021-03-03 16:11:00 12.7°C 38% 11.1 km/h 15.3 km/h 160° 1026.7 hPa 0.000 mm
2021-03-03 16:10:00 12.7°C 39% 10.8 km/h 15.3 km/h 137° 1026.7 hPa 0.000 mm
2021-03-03 16:09:00 12.7°C 39% 9.3 km/h 16.9 km/h 129° 1026.7 hPa 0.000 mm
2021-03-03 16:08:00 12.7°C 38% 8.8 km/h 13.2 km/h 161° 1026.7 hPa 0.000 mm
2021-03-03 16:07:00 12.8°C 38% 8.8 km/h 13.7 km/h 158° 1026.7 hPa 0.000 mm
2021-03-03 16:06:00 12.8°C 38% 13.1 km/h 16.9 km/h 178° 1026.7 hPa 0.000 mm
2021-03-03 16:05:00 12.9°C 38% 7.2 km/h 9.5 km/h 137° 1026.8 hPa 0.000 mm
2021-03-03 16:04:00 12.8°C 38% 6.1 km/h 8.4 km/h 102° 1026.8 hPa 0.000 mm
2021-03-03 16:03:00 12.8°C 38% 8.4 km/h 10.6 km/h 138° 1026.8 hPa 0.000 mm
2021-03-03 16:02:00 12.8°C 38% 6.5 km/h 10.0 km/h 149° 1026.8 hPa 0.000 mm
2021-03-03 16:01:00 12.8°C 37% 8.6 km/h 11.1 km/h 173° 1026.8 hPa 0.000 mm
2021-03-03 16:00:00 12.9°C 38% 10.6 km/h 15.3 km/h 165° 1026.8 hPa 0.000 mm
2021-03-03 15:59:00 12.9°C 37% 8.6 km/h 12.1 km/h 180° 1026.8 hPa 0.000 mm
2021-03-03 15:58:00 12.9°C 38% 9.0 km/h 11.1 km/h 137° 1026.8 hPa 0.000 mm
2021-03-03 15:57:00 13.1°C 38% 8.5 km/h 12.1 km/h 179° 1026.8 hPa 0.000 mm
2021-03-03 15:56:00 13.1°C 38% 6.2 km/h 11.1 km/h 138° 1026.9 hPa 0.000 mm
2021-03-03 15:55:00 13.1°C 37% 6.0 km/h 8.4 km/h 179° 1026.9 hPa 0.000 mm
2021-03-03 15:54:00 13.1°C 38% 11.0 km/h 15.3 km/h 205° 1026.8 hPa 0.000 mm
2021-03-03 15:53:00 13.1°C 38% 5.6 km/h 7.4 km/h 143° 1026.8 hPa 0.000 mm
2021-03-03 15:52:00 13.1°C 37% 5.8 km/h 9.5 km/h 136° 1026.8 hPa 0.000 mm
2021-03-03 15:51:00 13.1°C 38% 9.9 km/h 13.2 km/h 200° 1026.9 hPa 0.000 mm
2021-03-03 15:50:00 13.2°C 38% 6.4 km/h 8.4 km/h 156° 1026.9 hPa 0.000 mm
2021-03-03 15:49:00 13.2°C 37% 8.2 km/h 11.1 km/h 122° 1026.9 hPa 0.000 mm
2021-03-03 15:48:00 13.2°C 37% 5.6 km/h 7.9 km/h 143° 1026.9 hPa 0.000 mm
2021-03-03 15:47:00 13.4°C 37% 8.7 km/h 12.1 km/h 153° 1026.9 hPa 0.000 mm
2021-03-03 15:46:00 13.3°C 37% 4.1 km/h 4.8 km/h 198° 1027.0 hPa 0.000 mm
2021-03-03 15:45:00 13.3°C 38% 6.1 km/h 8.4 km/h 155° 1027.0 hPa 0.000 mm
2021-03-03 15:44:00 13.4°C 37% 5.7 km/h 7.9 km/h 137° 1027.0 hPa 0.000 mm
2021-03-03 15:43:00 13.6°C 38% 5.2 km/h 7.4 km/h 145° 1027.0 hPa 0.000 mm
2021-03-03 15:42:00 13.4°C 37% 3.8 km/h 4.8 km/h 216° 1027.0 hPa 0.000 mm
2021-03-03 15:41:00 13.3°C 38% 5.5 km/h 10.0 km/h 185° 1027.0 hPa 0.000 mm
2021-03-03 15:40:00 13.2°C 37% 5.5 km/h 7.4 km/h 178° 1027.0 hPa 0.000 mm
2021-03-03 15:39:00 13.2°C 37% 7.3 km/h 10.0 km/h 149° 1027.0 hPa 0.000 mm
2021-03-03 15:38:00 13.3°C 38% 7.6 km/h 10.6 km/h 180° 1027.0 hPa 0.000 mm
2021-03-03 15:37:00 13.3°C 38% 6.8 km/h 9.5 km/h 188° 1027.0 hPa 0.000 mm
2021-03-03 15:36:00 13.3°C 38% 5.6 km/h 7.4 km/h 168° 1027.0 hPa 0.000 mm
2021-03-03 15:35:00 13.2°C 38% 8.3 km/h 10.6 km/h 186° 1027.0 hPa 0.000 mm
2021-03-03 15:34:00 13.2°C 37% 7.9 km/h 12.1 km/h 181° 1027.0 hPa 0.000 mm
2021-03-03 15:33:00 13.1°C 37% 8.7 km/h 11.6 km/h 192° 1027.0 hPa 0.000 mm
2021-03-03 15:32:00 13.1°C 37% 8.1 km/h 10.6 km/h 155° 1027.0 hPa 0.000 mm
2021-03-03 15:31:00 13.2°C 37% 7.7 km/h 11.1 km/h 131° 1027.0 hPa 0.000 mm
2021-03-03 15:30:00 13.2°C 37% 8.7 km/h 12.7 km/h 154° 1027.0 hPa 0.000 mm
2021-03-03 15:29:00 13.2°C 37% 8.7 km/h 12.7 km/h 128° 1027.0 hPa 0.000 mm
2021-03-03 15:28:00 13.2°C 37% 9.8 km/h 12.7 km/h 158° 1027.0 hPa 0.000 mm
2021-03-03 15:27:00 13.1°C 38% 6.7 km/h 8.4 km/h 125° 1027.0 hPa 0.000 mm
2021-03-03 15:26:00 13.0°C 38% 12.2 km/h 19.0 km/h 158° 1027.0 hPa 0.000 mm
2021-03-03 15:25:00 13.1°C 37% 12.1 km/h 16.9 km/h 113° 1027.0 hPa 0.000 mm
2021-03-03 15:24:00 13.1°C 38% 12.2 km/h 17.9 km/h 162° 1027.0 hPa 0.000 mm
2021-03-03 15:23:00 13.1°C 37% 10.4 km/h 13.2 km/h 164° 1027.0 hPa 0.000 mm
2021-03-03 15:22:00 13.1°C 38% 10.3 km/h 14.2 km/h 196° 1027.1 hPa 0.000 mm
2021-03-03 15:21:00 13.1°C 38% 13.0 km/h 17.9 km/h 200° 1027.1 hPa 0.000 mm
2021-03-03 15:20:00 13.2°C 38% 10.4 km/h 15.3 km/h 180° 1027.3 hPa 0.000 mm
2021-03-03 15:19:00 13.2°C 38% 9.5 km/h 16.4 km/h 163° 1027.3 hPa 0.000 mm
2021-03-03 15:18:00 13.3°C 38% 7.7 km/h 11.1 km/h 144° 1027.4 hPa 0.000 mm
2021-03-03 15:17:00 13.3°C 38% 8.0 km/h 10.6 km/h 145° 1027.4 hPa 0.000 mm
2021-03-03 15:16:00 13.3°C 37% 7.3 km/h 10.0 km/h 173° 1027.4 hPa 0.000 mm
2021-03-03 15:15:00 13.2°C 38% 9.1 km/h 13.2 km/h 171° 1027.3 hPa 0.000 mm
2021-03-03 15:14:00 13.1°C 37% 12.9 km/h 16.9 km/h 161° 1027.4 hPa 0.000 mm
2021-03-03 15:13:00 13.2°C 38% 11.0 km/h 15.8 km/h 171° 1027.4 hPa 0.000 mm
2021-03-03 15:12:00 13.2°C 38% 10.1 km/h 14.2 km/h 170° 1027.5 hPa 0.000 mm
2021-03-03 15:11:00 13.2°C 37% 11.6 km/h 13.7 km/h 152° 1027.5 hPa 0.000 mm
2021-03-03 15:10:00 13.1°C 38% 13.2 km/h 16.4 km/h 145° 1027.5 hPa 0.000 mm
2021-03-03 15:09:00 13.2°C 38% 9.4 km/h 13.7 km/h 152° 1027.5 hPa 0.000 mm
2021-03-03 15:08:00 13.2°C 39% 8.5 km/h 12.7 km/h 149° 1027.5 hPa 0.000 mm
2021-03-03 15:07:00 13.2°C 39% 7.2 km/h 9.5 km/h 161° 1027.5 hPa 0.000 mm
2021-03-03 15:06:00 13.1°C 38% 11.0 km/h 14.2 km/h 189° 1027.5 hPa 0.000 mm
2021-03-03 15:05:00 13.2°C 39% 9.3 km/h 14.2 km/h 191° 1027.5 hPa 0.000 mm
2021-03-03 15:04:00 13.2°C 38% 9.6 km/h 13.7 km/h 170° 1027.5 hPa 0.000 mm
2021-03-03 15:03:00 13.2°C 39% 8.9 km/h 11.1 km/h 165° 1027.5 hPa 0.000 mm
2021-03-03 15:02:00 13.1°C 39% 8.2 km/h 11.1 km/h 172° 1027.3 hPa 0.000 mm
2021-03-03 15:01:00 13.0°C 39% 9.8 km/h 13.7 km/h 192° 1027.3 hPa 0.000 mm
2021-03-03 15:00:00 13.1°C 38% 14.3 km/h 20.6 km/h 185° 1027.3 hPa 0.000 mm
2021-03-03 14:59:00 13.3°C 39% 6.7 km/h 10.6 km/h 152° 1027.3 hPa 0.000 mm
2021-03-03 14:58:00 13.2°C 39% 6.1 km/h 7.9 km/h 171° 1027.3 hPa 0.000 mm
2021-03-03 14:57:00 13.1°C 39% 8.7 km/h 12.7 km/h 145° 1027.3 hPa 0.000 mm
2021-03-03 14:56:00 13.1°C 39% 9.0 km/h 11.1 km/h 145° 1027.3 hPa 0.000 mm
2021-03-03 14:55:00 13.1°C 39% 9.3 km/h 13.7 km/h 176° 1027.3 hPa 0.000 mm
2021-03-03 14:54:00 13.1°C 38% 9.6 km/h 14.2 km/h 187° 1027.3 hPa 0.000 mm
2021-03-03 14:53:00 13.0°C 38% 12.0 km/h 15.8 km/h 160° 1027.3 hPa 0.000 mm
2021-03-03 14:52:00 13.1°C 38% 10.7 km/h 16.9 km/h 173° 1027.3 hPa 0.000 mm
2021-03-03 14:51:00 13.0°C 39% 9.9 km/h 12.1 km/h 186° 1027.4 hPa 0.000 mm
2021-03-03 14:50:00 13.0°C 39% 11.7 km/h 13.7 km/h 195° 1027.4 hPa 0.000 mm
2021-03-03 14:49:00 13.1°C 38% 10.3 km/h 13.2 km/h 200° 1027.4 hPa 0.000 mm
2021-03-03 14:48:00 13.0°C 39% 10.8 km/h 13.2 km/h 160° 1027.4 hPa 0.000 mm
2021-03-03 14:47:00 13.0°C 38% 11.8 km/h 16.4 km/h 155° 1027.4 hPa 0.000 mm
2021-03-03 14:46:00 13.0°C 39% 10.6 km/h 14.2 km/h 153° 1027.4 hPa 0.000 mm
2021-03-03 14:45:00 13.0°C 38% 9.9 km/h 12.1 km/h 154° 1027.4 hPa 0.000 mm
2021-03-03 14:44:00 12.9°C 38% 12.7 km/h 16.4 km/h 154° 1027.4 hPa 0.000 mm
2021-03-03 14:43:00 12.9°C 39% 13.3 km/h 17.9 km/h 158° 1027.5 hPa 0.000 mm
2021-03-03 14:42:00 13.0°C 39% 8.5 km/h 14.8 km/h 143° 1027.5 hPa 0.000 mm
2021-03-03 14:41:00 12.9°C 40% 8.9 km/h 11.6 km/h 162° 1027.5 hPa 0.000 mm
2021-03-03 14:40:00 13.0°C 39% 11.8 km/h 16.4 km/h 155° 1027.5 hPa 0.000 mm
2021-03-03 14:39:00 13.0°C 40% 8.0 km/h 11.1 km/h 203° 1027.5 hPa 0.000 mm
2021-03-03 14:38:00 13.0°C 39% 7.3 km/h 9.0 km/h 199° 1027.5 hPa 0.000 mm
2021-03-03 14:37:00 13.0°C 39% 11.6 km/h 17.4 km/h 171° 1027.5 hPa 0.000 mm
2021-03-03 14:36:00 12.9°C 39% 13.2 km/h 19.0 km/h 173° 1027.6 hPa 0.000 mm
2021-03-03 14:35:00 13.0°C 39% 11.5 km/h 15.3 km/h 182° 1027.6 hPa 0.000 mm
2021-03-03 14:34:00 13.0°C 39% 9.2 km/h 14.2 km/h 141° 1027.6 hPa 0.000 mm
2021-03-03 14:33:00 13.0°C 39% 10.6 km/h 15.8 km/h 163° 1027.6 hPa 0.000 mm
2021-03-03 14:32:00 13.0°C 39% 13.0 km/h 17.4 km/h 140° 1027.6 hPa 0.000 mm
2021-03-03 14:31:00 13.2°C 39% 8.9 km/h 11.6 km/h 156° 1027.6 hPa 0.000 mm
2021-03-03 14:30:00 13.1°C 40% 8.1 km/h 11.6 km/h 154° 1027.6 hPa 0.000 mm
2021-03-03 14:29:00 13.2°C 40% 6.7 km/h 8.4 km/h 123° 1027.6 hPa 0.000 mm
2021-03-03 14:28:00 13.1°C 39% 8.8 km/h 13.2 km/h 165° 1027.6 hPa 0.000 mm
2021-03-03 14:27:00 13.1°C 39% 8.9 km/h 12.7 km/h 174° 1027.6 hPa 0.000 mm
2021-03-03 14:26:00 13.1°C 39% 12.3 km/h 16.4 km/h 188° 1027.6 hPa 0.000 mm
2021-03-03 14:25:00 13.1°C 39% 8.7 km/h 14.2 km/h 167° 1027.7 hPa 0.000 mm
2021-03-03 14:24:00 13.1°C 39% 7.8 km/h 10.6 km/h 174° 1027.7 hPa 0.000 mm
2021-03-03 14:23:00 13.1°C 40% 7.6 km/h 10.6 km/h 125° 1027.7 hPa 0.000 mm
2021-03-03 14:22:00 13.1°C 40% 10.7 km/h 13.2 km/h 127° 1027.7 hPa 0.000 mm
2021-03-03 14:21:00 13.2°C 39% 6.4 km/h 9.5 km/h 194° 1027.7 hPa 0.000 mm
2021-03-03 14:20:00 13.1°C 40% 8.7 km/h 11.1 km/h 190° 1027.7 hPa 0.000 mm
2021-03-03 14:19:00 13.0°C 39% 11.1 km/h 17.4 km/h 178° 1027.7 hPa 0.000 mm
2021-03-03 14:18:00 13.1°C 39% 11.0 km/h 19.5 km/h 147° 1027.8 hPa 0.000 mm
2021-03-03 14:17:00 13.0°C 41% 9.3 km/h 12.7 km/h 188° 1027.7 hPa 0.000 mm
2021-03-03 14:16:00 13.1°C 40% 9.6 km/h 13.2 km/h 204° 1027.7 hPa 0.000 mm
2021-03-03 14:15:00 13.0°C 40% 8.8 km/h 13.2 km/h 162° 1027.7 hPa 0.000 mm
2021-03-03 14:14:00 13.0°C 40% 9.6 km/h 12.1 km/h 140° 1027.7 hPa 0.000 mm
2021-03-03 14:13:00 13.0°C 39% 12.6 km/h 16.4 km/h 124° 1027.7 hPa 0.000 mm
2021-03-03 14:12:00 13.0°C 40% 12.2 km/h 16.4 km/h 174° 1027.7 hPa 0.000 mm
2021-03-03 14:11:00 13.0°C 40% 9.0 km/h 11.1 km/h 167° 1027.7 hPa 0.000 mm
2021-03-03 14:10:00 13.0°C 40% 14.1 km/h 26.9 km/h 192° 1027.7 hPa 0.000 mm
2021-03-03 14:09:00 13.1°C 39% 10.8 km/h 21.1 km/h 117° 1027.7 hPa 0.000 mm
2021-03-03 14:08:00 13.0°C 40% 9.5 km/h 11.6 km/h 185° 1027.7 hPa 0.000 mm
2021-03-03 14:07:00 12.9°C 40% 9.3 km/h 12.7 km/h 167° 1027.7 hPa 0.000 mm
2021-03-03 14:06:00 12.9°C 40% 11.1 km/h 14.2 km/h 214° 1027.7 hPa 0.000 mm
2021-03-03 14:05:00 12.9°C 39% 10.9 km/h 13.7 km/h 176° 1027.7 hPa 0.000 mm
2021-03-03 14:04:00 12.9°C 40% 15.0 km/h 20.6 km/h 125° 1027.7 hPa 0.000 mm
2021-03-03 14:03:00 12.9°C 40% 11.8 km/h 14.8 km/h 177° 1027.7 hPa 0.000 mm
2021-03-03 14:02:00 12.9°C 40% 11.5 km/h 13.7 km/h 178° 1027.8 hPa 0.000 mm
2021-03-03 14:01:00 12.9°C 40% 14.7 km/h 20.6 km/h 161° 1027.8 hPa 0.000 mm
2021-03-03 14:00:00 12.9°C 41% 11.8 km/h 16.4 km/h 174° 1027.8 hPa 0.000 mm
2021-03-03 13:59:00 12.9°C 40% 11.0 km/h 14.8 km/h 152° 1027.8 hPa 0.000 mm
2021-03-03 13:58:00 12.9°C 42% 11.4 km/h 18.5 km/h 150° 1027.7 hPa 0.000 mm
2021-03-03 13:57:00 12.9°C 41% 12.4 km/h 16.4 km/h 178° 1027.8 hPa 0.000 mm
2021-03-03 13:56:00 12.9°C 41% 10.0 km/h 13.2 km/h 183° 1027.8 hPa 0.000 mm
2021-03-03 13:55:00 12.9°C 41% 9.6 km/h 14.8 km/h 192° 1027.9 hPa 0.000 mm
2021-03-03 13:54:00 12.8°C 41% 8.9 km/h 12.1 km/h 154° 1027.9 hPa 0.000 mm
2021-03-03 13:53:00 12.8°C 41% 10.6 km/h 17.9 km/h 110° 1027.9 hPa 0.000 mm
2021-03-03 13:52:00 12.9°C 41% 13.2 km/h 16.4 km/h 163° 1027.9 hPa 0.000 mm
2021-03-03 13:51:00 12.9°C 41% 8.2 km/h 12.1 km/h 142° 1028.0 hPa 0.000 mm
2021-03-03 13:51:00 12.9°C 41% 9.1 km/h 12.1 km/h 156° 1028.0 hPa 0.000 mm
2021-03-03 13:50:00 12.9°C 41% 8.7 km/h 15.8 km/h 144° 1028.0 hPa 0.000 mm
2021-03-03 13:49:00 13.0°C 41% 9.1 km/h 14.2 km/h 192° 1028.0 hPa 0.000 mm
2021-03-03 13:48:00 12.9°C 41% 7.5 km/h 12.1 km/h 160° 1028.1 hPa 0.000 mm
2021-03-03 13:47:00 12.9°C 41% 11.3 km/h 15.8 km/h 160° 1028.0 hPa 0.000 mm
2021-03-03 13:46:00 12.9°C 41% 9.1 km/h 12.7 km/h 152° 1028.1 hPa 0.000 mm
2021-03-03 13:45:00 12.8°C 40% 13.4 km/h 21.1 km/h 188° 1028.0 hPa 0.000 mm
2021-03-03 13:44:00 12.9°C 41% 12.0 km/h 17.9 km/h 190° 1028.0 hPa 0.000 mm
2021-03-03 13:43:00 12.8°C 41% 10.7 km/h 14.2 km/h 179° 1028.1 hPa 0.000 mm
2021-03-03 13:42:00 12.8°C 41% 8.9 km/h 12.7 km/h 172° 1028.1 hPa 0.000 mm
2021-03-03 13:41:00 12.8°C 41% 12.3 km/h 19.5 km/h 176° 1028.1 hPa 0.000 mm
2021-03-03 13:40:00 12.8°C 40% 11.7 km/h 15.3 km/h 173° 1028.1 hPa 0.000 mm
2021-03-03 13:39:00 12.7°C 41% 9.2 km/h 13.2 km/h 192° 1028.1 hPa 0.000 mm
2021-03-03 13:38:00 12.7°C 40% 10.5 km/h 16.9 km/h 170° 1028.2 hPa 0.000 mm
2021-03-03 13:37:00 12.7°C 41% 10.9 km/h 13.7 km/h 158° 1028.2 hPa 0.000 mm
2021-03-03 13:36:00 12.7°C 40% 11.9 km/h 15.8 km/h 155° 1028.2 hPa 0.000 mm
2021-03-03 13:35:00 12.8°C 40% 12.5 km/h 17.4 km/h 159° 1028.2 hPa 0.000 mm
2021-03-03 13:34:00 12.9°C 41% 9.3 km/h 13.7 km/h 199° 1028.2 hPa 0.000 mm
2021-03-03 13:33:00 13.0°C 40% 6.0 km/h 9.5 km/h 217° 1028.3 hPa 0.000 mm
2021-03-03 13:32:00 12.8°C 41% 5.9 km/h 7.9 km/h 164° 1028.2 hPa 0.000 mm
2021-03-03 13:31:00 12.8°C 40% 7.1 km/h 11.6 km/h 171° 1028.2 hPa 0.000 mm
2021-03-03 13:30:00 12.9°C 41% 8.4 km/h 12.7 km/h 177° 1028.2 hPa 0.000 mm
2021-03-03 13:29:00 12.8°C 40% 7.2 km/h 9.0 km/h 183° 1028.3 hPa 0.000 mm
2021-03-03 13:28:00 12.8°C 40% 7.7 km/h 10.6 km/h 173° 1028.2 hPa 0.000 mm
2021-03-03 13:27:00 12.8°C 40% 6.9 km/h 11.6 km/h 174° 1028.2 hPa 0.000 mm
2021-03-03 13:26:00 12.9°C 40% 7.4 km/h 9.0 km/h 155° 1028.3 hPa 0.000 mm
2021-03-03 13:25:00 12.8°C 40% 8.7 km/h 11.6 km/h 154° 1028.3 hPa 0.000 mm
2021-03-03 13:24:00 12.7°C 39% 9.2 km/h 12.7 km/h 164° 1028.3 hPa 0.000 mm
2021-03-03 13:23:00 12.7°C 40% 12.9 km/h 16.9 km/h 190° 1028.3 hPa 0.000 mm
2021-03-03 13:22:00 12.7°C 40% 12.6 km/h 19.0 km/h 159° 1028.3 hPa 0.000 mm
2021-03-03 13:21:00 12.6°C 40% 10.4 km/h 13.7 km/h 155° 1028.3 hPa 0.000 mm
2021-03-03 13:20:00 12.6°C 40% 10.5 km/h 16.9 km/h 134° 1028.3 hPa 0.000 mm
2021-03-03 13:19:00 12.6°C 40% 14.1 km/h 17.9 km/h 179° 1028.3 hPa 0.000 mm
2021-03-03 13:18:00 12.7°C 39% 13.2 km/h 17.9 km/h 180° 1028.4 hPa 0.000 mm
2021-03-03 13:17:00 12.7°C 39% 8.7 km/h 14.2 km/h 147° 1028.4 hPa 0.000 mm
2021-03-03 13:16:00 12.7°C 40% 8.3 km/h 10.6 km/h 204° 1028.4 hPa 0.000 mm
2021-03-03 13:15:00 12.7°C 40% 11.0 km/h 14.8 km/h 161° 1028.4 hPa 0.000 mm
2021-03-03 13:14:00 12.8°C 39% 10.9 km/h 15.3 km/h 186° 1028.4 hPa 0.000 mm
2021-03-03 13:13:00 12.7°C 40% 8.3 km/h 10.6 km/h 144° 1028.5 hPa 0.000 mm
2021-03-03 13:12:00 12.7°C 39% 10.7 km/h 15.3 km/h 163° 1028.5 hPa 0.000 mm
2021-03-03 13:11:00 12.7°C 39% 13.8 km/h 23.2 km/h 136° 1028.4 hPa 0.000 mm
2021-03-03 13:10:00 12.7°C 39% 8.0 km/h 14.2 km/h 144° 1028.5 hPa 0.000 mm
2021-03-03 13:09:00 12.7°C 39% 8.5 km/h 11.1 km/h 145° 1028.5 hPa 0.000 mm
2021-03-03 13:08:00 12.7°C 39% 7.5 km/h 11.1 km/h 177° 1028.5 hPa 0.000 mm
2021-03-03 13:07:00 12.7°C 39% 11.3 km/h 16.4 km/h 195° 1028.5 hPa 0.000 mm
2021-03-03 13:06:00 12.6°C 39% 7.8 km/h 12.1 km/h 181° 1028.5 hPa 0.000 mm
2021-03-03 13:05:00 12.6°C 39% 11.0 km/h 14.2 km/h 141° 1028.5 hPa 0.000 mm
2021-03-03 13:04:00 12.6°C 39% 9.9 km/h 14.2 km/h 140° 1028.5 hPa 0.000 mm
2021-03-03 13:03:00 12.6°C 39% 9.9 km/h 14.8 km/h 162° 1028.5 hPa 0.000 mm
2021-03-03 13:02:00 12.6°C 38% 10.4 km/h 12.7 km/h 189° 1028.6 hPa 0.000 mm
2021-03-03 13:01:00 12.7°C 38% 12.4 km/h 18.5 km/h 167° 1028.6 hPa 0.000 mm
2021-03-03 13:00:00 12.8°C 38% 11.3 km/h 16.4 km/h 156° 1028.6 hPa 0.000 mm
2021-03-03 12:59:00 12.8°C 38% 11.4 km/h 15.3 km/h 164° 1028.6 hPa 0.000 mm
2021-03-03 12:58:00 12.8°C 39% 9.1 km/h 17.4 km/h 179° 1028.7 hPa 0.000 mm
2021-03-03 12:57:00 12.7°C 38% 10.5 km/h 15.3 km/h 178° 1028.7 hPa 0.000 mm
2021-03-03 12:56:00 12.8°C 38% 10.6 km/h 15.3 km/h 152° 1028.7 hPa 0.000 mm
2021-03-03 12:55:00 12.7°C 38% 11.4 km/h 15.3 km/h 155° 1028.8 hPa 0.000 mm
2021-03-03 12:54:00 12.7°C 38% 11.6 km/h 14.8 km/h 169° 1028.8 hPa 0.000 mm
2021-03-03 12:53:00 12.7°C 38% 10.7 km/h 19.0 km/h 174° 1028.8 hPa 0.000 mm
2021-03-03 12:52:00 12.7°C 38% 13.3 km/h 18.5 km/h 135° 1028.8 hPa 0.000 mm
2021-03-03 12:51:00 12.7°C 38% 11.6 km/h 20.6 km/h 180° 1028.7 hPa 0.000 mm
2021-03-03 12:50:00 12.7°C 38% 10.8 km/h 13.2 km/h 160° 1028.8 hPa 0.000 mm
2021-03-03 12:49:00 12.8°C 38% 10.1 km/h 13.2 km/h 190° 1028.8 hPa 0.000 mm
2021-03-03 12:48:00 12.8°C 38% 12.8 km/h 15.8 km/h 200° 1028.8 hPa 0.000 mm
2021-03-03 12:47:00 12.8°C 38% 7.2 km/h 9.5 km/h 161° 1028.8 hPa 0.000 mm
2021-03-03 12:46:00 12.7°C 38% 8.5 km/h 13.2 km/h 150° 1028.8 hPa 0.000 mm
2021-03-03 12:45:00 12.8°C 38% 14.0 km/h 17.4 km/h 177° 1028.8 hPa 0.000 mm
2021-03-03 12:44:00 12.8°C 38% 10.8 km/h 14.2 km/h 169° 1028.9 hPa 0.000 mm
2021-03-03 12:43:00 12.8°C 38% 9.9 km/h 12.7 km/h 154° 1028.9 hPa 0.000 mm
2021-03-03 12:42:00 12.8°C 38% 13.1 km/h 16.9 km/h 158° 1028.9 hPa 0.000 mm
2021-03-03 12:41:00 12.8°C 38% 10.3 km/h 14.2 km/h 153° 1028.9 hPa 0.000 mm
2021-03-03 12:40:00 12.8°C 38% 11.0 km/h 14.8 km/h 115° 1028.9 hPa 0.000 mm
2021-03-03 12:39:00 12.8°C 39% 10.7 km/h 13.2 km/h 143° 1028.9 hPa 0.000 mm
2021-03-03 12:38:00 12.8°C 38% 9.7 km/h 13.7 km/h 165° 1029.0 hPa 0.000 mm
2021-03-03 12:37:00 12.8°C 38% 10.1 km/h 13.2 km/h 143° 1029.0 hPa 0.000 mm
2021-03-03 12:36:00 12.8°C 39% 9.7 km/h 13.7 km/h 164° 1029.0 hPa 0.000 mm
2021-03-03 12:35:00 12.8°C 38% 10.3 km/h 15.8 km/h 161° 1029.0 hPa 0.000 mm
2021-03-03 12:34:00 12.8°C 39% 10.8 km/h 14.2 km/h 158° 1029.0 hPa 0.000 mm
2021-03-03 12:33:00 12.8°C 39% 10.2 km/h 12.7 km/h 160° 1029.0 hPa 0.000 mm
2021-03-03 12:32:00 12.8°C 39% 8.8 km/h 11.6 km/h 197° 1029.1 hPa 0.000 mm
2021-03-03 12:31:00 12.7°C 39% 9.5 km/h 13.2 km/h 146° 1029.1 hPa 0.000 mm
2021-03-03 12:30:00 12.7°C 39% 10.5 km/h 15.3 km/h 179° 1029.1 hPa 0.000 mm
2021-03-03 12:29:00 12.8°C 39% 9.6 km/h 16.9 km/h 170° 1029.1 hPa 0.000 mm
2021-03-03 12:28:00 12.8°C 39% 9.3 km/h 15.3 km/h 180° 1029.1 hPa 0.000 mm
2021-03-03 12:27:00 12.7°C 39% 9.0 km/h 14.2 km/h 154° 1029.1 hPa 0.000 mm
2021-03-03 12:26:00 12.8°C 39% 10.3 km/h 12.7 km/h 159° 1029.1 hPa 0.000 mm
2021-03-03 12:25:00 12.7°C 39% 11.2 km/h 15.8 km/h 159° 1029.1 hPa 0.000 mm
2021-03-03 12:24:00 12.7°C 39% 10.1 km/h 13.7 km/h 147° 1029.1 hPa 0.000 mm
2021-03-03 12:23:00 12.7°C 39% 10.8 km/h 15.3 km/h 150° 1029.1 hPa 0.000 mm
2021-03-03 12:22:00 12.8°C 39% 9.1 km/h 13.7 km/h 177° 1029.1 hPa 0.000 mm
2021-03-03 12:21:00 12.7°C 39% 7.3 km/h 10.0 km/h 177° 1029.1 hPa 0.000 mm
2021-03-03 12:20:00 12.6°C 38% 9.5 km/h 14.2 km/h 174° 1029.2 hPa 0.000 mm
2021-03-03 12:19:00 12.6°C 39% 10.0 km/h 14.2 km/h 145° 1029.1 hPa 0.000 mm
2021-03-03 12:18:00 12.6°C 39% 9.7 km/h 15.3 km/h 120° 1029.2 hPa 0.000 mm
2021-03-03 12:17:00 12.6°C 39% 9.8 km/h 12.7 km/h 150° 1029.2 hPa 0.000 mm
2021-03-03 12:16:00 12.6°C 39% 12.8 km/h 17.9 km/h 136° 1029.2 hPa 0.000 mm
2021-03-03 12:15:00 12.7°C 39% 8.1 km/h 13.2 km/h 149° 1029.2 hPa 0.000 mm
2021-03-03 12:14:00 12.7°C 40% 8.5 km/h 12.7 km/h 118° 1029.2 hPa 0.000 mm
2021-03-03 12:13:00 12.6°C 40% 6.6 km/h 10.0 km/h 163° 1029.3 hPa 0.000 mm
2021-03-03 12:12:00 12.6°C 39% 11.3 km/h 14.8 km/h 183° 1029.4 hPa 0.000 mm
2021-03-03 12:11:00 12.6°C 39% 9.4 km/h 13.2 km/h 164° 1029.5 hPa 0.000 mm
2021-03-03 12:10:00 12.6°C 39% 6.9 km/h 9.5 km/h 188° 1029.4 hPa 0.000 mm
2021-03-03 12:09:00 12.5°C 40% 5.5 km/h 7.9 km/h 114° 1029.3 hPa 0.000 mm
2021-03-03 12:08:00 12.4°C 39% 8.6 km/h 12.1 km/h 179° 1029.2 hPa 0.000 mm
2021-03-03 12:07:00 12.5°C 39% 9.3 km/h 11.6 km/h 172° 1029.3 hPa 0.000 mm
2021-03-03 12:06:00 12.6°C 39% 10.9 km/h 13.2 km/h 150° 1029.3 hPa 0.000 mm
2021-03-03 12:05:00 12.6°C 39% 9.7 km/h 15.3 km/h 150° 1029.3 hPa 0.000 mm
2021-03-03 12:04:00 12.6°C 39% 5.4 km/h 6.9 km/h 132° 1029.3 hPa 0.000 mm
2021-03-03 12:03:00 12.5°C 39% 8.5 km/h 11.1 km/h 145° 1029.3 hPa 0.000 mm
2021-03-03 12:02:00 12.6°C 39% 9.6 km/h 14.2 km/h 125° 1029.3 hPa 0.000 mm
2021-03-03 12:01:00 12.6°C 39% 8.3 km/h 12.7 km/h 138° 1029.3 hPa 0.000 mm
2021-03-03 12:00:00 12.6°C 39% 6.5 km/h 9.0 km/h 135° 1029.3 hPa 0.000 mm
2021-03-03 11:59:00 12.6°C 40% 4.9 km/h 7.4 km/h 133° 1029.3 hPa 0.000 mm
2021-03-03 11:58:00 12.6°C 39% 7.2 km/h 9.0 km/h 134° 1029.3 hPa 0.000 mm
2021-03-03 11:57:00 12.6°C 39% 6.2 km/h 9.0 km/h 160° 1029.3 hPa 0.000 mm
2021-03-03 11:56:00 12.6°C 39% 6.5 km/h 7.9 km/h 172° 1029.3 hPa 0.000 mm
2021-03-03 11:55:00 12.6°C 39% 6.6 km/h 10.6 km/h 146° 1029.3 hPa 0.000 mm
2021-03-03 11:54:00 12.6°C 40% 4.5 km/h 7.9 km/h 151° 1029.4 hPa 0.000 mm
2021-03-03 11:53:00 12.6°C 39% 8.0 km/h 11.1 km/h 147° 1029.4 hPa 0.000 mm
2021-03-03 11:52:00 12.7°C 40% 3.4 km/h 4.8 km/h 107° 1029.4 hPa 0.000 mm
2021-03-03 11:51:00 12.7°C 40% 4.0 km/h 5.8 km/h 152° 1029.4 hPa 0.000 mm
2021-03-03 11:50:00 12.6°C 40% 2.9 km/h 4.8 km/h 152° 1029.4 hPa 0.000 mm
2021-03-03 11:49:00 12.6°C 41% 5.5 km/h 8.4 km/h 146° 1029.4 hPa 0.000 mm
2021-03-03 11:48:00 12.5°C 40% 4.9 km/h 6.9 km/h 174° 1029.4 hPa 0.000 mm
2021-03-03 11:47:00 12.4°C 39% 5.2 km/h 6.3 km/h 196° 1029.4 hPa 0.000 mm
2021-03-03 11:46:00 12.3°C 40% 4.0 km/h 6.3 km/h 126° 1029.4 hPa 0.000 mm
2021-03-03 11:45:00 12.4°C 39% 6.2 km/h 9.5 km/h 149° 1029.4 hPa 0.000 mm
2021-03-03 11:44:00 12.4°C 40% 5.9 km/h 8.4 km/h 142° 1029.4 hPa 0.000 mm
2021-03-03 11:43:00 12.3°C 40% 4.7 km/h 8.4 km/h 142° 1029.3 hPa 0.000 mm
2021-03-03 11:42:00 12.4°C 40% 6.3 km/h 12.1 km/h 185° 1029.3 hPa 0.000 mm
2021-03-03 11:41:00 12.4°C 40% 5.3 km/h 8.4 km/h 108° 1029.3 hPa 0.000 mm
2021-03-03 11:40:00 12.3°C 40% 6.2 km/h 8.4 km/h 160° 1029.3 hPa 0.000 mm
2021-03-03 11:39:00 12.3°C 40% 6.4 km/h 9.0 km/h 187° 1029.3 hPa 0.000 mm
2021-03-03 11:38:00 12.3°C 41% 4.6 km/h 6.3 km/h 145° 1029.3 hPa 0.000 mm
2021-03-03 11:37:00 12.3°C 40% 5.7 km/h 8.4 km/h 170° 1029.3 hPa 0.000 mm
2021-03-03 11:36:00 12.2°C 40% 5.1 km/h 7.9 km/h 152° 1029.3 hPa 0.000 mm
2021-03-03 11:35:00 12.2°C 40% 6.7 km/h 11.6 km/h 128° 1029.3 hPa 0.000 mm
2021-03-03 11:34:00 12.3°C 40% 5.5 km/h 7.9 km/h 173° 1029.4 hPa 0.000 mm
2021-03-03 11:33:00 12.3°C 40% 5.2 km/h 7.4 km/h 168° 1029.3 hPa 0.000 mm
2021-03-03 11:32:00 12.2°C 40% 4.5 km/h 6.9 km/h 127° 1029.3 hPa 0.000 mm
2021-03-03 11:31:00 12.2°C 40% 5.9 km/h 9.0 km/h 150° 1029.3 hPa 0.000 mm
2021-03-03 11:30:00 12.2°C 40% 4.5 km/h 6.9 km/h 143° 1029.3 hPa 0.000 mm
2021-03-03 11:29:00 12.2°C 40% 4.4 km/h 6.9 km/h 120° 1029.3 hPa 0.000 mm
2021-03-03 11:28:00 12.1°C 40% 7.7 km/h 12.1 km/h 144° 1029.3 hPa 0.000 mm
2021-03-03 11:27:00 12.2°C 40% 8.8 km/h 16.4 km/h 136° 1029.3 hPa 0.000 mm
2021-03-03 11:26:00 12.1°C 40% 5.1 km/h 7.4 km/h 135° 1029.3 hPa 0.000 mm
2021-03-03 11:25:00 12.1°C 40% 6.9 km/h 9.5 km/h 141° 1029.3 hPa 0.000 mm
2021-03-03 11:24:00 12.1°C 41% 3.6 km/h 6.3 km/h 156° 1029.3 hPa 0.000 mm
2021-03-03 11:23:00 12.1°C 40% 5.0 km/h 8.4 km/h 134° 1029.3 hPa 0.000 mm
2021-03-03 11:22:00 12.1°C 40% 5.9 km/h 8.4 km/h 122° 1029.3 hPa 0.000 mm
2021-03-03 11:21:00 12.0°C 41% 7.4 km/h 11.6 km/h 144° 1029.3 hPa 0.000 mm
2021-03-03 11:20:00 12.1°C 40% 6.6 km/h 10.6 km/h 164° 1029.4 hPa 0.000 mm
2021-03-03 11:19:00 12.1°C 41% 6.4 km/h 10.6 km/h 122° 1029.4 hPa 0.000 mm
2021-03-03 11:18:00 12.1°C 41% 4.9 km/h 6.9 km/h 153° 1029.4 hPa 0.000 mm
2021-03-03 11:17:00 12.2°C 41% 3.4 km/h 5.3 km/h 142° 1029.3 hPa 0.000 mm
2021-03-03 11:16:00 12.1°C 41% 2.9 km/h 6.9 km/h 140° 1029.3 hPa 0.000 mm
2021-03-03 11:15:00 12.0°C 41% 3.4 km/h 5.8 km/h 113° 1029.3 hPa 0.000 mm
2021-03-03 11:14:00 12.0°C 41% 3.1 km/h 5.8 km/h 109° 1029.3 hPa 0.000 mm
2021-03-03 11:13:00 12.0°C 41% 4.5 km/h 7.4 km/h 134° 1029.3 hPa 0.000 mm
2021-03-03 11:12:00 12.0°C 41% 4.7 km/h 6.3 km/h 124° 1029.4 hPa 0.000 mm
2021-03-03 11:11:00 11.9°C 41% 3.3 km/h 5.3 km/h 125° 1029.3 hPa 0.000 mm
2021-03-03 11:10:00 11.9°C 41% 3.8 km/h 4.8 km/h 154° 1029.4 hPa 0.000 mm
2021-03-03 11:09:00 11.9°C 41% 5.4 km/h 9.5 km/h 124° 1029.3 hPa 0.000 mm
2021-03-03 11:08:00 11.9°C 41% 5.2 km/h 7.4 km/h 144° 1029.3 hPa 0.000 mm
2021-03-03 11:07:00 12.0°C 41% 4.3 km/h 7.9 km/h 128° 1029.4 hPa 0.000 mm
2021-03-03 11:06:00 11.9°C 42% 2.3 km/h 3.7 km/h 153° 1029.4 hPa 0.000 mm
2021-03-03 11:05:00 11.9°C 40% 4.7 km/h 6.9 km/h 135° 1029.4 hPa 0.000 mm
2021-03-03 11:04:00 11.9°C 41% 4.0 km/h 7.4 km/h 124° 1029.4 hPa 0.000 mm
2021-03-03 11:03:00 12.0°C 41% 3.2 km/h 4.8 km/h 135° 1029.4 hPa 0.000 mm
2021-03-03 11:02:00 11.9°C 40% 3.5 km/h 5.8 km/h 140° 1029.4 hPa 0.000 mm
2021-03-03 11:01:00 11.9°C 41% 4.3 km/h 6.3 km/h 134° 1029.4 hPa 0.000 mm
2021-03-03 11:00:00 11.8°C 41% 4.2 km/h 6.9 km/h 125° 1029.4 hPa 0.000 mm
2021-03-03 10:59:00 11.8°C 41% 3.6 km/h 5.8 km/h 145° 1029.4 hPa 0.000 mm
2021-03-03 10:58:00 11.9°C 40% 5.8 km/h 9.5 km/h 135° 1029.4 hPa 0.000 mm
2021-03-03 10:57:00 11.9°C 40% 5.7 km/h 9.0 km/h 141° 1029.4 hPa 0.000 mm
2021-03-03 10:56:00 11.9°C 40% 5.4 km/h 7.4 km/h 159° 1029.4 hPa 0.000 mm
2021-03-03 10:55:00 11.8°C 40% 4.0 km/h 7.4 km/h 137° 1029.3 hPa 0.000 mm
2021-03-03 10:54:00 11.8°C 41% 4.9 km/h 8.4 km/h 131° 1029.4 hPa 0.000 mm
2021-03-03 10:53:00 11.8°C 40% 4.4 km/h 6.9 km/h 123° 1029.4 hPa 0.000 mm
2021-03-03 10:52:00 11.8°C 40% 5.5 km/h 10.6 km/h 140° 1029.4 hPa 0.000 mm
2021-03-03 10:51:00 11.8°C 40% 9.0 km/h 14.2 km/h 154° 1029.4 hPa 0.000 mm
2021-03-03 10:50:00 11.8°C 40% 6.1 km/h 9.0 km/h 122° 1029.4 hPa 0.000 mm
2021-03-03 10:49:00 11.8°C 40% 5.6 km/h 10.6 km/h 118° 1029.4 hPa 0.000 mm
2021-03-03 10:48:00 11.8°C 40% 5.1 km/h 7.9 km/h 105° 1029.4 hPa 0.000 mm
2021-03-03 10:47:00 11.8°C 40% 4.7 km/h 6.9 km/h 117° 1029.5 hPa 0.000 mm
2021-03-03 10:46:00 11.8°C 40% 5.5 km/h 9.0 km/h 116° 1029.5 hPa 0.000 mm
2021-03-03 10:45:00 11.7°C 40% 6.1 km/h 7.9 km/h 124° 1029.5 hPa 0.000 mm
2021-03-03 10:44:00 11.8°C 40% 5.7 km/h 8.4 km/h 153° 1029.5 hPa 0.000 mm
2021-03-03 10:43:00 11.7°C 40% 6.9 km/h 11.6 km/h 100° 1029.4 hPa 0.000 mm
2021-03-03 10:42:00 11.7°C 40% 7.0 km/h 11.1 km/h 144° 1029.4 hPa 0.000 mm
2021-03-03 10:41:00 11.7°C 39% 7.8 km/h 12.7 km/h 115° 1029.4 hPa 0.000 mm
2021-03-03 10:40:00 11.7°C 39% 7.1 km/h 11.1 km/h 124° 1029.4 hPa 0.000 mm
2021-03-03 10:39:00 11.7°C 39% 7.0 km/h 10.6 km/h 79° 1029.4 hPa 0.000 mm
2021-03-03 10:38:00 11.8°C 39% 6.2 km/h 10.0 km/h 89° 1029.4 hPa 0.000 mm
2021-03-03 10:37:00 11.7°C 40% 7.2 km/h 10.0 km/h 144° 1029.4 hPa 0.000 mm
2021-03-03 10:36:00 11.8°C 39% 5.2 km/h 6.9 km/h 133° 1029.4 hPa 0.000 mm
2021-03-03 10:35:00 11.8°C 39% 7.2 km/h 11.1 km/h 137° 1029.4 hPa 0.000 mm
2021-03-03 10:34:00 11.7°C 40% 4.8 km/h 8.4 km/h 135° 1029.4 hPa 0.000 mm
2021-03-03 10:33:00 11.7°C 40% 5.9 km/h 7.9 km/h 145° 1029.4 hPa 0.000 mm
2021-03-03 10:32:00 11.7°C 40% 7.4 km/h 12.1 km/h 126° 1029.5 hPa 0.000 mm
2021-03-03 10:31:00 11.7°C 40% 5.4 km/h 11.1 km/h 141° 1029.5 hPa 0.000 mm
2021-03-03 10:30:00 11.6°C 40% 7.3 km/h 11.1 km/h 158° 1029.4 hPa 0.000 mm
2021-03-03 10:29:00 11.6°C 40% 5.6 km/h 7.9 km/h 152° 1029.4 hPa 0.000 mm
2021-03-03 10:28:00 11.6°C 40% 7.0 km/h 9.0 km/h 104° 1029.4 hPa 0.000 mm
2021-03-03 10:27:00 11.6°C 40% 6.1 km/h 10.6 km/h 129° 1029.4 hPa 0.000 mm
2021-03-03 10:26:00 11.6°C 40% 6.0 km/h 11.1 km/h 145° 1029.4 hPa 0.000 mm
2021-03-03 10:25:00 11.7°C 39% 9.4 km/h 13.2 km/h 133° 1029.4 hPa 0.000 mm
2021-03-03 10:24:00 11.6°C 40% 8.1 km/h 10.6 km/h 151° 1029.5 hPa 0.000 mm
2021-03-03 10:23:00 11.6°C 40% 5.1 km/h 8.4 km/h 138° 1029.5 hPa 0.000 mm
2021-03-03 10:22:00 11.6°C 40% 7.3 km/h 12.1 km/h 127° 1029.5 hPa 0.000 mm
2021-03-03 10:21:00 11.7°C 39% 6.2 km/h 9.0 km/h 133° 1029.5 hPa 0.000 mm
2021-03-03 10:20:00 11.7°C 39% 4.6 km/h 6.3 km/h 151° 1029.5 hPa 0.000 mm
2021-03-03 10:19:00 11.6°C 39% 7.3 km/h 13.2 km/h 113° 1029.5 hPa 0.000 mm
2021-03-03 10:18:00 11.6°C 40% 6.9 km/h 9.5 km/h 133° 1029.5 hPa 0.000 mm
2021-03-03 10:17:00 11.6°C 40% 5.2 km/h 6.9 km/h 147° 1029.5 hPa 0.000 mm
2021-03-03 10:16:00 11.6°C 40% 5.2 km/h 7.4 km/h 118° 1029.4 hPa 0.000 mm
2021-03-03 10:15:00 11.5°C 40% 8.3 km/h 13.2 km/h 101° 1029.4 hPa 0.000 mm
2021-03-03 10:14:00 11.5°C 40% 6.9 km/h 12.1 km/h 168° 1029.4 hPa 0.000 mm
2021-03-03 10:13:00 11.5°C 40% 5.0 km/h 7.4 km/h 167° 1029.4 hPa 0.000 mm
2021-03-03 10:12:00 11.5°C 40% 8.0 km/h 9.5 km/h 146° 1029.4 hPa 0.000 mm
2021-03-03 10:11:00 11.5°C 40% 7.2 km/h 10.6 km/h 120° 1029.5 hPa 0.000 mm
2021-03-03 10:10:00 11.4°C 41% 7.2 km/h 10.6 km/h 147° 1029.5 hPa 0.000 mm
2021-03-03 10:09:00 11.5°C 40% 5.0 km/h 8.4 km/h 144° 1029.5 hPa 0.000 mm
2021-03-03 10:08:00 11.4°C 40% 5.6 km/h 9.0 km/h 104° 1029.6 hPa 0.000 mm
2021-03-03 10:07:00 11.4°C 40% 6.1 km/h 10.0 km/h 86° 1029.6 hPa 0.000 mm
2021-03-03 10:06:00 11.4°C 40% 5.8 km/h 6.9 km/h 159° 1029.6 hPa 0.000 mm
2021-03-03 10:05:00 11.4°C 40% 5.9 km/h 7.9 km/h 118° 1029.5 hPa 0.000 mm
2021-03-03 10:04:00 11.4°C 40% 5.2 km/h 8.4 km/h 119° 1029.5 hPa 0.000 mm
2021-03-03 10:03:00 11.3°C 40% 5.9 km/h 7.9 km/h 126° 1029.6 hPa 0.000 mm
2021-03-03 10:02:00 11.3°C 40% 5.4 km/h 6.9 km/h 144° 1029.6 hPa 0.000 mm
2021-03-03 10:01:00 11.3°C 40% 7.4 km/h 10.0 km/h 126° 1029.6 hPa 0.000 mm
2021-03-03 10:00:00 11.2°C 41% 7.2 km/h 11.6 km/h 91° 1029.5 hPa 0.000 mm
2021-03-03 09:59:00 11.2°C 41% 7.4 km/h 10.6 km/h 127° 1029.5 hPa 0.000 mm
2021-03-03 09:58:00 11.3°C 41% 6.3 km/h 10.0 km/h 138° 1029.5 hPa 0.000 mm
2021-03-03 09:57:00 11.3°C 40% 8.0 km/h 15.3 km/h 151° 1029.4 hPa 0.000 mm
2021-03-03 09:56:00 11.3°C 40% 4.6 km/h 6.9 km/h 145° 1029.5 hPa 0.000 mm
2021-03-03 09:55:00 11.3°C 41% 5.8 km/h 9.5 km/h 117° 1029.5 hPa 0.000 mm
2021-03-03 09:54:00 11.3°C 40% 6.0 km/h 9.5 km/h 143° 1029.5 hPa 0.000 mm
2021-03-03 09:53:00 11.2°C 40% 7.3 km/h 10.0 km/h 173° 1029.5 hPa 0.000 mm
2021-03-03 09:52:00 11.2°C 40% 6.3 km/h 10.6 km/h 146° 1029.5 hPa 0.000 mm
2021-03-03 09:51:00 11.2°C 41% 11.4 km/h 13.7 km/h 154° 1029.4 hPa 0.000 mm
2021-03-03 09:50:00 11.2°C 41% 8.5 km/h 11.1 km/h 160° 1029.5 hPa 0.000 mm
2021-03-03 09:49:00 11.2°C 41% 7.3 km/h 9.5 km/h 168° 1029.5 hPa 0.000 mm
2021-03-03 09:48:00 11.2°C 41% 7.8 km/h 11.1 km/h 111° 1029.5 hPa 0.000 mm
2021-03-03 09:47:00 11.3°C 40% 8.1 km/h 10.6 km/h 133° 1029.5 hPa 0.000 mm
2021-03-03 09:46:00 11.3°C 40% 7.8 km/h 11.1 km/h 111° 1029.5 hPa 0.000 mm
2021-03-03 09:45:00 11.3°C 40% 7.5 km/h 10.6 km/h 155° 1029.5 hPa 0.000 mm
2021-03-03 09:44:00 11.3°C 40% 9.2 km/h 13.2 km/h 160° 1029.5 hPa 0.000 mm
2021-03-03 09:43:00 11.3°C 40% 6.8 km/h 11.1 km/h 115° 1029.5 hPa 0.000 mm
2021-03-03 09:42:00 11.3°C 40% 9.1 km/h 14.2 km/h 149° 1029.5 hPa 0.000 mm
2021-03-03 09:41:00 11.2°C 40% 8.3 km/h 13.2 km/h 132° 1029.5 hPa 0.000 mm
2021-03-03 09:40:00 11.3°C 40% 7.6 km/h 14.2 km/h 128° 1029.5 hPa 0.000 mm
2021-03-03 09:39:00 11.2°C 40% 7.2 km/h 9.5 km/h 164° 1029.5 hPa 0.000 mm
2021-03-03 09:38:00 11.3°C 40% 8.8 km/h 11.1 km/h 161° 1029.5 hPa 0.000 mm
2021-03-03 09:37:00 11.3°C 40% 6.5 km/h 9.0 km/h 123° 1029.5 hPa 0.000 mm
2021-03-03 09:36:00 11.3°C 40% 8.1 km/h 11.1 km/h 168° 1029.5 hPa 0.000 mm
2021-03-03 09:35:00 11.3°C 40% 8.5 km/h 12.7 km/h 152° 1029.5 hPa 0.000 mm
2021-03-03 09:34:00 11.2°C 40% 9.9 km/h 12.7 km/h 159° 1029.5 hPa 0.000 mm
2021-03-03 09:33:00 11.2°C 40% 10.9 km/h 13.7 km/h 179° 1029.5 hPa 0.000 mm
2021-03-03 09:32:00 11.2°C 40% 11.7 km/h 14.8 km/h 155° 1029.5 hPa 0.000 mm
2021-03-03 09:31:00 11.2°C 40% 9.1 km/h 12.1 km/h 161° 1029.6 hPa 0.000 mm
2021-03-03 09:30:00 11.2°C 40% 8.9 km/h 12.7 km/h 136° 1029.7 hPa 0.000 mm
2021-03-03 09:29:00 11.1°C 40% 9.2 km/h 12.7 km/h 164° 1029.7 hPa 0.000 mm
2021-03-03 09:28:00 11.1°C 41% 8.8 km/h 11.1 km/h 167° 1029.7 hPa 0.000 mm
2021-03-03 09:27:00 10.9°C 41% 11.2 km/h 14.8 km/h 170° 1029.7 hPa 0.000 mm
2021-03-03 09:26:00 11.0°C 41% 10.1 km/h 13.2 km/h 151° 1029.6 hPa 0.000 mm
2021-03-03 09:25:00 11.1°C 41% 8.7 km/h 11.6 km/h 176° 1029.5 hPa 0.000 mm
2021-03-03 09:24:00 11.0°C 41% 9.3 km/h 12.1 km/h 167° 1029.5 hPa 0.000 mm
2021-03-03 09:23:00 11.0°C 41% 10.2 km/h 12.7 km/h 151° 1029.5 hPa 0.000 mm
2021-03-03 09:22:00 10.9°C 41% 9.5 km/h 12.7 km/h 151° 1029.5 hPa 0.000 mm
2021-03-03 09:21:00 11.0°C 41% 9.7 km/h 12.1 km/h 153° 1029.5 hPa 0.000 mm
2021-03-03 09:20:00 10.9°C 42% 10.9 km/h 13.7 km/h 144° 1029.5 hPa 0.000 mm
2021-03-03 09:19:00 11.0°C 41% 9.9 km/h 12.1 km/h 140° 1029.5 hPa 0.000 mm
2021-03-03 09:18:00 10.9°C 41% 10.3 km/h 16.4 km/h 151° 1029.4 hPa 0.000 mm
2021-03-03 09:17:00 10.9°C 41% 11.4 km/h 15.3 km/h 124° 1029.4 hPa 0.000 mm
2021-03-03 09:16:00 10.8°C 41% 8.3 km/h 11.6 km/h 122° 1029.5 hPa 0.000 mm
2021-03-03 09:15:00 10.8°C 42% 11.0 km/h 13.2 km/h 113° 1029.4 hPa 0.000 mm
2021-03-03 09:14:00 10.8°C 42% 9.2 km/h 13.7 km/h 154° 1029.4 hPa 0.000 mm
2021-03-03 09:13:00 10.7°C 42% 10.5 km/h 12.1 km/h 149° 1029.4 hPa 0.000 mm
2021-03-03 09:12:00 10.7°C 42% 8.0 km/h 11.6 km/h 161° 1029.4 hPa 0.000 mm
2021-03-03 09:11:00 10.7°C 42% 8.6 km/h 11.6 km/h 163° 1029.4 hPa 0.000 mm
2021-03-03 09:10:00 10.7°C 42% 8.2 km/h 10.0 km/h 159° 1029.4 hPa 0.000 mm
2021-03-03 09:09:00 10.7°C 42% 7.4 km/h 10.6 km/h 119° 1029.5 hPa 0.000 mm
2021-03-03 09:08:00 10.8°C 42% 10.3 km/h 15.8 km/h 143° 1029.4 hPa 0.000 mm
2021-03-03 09:07:00 10.8°C 41% 9.5 km/h 12.7 km/h 132° 1029.4 hPa 0.000 mm
2021-03-03 09:06:00 10.8°C 41% 8.1 km/h 10.6 km/h 137° 1029.4 hPa 0.000 mm
2021-03-03 09:05:00 10.8°C 41% 9.0 km/h 13.2 km/h 131° 1029.4 hPa 0.000 mm
2021-03-03 09:04:00 10.8°C 41% 7.6 km/h 11.1 km/h 167° 1029.4 hPa 0.000 mm
2021-03-03 09:03:00 10.8°C 42% 9.2 km/h 13.7 km/h 160° 1029.4 hPa 0.000 mm
2021-03-03 09:02:00 10.8°C 41% 9.5 km/h 13.2 km/h 150° 1029.5 hPa 0.000 mm
2021-03-03 09:01:00 10.8°C 41% 7.9 km/h 13.7 km/h 101° 1029.5 hPa 0.000 mm
2021-03-03 09:00:00 10.8°C 41% 8.5 km/h 11.6 km/h 113° 1029.6 hPa 0.000 mm
2021-03-03 08:59:00 10.9°C 41% 9.5 km/h 15.8 km/h 117° 1029.7 hPa 0.000 mm
2021-03-03 08:58:00 10.9°C 41% 8.7 km/h 13.7 km/h 146° 1029.7 hPa 0.000 mm
2021-03-03 08:57:00 11.0°C 40% 10.9 km/h 15.3 km/h 156° 1029.7 hPa 0.000 mm
2021-03-03 08:56:00 11.0°C 41% 10.2 km/h 14.2 km/h 160° 1029.7 hPa 0.000 mm
2021-03-03 08:55:00 11.0°C 41% 9.1 km/h 14.2 km/h 135° 1029.7 hPa 0.000 mm
2021-03-03 08:54:00 10.9°C 41% 8.6 km/h 12.1 km/h 162° 1029.6 hPa 0.000 mm
2021-03-03 08:53:00 10.8°C 41% 7.5 km/h 11.1 km/h 89° 1029.6 hPa 0.000 mm
2021-03-03 08:52:00 10.9°C 41% 9.0 km/h 12.7 km/h 118° 1029.6 hPa 0.000 mm
2021-03-03 08:51:00 11.0°C 41% 10.7 km/h 14.2 km/h 135° 1029.6 hPa 0.000 mm
2021-03-03 08:50:00 10.9°C 41% 11.0 km/h 19.5 km/h 135° 1029.7 hPa 0.000 mm
2021-03-03 08:49:00 10.9°C 41% 9.4 km/h 15.3 km/h 124° 1029.7 hPa 0.000 mm
2021-03-03 08:48:00 10.8°C 41% 10.5 km/h 13.7 km/h 156° 1029.6 hPa 0.000 mm
2021-03-03 08:47:00 10.8°C 41% 9.0 km/h 12.1 km/h 118° 1029.6 hPa 0.000 mm
2021-03-03 08:46:00 10.7°C 42% 8.4 km/h 12.7 km/h 126° 1029.7 hPa 0.000 mm
2021-03-03 08:45:00 10.7°C 41% 8.7 km/h 12.1 km/h 114° 1029.6 hPa 0.000 mm
2021-03-03 08:44:00 10.7°C 41% 10.6 km/h 15.3 km/h 126° 1029.6 hPa 0.000 mm
2021-03-03 08:43:00 10.6°C 42% 8.2 km/h 13.7 km/h 99° 1029.7 hPa 0.000 mm
2021-03-03 08:42:00 10.6°C 42% 7.8 km/h 11.1 km/h 116° 1029.6 hPa 0.000 mm
2021-03-03 08:41:00 10.7°C 42% 8.3 km/h 13.2 km/h 145° 1029.7 hPa 0.000 mm
2021-03-03 08:40:00 10.6°C 42% 8.4 km/h 12.7 km/h 158° 1029.7 hPa 0.000 mm
2021-03-03 08:39:00 10.5°C 42% 7.6 km/h 11.1 km/h 87° 1029.7 hPa 0.000 mm
2021-03-03 08:38:00 10.6°C 42% 7.7 km/h 12.1 km/h 168° 1029.7 hPa 0.000 mm
2021-03-03 08:37:00 10.5°C 42% 6.2 km/h 8.4 km/h 128° 1029.7 hPa 0.000 mm
2021-03-03 08:36:00 10.5°C 42% 7.3 km/h 10.6 km/h 146° 1029.7 hPa 0.000 mm
2021-03-03 08:35:00 10.4°C 43% 9.5 km/h 13.7 km/h 146° 1029.7 hPa 0.000 mm
2021-03-03 08:34:00 10.4°C 43% 7.4 km/h 11.1 km/h 159° 1029.7 hPa 0.000 mm
2021-03-03 08:33:00 10.4°C 43% 7.5 km/h 10.6 km/h 145° 1029.7 hPa 0.000 mm
2021-03-03 08:32:00 10.4°C 43% 7.5 km/h 11.1 km/h 106° 1029.7 hPa 0.000 mm
2021-03-03 08:31:00 10.4°C 43% 7.5 km/h 9.5 km/h 122° 1029.7 hPa 0.000 mm
2021-03-03 08:30:00 10.4°C 43% 8.3 km/h 10.6 km/h 172° 1029.7 hPa 0.000 mm
2021-03-03 08:29:00 10.3°C 43% 6.5 km/h 9.5 km/h 128° 1029.6 hPa 0.000 mm
2021-03-03 08:28:00 10.4°C 43% 6.6 km/h 10.0 km/h 142° 1029.6 hPa 0.000 mm
2021-03-03 08:27:00 10.4°C 43% 6.2 km/h 10.0 km/h 100° 1029.6 hPa 0.000 mm
2021-03-03 08:26:00 10.4°C 43% 6.0 km/h 7.9 km/h 129° 1029.6 hPa 0.000 mm
2021-03-03 08:25:00 10.3°C 43% 5.3 km/h 6.9 km/h 134° 1029.6 hPa 0.000 mm
2021-03-03 08:24:00 10.3°C 43% 8.9 km/h 12.1 km/h 105° 1029.5 hPa 0.000 mm
2021-03-03 08:23:00 10.3°C 43% 5.9 km/h 7.9 km/h 140° 1029.5 hPa 0.000 mm
2021-03-03 08:22:00 10.2°C 43% 7.6 km/h 12.7 km/h 138° 1029.5 hPa 0.000 mm
2021-03-03 08:21:00 10.2°C 43% 6.8 km/h 9.0 km/h 149° 1029.5 hPa 0.000 mm
2021-03-03 08:20:00 10.1°C 44% 7.5 km/h 11.1 km/h 106° 1029.5 hPa 0.000 mm
2021-03-03 08:19:00 10.1°C 44% 7.6 km/h 11.6 km/h 163° 1029.5 hPa 0.000 mm
2021-03-03 08:18:00 10.1°C 44% 7.0 km/h 10.0 km/h 149° 1029.5 hPa 0.000 mm
2021-03-03 08:17:00 10.0°C 44% 7.1 km/h 9.5 km/h 136° 1029.5 hPa 0.000 mm
2021-03-03 08:16:00 10.0°C 44% 6.9 km/h 10.0 km/h 140° 1029.5 hPa 0.000 mm
2021-03-03 08:15:00 10.0°C 44% 7.1 km/h 9.5 km/h 143° 1029.5 hPa 0.000 mm
2021-03-03 08:14:00 10.0°C 44% 6.9 km/h 10.0 km/h 113° 1029.5 hPa 0.000 mm
2021-03-03 08:13:00 9.9°C 44% 6.5 km/h 9.0 km/h 153° 1029.5 hPa 0.000 mm
2021-03-03 08:12:00 9.9°C 44% 6.7 km/h 10.0 km/h 151° 1029.5 hPa 0.000 mm
2021-03-03 08:11:00 9.9°C 45% 7.0 km/h 9.5 km/h 126° 1029.5 hPa 0.000 mm
2021-03-03 08:10:00 9.9°C 45% 7.2 km/h 10.0 km/h 140° 1029.5 hPa 0.000 mm
2021-03-03 08:09:00 9.8°C 45% 6.9 km/h 10.0 km/h 95° 1029.5 hPa 0.000 mm
2021-03-03 08:08:00 9.8°C 45% 5.5 km/h 8.4 km/h 119° 1029.5 hPa 0.000 mm
2021-03-03 08:07:00 9.8°C 45% 6.6 km/h 9.0 km/h 120° 1029.5 hPa 0.000 mm
2021-03-03 08:06:00 9.8°C 45% 4.8 km/h 8.4 km/h 91° 1029.5 hPa 0.000 mm
2021-03-03 08:05:00 9.8°C 45% 4.8 km/h 6.3 km/h 143° 1029.5 hPa 0.000 mm
2021-03-03 08:04:00 9.7°C 45% 5.3 km/h 7.9 km/h 163° 1029.5 hPa 0.000 mm
2021-03-03 08:03:00 9.7°C 45% 4.8 km/h 6.3 km/h 140° 1029.4 hPa 0.000 mm
2021-03-03 08:02:00 9.7°C 45% 5.0 km/h 6.9 km/h 135° 1029.4 hPa 0.000 mm
2021-03-03 08:01:00 9.8°C 45% 4.7 km/h 6.9 km/h 135° 1029.4 hPa 0.000 mm
2021-03-03 08:00:00 9.7°C 45% 5.0 km/h 6.3 km/h 127° 1029.4 hPa 0.000 mm
2021-03-03 07:59:00 9.7°C 45% 6.3 km/h 8.4 km/h 141° 1029.4 hPa 0.000 mm
2021-03-03 07:58:00 9.7°C 45% 5.7 km/h 8.4 km/h 172° 1029.4 hPa 0.000 mm
2021-03-03 07:57:00 9.7°C 45% 5.7 km/h 6.9 km/h 133° 1029.5 hPa 0.000 mm
2021-03-03 07:56:00 9.7°C 45% 5.5 km/h 7.9 km/h 131° 1029.4 hPa 0.000 mm
2021-03-03 07:55:00 9.7°C 45% 5.3 km/h 6.9 km/h 132° 1029.5 hPa 0.000 mm
2021-03-03 07:54:00 9.7°C 45% 5.4 km/h 6.3 km/h 143° 1029.4 hPa 0.000 mm
2021-03-03 07:53:00 9.7°C 45% 6.0 km/h 9.0 km/h 134° 1029.4 hPa 0.000 mm
2021-03-03 07:52:00 9.6°C 45% 6.6 km/h 9.5 km/h 132° 1029.4 hPa 0.000 mm
2021-03-03 07:51:00 9.6°C 46% 5.9 km/h 7.9 km/h 115° 1029.4 hPa 0.000 mm
2021-03-03 07:50:00 9.4°C 46% 5.5 km/h 7.4 km/h 114° 1029.4 hPa 0.000 mm
2021-03-03 07:49:00 9.5°C 46% 7.7 km/h 10.0 km/h 133° 1029.4 hPa 0.000 mm
2021-03-03 07:48:00 9.5°C 46% 6.4 km/h 9.0 km/h 118° 1029.5 hPa 0.000 mm
2021-03-03 07:47:00 9.4°C 46% 6.3 km/h 10.6 km/h 132° 1029.4 hPa 0.000 mm
2021-03-03 07:46:00 9.3°C 46% 6.4 km/h 10.0 km/h 134° 1029.4 hPa 0.000 mm
2021-03-03 07:45:00 9.4°C 46% 5.0 km/h 6.3 km/h 111° 1029.4 hPa 0.000 mm
2021-03-03 07:44:00 9.5°C 46% 5.3 km/h 6.9 km/h 144° 1029.4 hPa 0.000 mm
2021-03-03 07:43:00 9.4°C 46% 5.2 km/h 7.4 km/h 141° 1029.4 hPa 0.000 mm
2021-03-03 07:42:00 9.4°C 46% 6.5 km/h 7.9 km/h 137° 1029.4 hPa 0.000 mm
2021-03-03 07:41:00 9.4°C 46% 6.0 km/h 9.0 km/h 162° 1029.4 hPa 0.000 mm
2021-03-03 07:40:00 9.4°C 46% 6.0 km/h 9.0 km/h 165° 1029.4 hPa 0.000 mm
2021-03-03 07:39:00 9.4°C 46% 5.0 km/h 6.3 km/h 140° 1029.3 hPa 0.000 mm
2021-03-03 07:38:00 9.4°C 46% 6.7 km/h 9.0 km/h 111° 1029.3 hPa 0.000 mm
2021-03-03 07:37:00 9.5°C 46% 6.2 km/h 10.0 km/h 129° 1029.3 hPa 0.000 mm
2021-03-03 07:36:00 9.4°C 46% 5.7 km/h 8.4 km/h 120° 1029.3 hPa 0.000 mm
2021-03-03 07:35:00 9.4°C 46% 6.0 km/h 9.5 km/h 150° 1029.3 hPa 0.000 mm
2021-03-03 07:34:00 9.4°C 46% 5.6 km/h 8.4 km/h 141° 1029.3 hPa 0.000 mm
2021-03-03 07:33:00 9.3°C 46% 5.0 km/h 6.9 km/h 118° 1029.3 hPa 0.000 mm
2021-03-03 07:32:00 9.4°C 46% 5.7 km/h 6.9 km/h 124° 1029.2 hPa 0.000 mm
2021-03-03 07:31:00 9.4°C 46% 4.3 km/h 5.8 km/h 149° 1029.2 hPa 0.000 mm
2021-03-03 07:30:00 9.4°C 46% 5.7 km/h 8.4 km/h 138° 1029.2 hPa 0.000 mm
2021-03-03 07:29:00 9.5°C 46% 5.4 km/h 8.4 km/h 137° 1029.2 hPa 0.000 mm
2021-03-03 07:28:00 9.4°C 46% 6.4 km/h 10.6 km/h 162° 1029.2 hPa 0.000 mm
2021-03-03 07:27:00 9.4°C 46% 7.0 km/h 11.1 km/h 93° 1029.2 hPa 0.000 mm
2021-03-03 07:26:00 9.4°C 46% 4.4 km/h 7.9 km/h 142° 1029.2 hPa 0.000 mm
2021-03-03 07:25:00 9.3°C 46% 6.6 km/h 8.4 km/h 131° 1029.2 hPa 0.000 mm
2021-03-03 07:24:00 9.3°C 46% 5.9 km/h 7.9 km/h 172° 1029.2 hPa 0.000 mm
2021-03-03 07:23:00 9.3°C 46% 5.8 km/h 6.9 km/h 153° 1029.2 hPa 0.000 mm
2021-03-03 07:22:00 9.3°C 46% 4.7 km/h 6.3 km/h 145° 1029.2 hPa 0.000 mm
2021-03-03 07:21:00 9.3°C 46% 6.3 km/h 10.6 km/h 124° 1029.2 hPa 0.000 mm
2021-03-03 07:20:00 9.3°C 46% 5.5 km/h 7.9 km/h 115° 1029.2 hPa 0.000 mm
2021-03-03 07:19:00 9.3°C 46% 5.9 km/h 7.4 km/h 114° 1029.2 hPa 0.000 mm
2021-03-03 07:18:00 9.3°C 46% 5.7 km/h 9.0 km/h 127° 1029.2 hPa 0.000 mm
2021-03-03 07:17:00 9.3°C 46% 6.2 km/h 9.0 km/h 151° 1029.3 hPa 0.000 mm
2021-03-03 07:16:00 9.4°C 46% 6.2 km/h 9.0 km/h 163° 1029.2 hPa 0.000 mm
2021-03-03 07:15:00 9.3°C 46% 7.7 km/h 11.1 km/h 140° 1029.2 hPa 0.000 mm
2021-03-03 07:14:00 9.3°C 46% 6.1 km/h 11.1 km/h 135° 1029.2 hPa 0.000 mm
2021-03-03 07:13:00 9.4°C 46% 5.5 km/h 7.4 km/h 89° 1029.2 hPa 0.000 mm
2021-03-03 07:12:00 9.5°C 46% 5.4 km/h 7.4 km/h 171° 1029.2 hPa 0.000 mm
2021-03-03 07:11:00 9.4°C 46% 5.4 km/h 6.9 km/h 102° 1029.2 hPa 0.000 mm
2021-03-03 07:10:00 9.3°C 46% 5.8 km/h 7.9 km/h 133° 1029.2 hPa 0.000 mm
2021-03-03 07:09:00 9.3°C 46% 6.4 km/h 9.0 km/h 113° 1029.2 hPa 0.000 mm
2021-03-03 07:08:00 9.3°C 46% 6.4 km/h 10.6 km/h 120° 1029.2 hPa 0.000 mm
2021-03-03 07:07:00 9.3°C 46% 6.0 km/h 10.6 km/h 153° 1029.2 hPa 0.000 mm
2021-03-03 07:06:00 9.3°C 46% 6.8 km/h 10.6 km/h 132° 1029.2 hPa 0.000 mm
2021-03-03 07:05:00 9.2°C 46% 5.8 km/h 7.9 km/h 117° 1029.2 hPa 0.000 mm
2021-03-03 07:04:00 9.2°C 47% 5.4 km/h 9.0 km/h 128° 1029.2 hPa 0.000 mm
2021-03-03 07:03:00 9.2°C 46% 6.8 km/h 10.6 km/h 136° 1029.2 hPa 0.000 mm
2021-03-03 07:02:00 9.2°C 46% 5.3 km/h 6.9 km/h 138° 1029.2 hPa 0.000 mm
2021-03-03 07:01:00 9.2°C 46% 5.4 km/h 7.4 km/h 147° 1029.2 hPa 0.000 mm
2021-03-03 07:00:00 9.3°C 46% 5.2 km/h 7.9 km/h 122° 1029.2 hPa 0.000 mm
2021-03-03 06:59:00 9.2°C 46% 5.0 km/h 7.4 km/h 170° 1029.2 hPa 0.000 mm
2021-03-03 06:58:00 9.3°C 46% 5.6 km/h 9.0 km/h 144° 1029.2 hPa 0.000 mm
2021-03-03 06:57:00 9.3°C 46% 7.7 km/h 10.6 km/h 110° 1029.2 hPa 0.000 mm
2021-03-03 06:56:00 9.3°C 46% 6.1 km/h 8.4 km/h 124° 1029.2 hPa 0.000 mm
2021-03-03 06:55:00 9.3°C 46% 5.7 km/h 9.5 km/h 135° 1029.2 hPa 0.000 mm
2021-03-03 06:54:00 9.2°C 46% 5.0 km/h 6.3 km/h 129° 1029.2 hPa 0.000 mm
2021-03-03 06:53:00 9.2°C 46% 5.2 km/h 6.9 km/h 113° 1029.1 hPa 0.000 mm
2021-03-03 06:52:00 9.2°C 46% 5.8 km/h 7.9 km/h 161° 1029.1 hPa 0.000 mm
2021-03-03 06:51:00 9.2°C 46% 5.4 km/h 6.9 km/h 141° 1029.1 hPa 0.000 mm
2021-03-03 06:50:00 9.2°C 46% 6.5 km/h 9.5 km/h 124° 1029.1 hPa 0.000 mm
2021-03-03 06:49:00 9.2°C 46% 5.2 km/h 10.6 km/h 143° 1029.1 hPa 0.000 mm
2021-03-03 06:48:00 9.2°C 46% 5.5 km/h 10.0 km/h 115° 1029.1 hPa 0.000 mm
2021-03-03 06:47:00 9.3°C 46% 7.1 km/h 10.6 km/h 147° 1029.1 hPa 0.000 mm
2021-03-03 06:46:00 9.3°C 46% 8.7 km/h 14.8 km/h 106° 1029.2 hPa 0.000 mm
2021-03-03 06:45:00 9.3°C 46% 8.6 km/h 12.7 km/h 127° 1029.2 hPa 0.000 mm
2021-03-03 06:44:00 9.3°C 46% 8.0 km/h 12.1 km/h 147° 1029.1 hPa 0.000 mm
2021-03-03 06:43:00 9.3°C 46% 7.1 km/h 11.6 km/h 119° 1029.1 hPa 0.000 mm
2021-03-03 06:42:00 9.4°C 45% 8.0 km/h 12.1 km/h 162° 1029.1 hPa 0.000 mm
2021-03-03 06:41:00 9.4°C 46% 11.3 km/h 17.9 km/h 133° 1029.1 hPa 0.000 mm
2021-03-03 06:40:00 9.4°C 46% 9.8 km/h 14.2 km/h 150° 1029.1 hPa 0.000 mm
2021-03-03 06:39:00 9.4°C 45% 8.1 km/h 12.1 km/h 135° 1029.1 hPa 0.000 mm
2021-03-03 06:38:00 9.4°C 45% 8.6 km/h 14.8 km/h 119° 1029.1 hPa 0.000 mm
2021-03-03 06:37:00 9.4°C 46% 5.1 km/h 6.9 km/h 128° 1029.1 hPa 0.000 mm
2021-03-03 06:36:00 9.4°C 46% 6.0 km/h 9.5 km/h 108° 1029.1 hPa 0.000 mm
2021-03-03 06:35:00 9.3°C 46% 6.2 km/h 9.0 km/h 95° 1029.1 hPa 0.000 mm
2021-03-03 06:34:00 9.4°C 46% 5.9 km/h 7.9 km/h 89° 1029.1 hPa 0.000 mm
2021-03-03 06:33:00 9.4°C 46% 8.9 km/h 13.7 km/h 109° 1029.1 hPa 0.000 mm
2021-03-03 06:32:00 9.3°C 46% 10.0 km/h 15.3 km/h 133° 1029.1 hPa 0.000 mm
2021-03-03 06:31:00 9.3°C 46% 6.4 km/h 11.6 km/h 149° 1029.1 hPa 0.000 mm
2021-03-03 06:30:00 9.3°C 46% 9.8 km/h 15.8 km/h 143° 1029.1 hPa 0.000 mm
2021-03-03 06:29:00 9.3°C 46% 9.3 km/h 16.9 km/h 109° 1029.1 hPa 0.000 mm
2021-03-03 06:28:00 9.3°C 46% 7.3 km/h 10.6 km/h 125° 1029.1 hPa 0.000 mm
2021-03-03 06:27:00 9.2°C 46% 6.7 km/h 9.5 km/h 134° 1029.1 hPa 0.000 mm
2021-03-03 06:26:00 9.2°C 46% 7.5 km/h 11.1 km/h 131° 1029.1 hPa 0.000 mm
2021-03-03 06:25:00 9.2°C 46% 7.2 km/h 11.1 km/h 132° 1029.1 hPa 0.000 mm
2021-03-03 06:24:00 9.1°C 46% 5.3 km/h 7.9 km/h 124° 1029.1 hPa 0.000 mm
2021-03-03 06:23:00 9.2°C 46% 6.7 km/h 8.4 km/h 150° 1029.1 hPa 0.000 mm
2021-03-03 06:22:00 9.2°C 46% 5.7 km/h 8.4 km/h 143° 1029.1 hPa 0.000 mm
2021-03-03 06:21:00 9.2°C 46% 4.9 km/h 7.4 km/h 131° 1029.1 hPa 0.000 mm
2021-03-03 06:20:00 9.2°C 46% 7.8 km/h 11.6 km/h 91° 1029.1 hPa 0.000 mm
2021-03-03 06:19:00 9.2°C 46% 6.2 km/h 9.5 km/h 132° 1029.1 hPa 0.000 mm
2021-03-03 06:18:00 9.2°C 46% 5.1 km/h 7.4 km/h 123° 1029.1 hPa 0.000 mm
2021-03-03 06:17:00 9.2°C 46% 5.2 km/h 8.4 km/h 125° 1029.2 hPa 0.000 mm
2021-03-03 06:16:00 9.3°C 46% 5.1 km/h 6.3 km/h 144° 1029.2 hPa 0.000 mm
2021-03-03 06:15:00 9.2°C 46% 5.4 km/h 10.0 km/h 108° 1029.1 hPa 0.000 mm
2021-03-03 06:14:00 9.2°C 46% 6.1 km/h 10.0 km/h 152° 1029.2 hPa 0.000 mm
2021-03-03 06:13:00 9.2°C 46% 4.8 km/h 7.4 km/h 159° 1029.2 hPa 0.000 mm
2021-03-03 06:12:00 9.2°C 46% 4.6 km/h 6.3 km/h 167° 1029.2 hPa 0.000 mm
2021-03-03 06:11:00 9.2°C 46% 3.6 km/h 6.3 km/h 143° 1029.2 hPa 0.000 mm
2021-03-03 06:10:00 9.3°C 46% 4.7 km/h 7.9 km/h 114° 1029.2 hPa 0.000 mm
2021-03-03 06:09:00 9.3°C 46% 3.4 km/h 5.3 km/h 122° 1029.2 hPa 0.000 mm
2021-03-03 06:08:00 9.2°C 46% 5.3 km/h 8.4 km/h 143° 1029.2 hPa 0.000 mm
2021-03-03 06:07:00 9.2°C 46% 3.3 km/h 5.3 km/h 149° 1029.2 hPa 0.000 mm
2021-03-03 06:06:00 9.2°C 46% 4.6 km/h 7.4 km/h 154° 1029.2 hPa 0.000 mm
2021-03-03 06:05:00 9.3°C 46% 4.1 km/h 5.8 km/h 124° 1029.2 hPa 0.000 mm
2021-03-03 06:04:00 9.3°C 46% 3.7 km/h 4.2 km/h 155° 1029.2 hPa 0.000 mm
2021-03-03 06:03:00 9.2°C 46% 4.5 km/h 10.0 km/h 160° 1029.2 hPa 0.000 mm
2021-03-03 06:02:00 9.2°C 46% 4.9 km/h 6.9 km/h 102° 1029.2 hPa 0.000 mm
2021-03-03 06:01:00 9.3°C 46% 3.8 km/h 5.8 km/h 150° 1029.2 hPa 0.000 mm
2021-03-03 06:00:00 9.3°C 46% 4.1 km/h 6.9 km/h 158° 1029.2 hPa 0.000 mm
2021-03-03 05:59:00 9.4°C 45% 4.0 km/h 5.8 km/h 122° 1029.2 hPa 0.000 mm
2021-03-03 05:58:00 9.4°C 45% 3.4 km/h 6.3 km/h 119° 1029.2 hPa 0.000 mm
2021-03-03 05:57:00 9.5°C 45% 3.8 km/h 6.3 km/h 128° 1029.2 hPa 0.000 mm
2021-03-03 05:56:00 9.5°C 45% 3.8 km/h 5.3 km/h 149° 1029.1 hPa 0.000 mm
2021-03-03 05:55:00 9.4°C 45% 3.1 km/h 4.8 km/h 158° 1029.2 hPa 0.000 mm
2021-03-03 05:54:00 9.4°C 45% 4.0 km/h 5.3 km/h 142° 1029.1 hPa 0.000 mm
2021-03-03 05:53:00 9.4°C 45% 4.8 km/h 8.4 km/h 140° 1029.1 hPa 0.000 mm
2021-03-03 05:52:00 9.5°C 45% 5.5 km/h 6.9 km/h 123° 1029.2 hPa 0.000 mm
2021-03-03 05:51:00 9.5°C 45% 4.7 km/h 6.9 km/h 152° 1029.2 hPa 0.000 mm
2021-03-03 05:50:00 9.6°C 45% 5.8 km/h 11.6 km/h 146° 1029.2 hPa 0.000 mm
2021-03-03 05:49:00 9.6°C 45% 4.5 km/h 6.9 km/h 133° 1029.2 hPa 0.000 mm
2021-03-03 05:48:00 9.6°C 45% 5.5 km/h 8.4 km/h 134° 1029.2 hPa 0.000 mm
2021-03-03 05:47:00 9.6°C 45% 3.7 km/h 6.9 km/h 163° 1029.2 hPa 0.000 mm
2021-03-03 05:46:00 9.6°C 45% 5.3 km/h 8.4 km/h 104° 1029.2 hPa 0.000 mm
2021-03-03 05:45:00 9.7°C 45% 4.5 km/h 6.3 km/h 135° 1029.2 hPa 0.000 mm
2021-03-03 05:44:00 9.6°C 45% 4.1 km/h 6.3 km/h 120° 1029.2 hPa 0.000 mm
2021-03-03 05:43:00 9.6°C 45% 4.7 km/h 7.9 km/h 114° 1029.2 hPa 0.000 mm
2021-03-03 05:42:00 9.7°C 45% 4.7 km/h 5.8 km/h 153° 1029.2 hPa 0.000 mm
2021-03-03 05:41:00 9.7°C 45% 5.4 km/h 9.0 km/h 135° 1029.2 hPa 0.000 mm
2021-03-03 05:40:00 9.7°C 45% 6.6 km/h 10.0 km/h 124° 1029.2 hPa 0.000 mm
2021-03-03 05:39:00 9.6°C 45% 5.4 km/h 9.0 km/h 138° 1029.2 hPa 0.000 mm
2021-03-03 05:38:00 9.7°C 45% 5.8 km/h 7.9 km/h 156° 1029.2 hPa 0.000 mm
2021-03-03 05:37:00 9.7°C 45% 5.5 km/h 7.9 km/h 137° 1029.2 hPa 0.000 mm
2021-03-03 05:36:00 9.6°C 45% 6.3 km/h 13.2 km/h 99° 1029.2 hPa 0.000 mm
2021-03-03 05:35:00 9.6°C 45% 5.5 km/h 6.9 km/h 128° 1029.2 hPa 0.000 mm
2021-03-03 05:34:00 9.6°C 45% 5.5 km/h 8.4 km/h 110° 1029.2 hPa 0.000 mm
2021-03-03 05:33:00 9.6°C 46% 6.0 km/h 9.0 km/h 119° 1029.2 hPa 0.000 mm
2021-03-03 05:32:00 9.6°C 46% 6.6 km/h 9.5 km/h 107° 1029.2 hPa 0.000 mm
2021-03-03 05:31:00 9.6°C 46% 6.1 km/h 10.6 km/h 124° 1029.2 hPa 0.000 mm
2021-03-03 05:30:00 9.6°C 46% 7.6 km/h 10.0 km/h 120° 1029.2 hPa 0.000 mm
2021-03-03 05:29:00 9.5°C 46% 5.4 km/h 7.9 km/h 144° 1029.2 hPa 0.000 mm
2021-03-03 05:28:00 9.6°C 46% 6.5 km/h 8.4 km/h 151° 1029.2 hPa 0.000 mm
2021-03-03 05:27:00 9.5°C 46% 5.0 km/h 7.9 km/h 172° 1029.2 hPa 0.000 mm
2021-03-03 05:26:00 9.6°C 46% 6.4 km/h 8.4 km/h 159° 1029.2 hPa 0.000 mm
2021-03-03 05:25:00 9.6°C 46% 5.4 km/h 7.9 km/h 161° 1029.2 hPa 0.000 mm
2021-03-03 05:24:00 9.5°C 46% 6.0 km/h 9.5 km/h 144° 1029.3 hPa 0.000 mm
2021-03-03 05:23:00 9.5°C 46% 5.4 km/h 7.4 km/h 160° 1029.2 hPa 0.000 mm
2021-03-03 05:22:00 9.5°C 46% 7.2 km/h 10.6 km/h 182° 1029.2 hPa 0.000 mm
2021-03-03 05:21:00 9.5°C 46% 5.2 km/h 7.9 km/h 133° 1029.2 hPa 0.000 mm
2021-03-03 05:20:00 9.5°C 46% 5.9 km/h 7.9 km/h 140° 1029.3 hPa 0.000 mm
2021-03-03 05:19:00 9.5°C 46% 5.8 km/h 8.4 km/h 141° 1029.2 hPa 0.000 mm
2021-03-03 05:18:00 9.5°C 46% 6.2 km/h 7.9 km/h 131° 1029.2 hPa 0.000 mm
2021-03-03 05:17:00 9.4°C 46% 5.1 km/h 7.4 km/h 123° 1029.2 hPa 0.000 mm
2021-03-03 05:16:00 9.5°C 46% 4.5 km/h 5.8 km/h 141° 1029.2 hPa 0.000 mm
2021-03-03 05:15:00 9.5°C 46% 6.9 km/h 9.5 km/h 135° 1029.3 hPa 0.000 mm
2021-03-03 05:14:00 9.5°C 46% 4.9 km/h 7.4 km/h 120° 1029.3 hPa 0.000 mm
2021-03-03 05:13:00 9.4°C 46% 5.2 km/h 6.9 km/h 141° 1029.3 hPa 0.000 mm
2021-03-03 05:12:00 9.3°C 47% 4.4 km/h 7.9 km/h 142° 1029.3 hPa 0.000 mm
2021-03-03 05:11:00 9.3°C 47% 5.7 km/h 7.4 km/h 122° 1029.3 hPa 0.000 mm
2021-03-03 05:10:00 9.5°C 46% 5.5 km/h 6.9 km/h 146° 1029.3 hPa 0.000 mm
2021-03-03 05:09:00 9.5°C 46% 5.9 km/h 7.4 km/h 158° 1029.3 hPa 0.000 mm
2021-03-03 05:08:00 9.5°C 46% 6.0 km/h 10.0 km/h 135° 1029.3 hPa 0.000 mm
2021-03-03 05:07:00 9.4°C 47% 6.5 km/h 9.5 km/h 119° 1029.3 hPa 0.000 mm
2021-03-03 05:06:00 9.3°C 47% 4.9 km/h 7.4 km/h 134° 1029.3 hPa 0.000 mm
2021-03-03 05:05:00 9.3°C 47% 5.6 km/h 9.0 km/h 113° 1029.3 hPa 0.000 mm
2021-03-03 05:04:00 9.3°C 47% 5.9 km/h 8.4 km/h 135° 1029.2 hPa 0.000 mm
2021-03-03 05:03:00 9.3°C 47% 5.8 km/h 7.4 km/h 152° 1029.3 hPa 0.000 mm
2021-03-03 05:02:00 9.2°C 47% 5.1 km/h 8.4 km/h 145° 1029.2 hPa 0.000 mm
2021-03-03 05:01:00 9.3°C 47% 4.8 km/h 5.8 km/h 155° 1029.2 hPa 0.000 mm
2021-03-03 05:00:00 9.3°C 47% 4.9 km/h 6.3 km/h 126° 1029.3 hPa 0.000 mm
2021-03-03 04:59:00 9.2°C 48% 4.4 km/h 6.9 km/h 119° 1029.3 hPa 0.000 mm
2021-03-03 04:58:00 9.1°C 48% 4.2 km/h 5.8 km/h 141° 1029.2 hPa 0.000 mm
2021-03-03 04:57:00 9.1°C 48% 4.6 km/h 6.9 km/h 147° 1029.2 hPa 0.000 mm
2021-03-03 04:56:00 9.1°C 48% 4.1 km/h 5.8 km/h 133° 1029.2 hPa 0.000 mm
2021-03-03 04:55:00 9.1°C 48% 3.9 km/h 6.3 km/h 135° 1029.2 hPa 0.000 mm
2021-03-03 04:54:00 9.1°C 48% 5.1 km/h 8.4 km/h 154° 1029.2 hPa 0.000 mm
2021-03-03 04:53:00 9.1°C 48% 4.6 km/h 5.8 km/h 135° 1029.2 hPa 0.000 mm
2021-03-03 04:52:00 9.1°C 48% 4.4 km/h 5.8 km/h 144° 1029.2 hPa 0.000 mm
2021-03-03 04:51:00 9.0°C 48% 4.9 km/h 7.9 km/h 137° 1029.2 hPa 0.000 mm
2021-03-03 04:50:00 9.1°C 48% 3.9 km/h 6.3 km/h 131° 1029.2 hPa 0.000 mm
2021-03-03 04:49:00 9.1°C 48% 4.9 km/h 6.3 km/h 124° 1029.2 hPa 0.000 mm
2021-03-03 04:48:00 9.1°C 48% 4.3 km/h 5.8 km/h 117° 1029.2 hPa 0.000 mm
2021-03-03 04:47:00 9.0°C 48% 5.3 km/h 9.0 km/h 124° 1029.2 hPa 0.000 mm
2021-03-03 04:46:00 9.0°C 48% 4.4 km/h 6.3 km/h 132° 1029.2 hPa 0.000 mm
2021-03-03 04:45:00 9.0°C 48% 3.8 km/h 6.3 km/h 127° 1029.2 hPa 0.000 mm
2021-03-03 04:44:00 8.9°C 49% 5.0 km/h 6.9 km/h 150° 1029.2 hPa 0.000 mm
2021-03-03 04:43:00 8.8°C 49% 3.3 km/h 5.3 km/h 122° 1029.2 hPa 0.000 mm
2021-03-03 04:42:00 8.8°C 49% 4.9 km/h 6.9 km/h 142° 1029.2 hPa 0.000 mm
2021-03-03 04:41:00 8.8°C 49% 3.6 km/h 5.3 km/h 149° 1029.2 hPa 0.000 mm
2021-03-03 04:40:00 8.7°C 49% 2.6 km/h 3.2 km/h 144° 1029.2 hPa 0.000 mm
2021-03-03 04:39:00 8.7°C 49% 2.9 km/h 4.2 km/h 116° 1029.2 hPa 0.000 mm
2021-03-03 04:38:00 8.7°C 49% 2.9 km/h 3.7 km/h 151° 1029.2 hPa 0.000 mm
2021-03-03 04:37:00 8.7°C 49% 2.5 km/h 4.2 km/h 110° 1029.1 hPa 0.000 mm
2021-03-03 04:36:00 8.7°C 49% 3.0 km/h 4.8 km/h 122° 1029.2 hPa 0.000 mm
2021-03-03 04:35:00 8.7°C 49% 2.9 km/h 4.8 km/h 144° 1029.1 hPa 0.000 mm
2021-03-03 04:34:00 8.6°C 49% 3.1 km/h 4.2 km/h 129° 1029.1 hPa 0.000 mm
2021-03-03 04:33:00 8.6°C 49% 3.0 km/h 4.2 km/h 134° 1029.1 hPa 0.000 mm
2021-03-03 04:32:00 8.5°C 50% 2.6 km/h 3.2 km/h 140° 1029.0 hPa 0.000 mm
2021-03-03 04:31:00 8.4°C 50% 2.2 km/h 3.2 km/h 125° 1029.1 hPa 0.000 mm
2021-03-03 04:30:00 8.4°C 50% 3.3 km/h 6.3 km/h 134° 1029.1 hPa 0.000 mm
2021-03-03 04:29:00 8.4°C 50% 1.8 km/h 3.2 km/h 138° 1029.1 hPa 0.000 mm
2021-03-03 04:28:00 8.4°C 50% 2.5 km/h 4.8 km/h 132° 1029.1 hPa 0.000 mm
2021-03-03 04:27:00 8.4°C 50% 2.3 km/h 3.7 km/h 125° 1029.1 hPa 0.000 mm
2021-03-03 04:26:00 8.4°C 50% 1.7 km/h 2.6 km/h 147° 1029.1 hPa 0.000 mm
2021-03-03 04:25:00 8.5°C 49% 2.4 km/h 3.7 km/h 131° 1029.1 hPa 0.000 mm
2021-03-03 04:24:00 8.5°C 49% 2.0 km/h 3.7 km/h 147° 1029.1 hPa 0.000 mm
2021-03-03 04:23:00 8.5°C 49% 1.6 km/h 2.1 km/h 88° 1029.1 hPa 0.000 mm
2021-03-03 04:22:00 8.6°C 49% 1.7 km/h 2.1 km/h 138° 1029.1 hPa 0.000 mm
2021-03-03 04:21:00 8.7°C 49% 2.6 km/h 4.2 km/h 135° 1029.0 hPa 0.000 mm
2021-03-03 04:20:00 8.6°C 49% 4.1 km/h 7.9 km/h 133° 1029.0 hPa 0.000 mm
2021-03-03 04:19:00 8.7°C 49% 3.8 km/h 6.9 km/h 124° 1029.0 hPa 0.000 mm
2021-03-03 04:18:00 8.7°C 49% 3.2 km/h 5.8 km/h 111° 1029.0 hPa 0.000 mm
2021-03-03 04:17:00 8.7°C 49% 4.8 km/h 9.5 km/h 145° 1029.0 hPa 0.000 mm
2021-03-03 04:16:00 8.7°C 49% 4.2 km/h 5.3 km/h 117° 1029.0 hPa 0.000 mm
2021-03-03 04:15:00 8.8°C 49% 3.7 km/h 4.8 km/h 131° 1029.0 hPa 0.000 mm
2021-03-03 04:14:00 8.8°C 48% 5.5 km/h 10.0 km/h 124° 1029.0 hPa 0.000 mm
2021-03-03 04:13:00 8.8°C 48% 2.4 km/h 4.2 km/h 133° 1029.0 hPa 0.000 mm
2021-03-03 04:12:00 8.9°C 48% 2.7 km/h 4.2 km/h 128° 1029.1 hPa 0.000 mm
2021-03-03 04:11:00 9.0°C 48% 2.2 km/h 4.8 km/h 146° 1029.1 hPa 0.000 mm
2021-03-03 04:10:00 9.1°C 48% 2.5 km/h 3.7 km/h 120° 1029.1 hPa 0.000 mm
2021-03-03 04:09:00 9.1°C 48% 3.3 km/h 6.3 km/h 113° 1029.1 hPa 0.000 mm
2021-03-03 04:08:00 9.1°C 48% 3.8 km/h 5.3 km/h 128° 1029.1 hPa 0.000 mm
2021-03-03 04:07:00 9.2°C 47% 3.3 km/h 5.3 km/h 136° 1029.1 hPa 0.000 mm
2021-03-03 04:06:00 9.1°C 48% 3.3 km/h 5.8 km/h 115° 1029.1 hPa 0.000 mm
2021-03-03 04:05:00 9.2°C 47% 4.1 km/h 6.3 km/h 136° 1029.1 hPa 0.000 mm
2021-03-03 04:04:00 9.3°C 47% 3.9 km/h 4.8 km/h 134° 1029.1 hPa 0.000 mm
2021-03-03 04:03:00 9.4°C 47% 3.7 km/h 5.3 km/h 131° 1029.1 hPa 0.000 mm
2021-03-03 04:02:00 9.3°C 47% 3.2 km/h 4.8 km/h 101° 1029.1 hPa 0.000 mm
2021-03-03 04:01:00 9.2°C 47% 3.2 km/h 4.2 km/h 128° 1029.1 hPa 0.000 mm
2021-03-03 04:00:00 9.2°C 47% 2.1 km/h 3.7 km/h 129° 1029.1 hPa 0.000 mm
2021-03-03 03:59:00 9.2°C 47% 3.2 km/h 4.8 km/h 119° 1029.1 hPa 0.000 mm
2021-03-03 03:58:00 9.3°C 47% 3.0 km/h 3.7 km/h 136° 1029.1 hPa 0.000 mm
2021-03-03 03:57:00 9.2°C 47% 2.7 km/h 4.2 km/h 116° 1029.1 hPa 0.000 mm
2021-03-03 03:56:00 9.3°C 47% 2.9 km/h 4.2 km/h 114° 1029.1 hPa 0.000 mm
2021-03-03 03:55:00 9.3°C 47% 3.9 km/h 5.8 km/h 120° 1029.1 hPa 0.000 mm
2021-03-03 03:54:00 9.2°C 47% 3.6 km/h 6.3 km/h 116° 1029.1 hPa 0.000 mm
2021-03-03 03:53:00 9.2°C 47% 2.7 km/h 4.2 km/h 154° 1029.1 hPa 0.000 mm
2021-03-03 03:52:00 9.2°C 47% 2.9 km/h 6.3 km/h 140° 1029.1 hPa 0.000 mm
2021-03-03 03:51:00 9.1°C 47% 4.0 km/h 7.4 km/h 131° 1029.1 hPa 0.000 mm
2021-03-03 03:50:00 9.1°C 47% 2.7 km/h 4.8 km/h 123° 1029.1 hPa 0.000 mm
2021-03-03 03:49:00 9.2°C 47% 3.0 km/h 4.8 km/h 120° 1029.1 hPa 0.000 mm
2021-03-03 03:48:00 9.2°C 47% 2.4 km/h 3.2 km/h 155° 1029.1 hPa 0.000 mm
2021-03-03 03:47:00 9.2°C 47% 4.0 km/h 6.9 km/h 155° 1029.1 hPa 0.000 mm
2021-03-03 03:46:00 9.1°C 47% 2.4 km/h 5.8 km/h 134° 1029.1 hPa 0.000 mm
2021-03-03 03:45:00 9.1°C 47% 2.4 km/h 4.2 km/h 140° 1029.1 hPa 0.000 mm
2021-03-03 03:44:00 9.2°C 47% 2.5 km/h 4.8 km/h 123° 1029.1 hPa 0.000 mm
2021-03-03 03:43:00 9.3°C 47% 4.4 km/h 5.8 km/h 183° 1029.1 hPa 0.000 mm
2021-03-03 03:42:00 9.3°C 47% 3.7 km/h 4.8 km/h 138° 1029.1 hPa 0.000 mm
2021-03-03 03:41:00 9.3°C 47% 3.1 km/h 4.2 km/h 133° 1029.1 hPa 0.000 mm
2021-03-03 03:40:00 9.3°C 47% 1.6 km/h 2.6 km/h 126° 1029.1 hPa 0.000 mm
2021-03-03 03:39:00 9.3°C 47% 2.2 km/h 4.8 km/h 123° 1029.1 hPa 0.000 mm
2021-03-03 03:38:00 9.3°C 47% 3.4 km/h 5.3 km/h 113° 1029.2 hPa 0.000 mm
2021-03-03 03:37:00 9.2°C 48% 3.2 km/h 6.9 km/h 131° 1029.1 hPa 0.000 mm
2021-03-03 03:36:00 9.2°C 47% 2.6 km/h 5.8 km/h 137° 1029.1 hPa 0.000 mm
2021-03-03 03:35:00 9.1°C 48% 2.5 km/h 3.7 km/h 149° 1029.1 hPa 0.000 mm
2021-03-03 03:34:00 9.0°C 48% 2.5 km/h 3.2 km/h 123° 1029.2 hPa 0.000 mm
2021-03-03 03:33:00 8.8°C 48% 1.7 km/h 4.2 km/h 141° 1029.2 hPa 0.000 mm
2021-03-03 03:32:00 8.8°C 48% 4.3 km/h 9.5 km/h 149° 1029.2 hPa 0.000 mm
2021-03-03 03:31:00 8.9°C 48% 2.3 km/h 3.7 km/h 142° 1029.2 hPa 0.000 mm
2021-03-03 03:31:00 8.8°C 48% 1.6 km/h 2.6 km/h 119° 1029.2 hPa 0.000 mm
2021-03-03 03:30:00 8.9°C 48% 4.5 km/h 9.0 km/h 127° 1029.2 hPa 0.000 mm
2021-03-03 03:29:00 8.8°C 49% 3.2 km/h 5.3 km/h 138° 1029.2 hPa 0.000 mm
2021-03-03 03:28:00 8.8°C 48% 2.7 km/h 4.2 km/h 129° 1029.2 hPa 0.000 mm
2021-03-03 03:27:00 8.9°C 48% 1.1 km/h 2.1 km/h 131° 1029.2 hPa 0.000 mm
2021-03-03 03:26:00 9.0°C 48% 1.9 km/h 3.2 km/h 115° 1029.2 hPa 0.000 mm
2021-03-03 03:25:00 8.9°C 48% 2.7 km/h 5.8 km/h 119° 1029.2 hPa 0.000 mm
2021-03-03 03:24:00 8.9°C 49% 1.7 km/h 3.2 km/h 120° 1029.2 hPa 0.000 mm
2021-03-03 03:23:00 8.9°C 48% 2.4 km/h 3.7 km/h 128° 1029.2 hPa 0.000 mm
2021-03-03 03:22:00 8.9°C 48% 1.9 km/h 4.2 km/h 133° 1029.2 hPa 0.000 mm
2021-03-03 03:21:00 9.0°C 48% 4.1 km/h 5.8 km/h 107° 1029.2 hPa 0.000 mm
2021-03-03 03:20:00 8.8°C 49% 3.2 km/h 6.9 km/h 132° 1029.2 hPa 0.000 mm
2021-03-03 03:19:00 8.8°C 49% 3.0 km/h 4.2 km/h 144° 1029.2 hPa 0.000 mm
2021-03-03 03:18:00 8.6°C 49% 2.4 km/h 3.2 km/h 106° 1029.2 hPa 0.000 mm
2021-03-03 03:17:00 8.6°C 50% 2.8 km/h 4.2 km/h 150° 1029.2 hPa 0.000 mm
2021-03-03 03:16:00 8.4°C 50% 3.3 km/h 5.8 km/h 160° 1029.2 hPa 0.000 mm
2021-03-03 03:15:00 8.3°C 50% 1.7 km/h 4.2 km/h 124° 1029.2 hPa 0.000 mm
2021-03-03 03:14:00 8.4°C 50% 1.8 km/h 2.6 km/h 99° 1029.2 hPa 0.000 mm
2021-03-03 03:13:00 8.5°C 50% 1.5 km/h 2.1 km/h 89° 1029.2 hPa 0.000 mm
2021-03-03 03:12:00 8.6°C 50% 1.6 km/h 3.2 km/h 106° 1029.2 hPa 0.000 mm
2021-03-03 03:11:00 8.5°C 50% 2.5 km/h 3.2 km/h 100° 1029.2 hPa 0.000 mm
2021-03-03 03:10:00 8.3°C 51% 2.8 km/h 4.2 km/h 123° 1029.2 hPa 0.000 mm
2021-03-03 03:09:00 8.2°C 51% 3.5 km/h 4.2 km/h 102° 1029.2 hPa 0.000 mm
2021-03-03 03:08:00 8.2°C 51% 2.0 km/h 3.2 km/h 136° 1029.2 hPa 0.000 mm
2021-03-03 03:07:00 8.2°C 51% 2.3 km/h 3.7 km/h 127° 1029.2 hPa 0.000 mm
2021-03-03 03:06:00 7.9°C 52% 2.2 km/h 3.7 km/h 96° 1029.2 hPa 0.000 mm
2021-03-03 03:05:00 8.0°C 52% 3.0 km/h 3.7 km/h 123° 1029.2 hPa 0.000 mm
2021-03-03 03:04:00 8.0°C 51% 3.0 km/h 3.7 km/h 128° 1029.3 hPa 0.000 mm
2021-03-03 03:03:00 8.0°C 51% 2.2 km/h 3.2 km/h 117° 1029.2 hPa 0.000 mm
2021-03-03 03:02:00 8.0°C 51% 1.8 km/h 2.6 km/h 119° 1029.3 hPa 0.000 mm
2021-03-03 03:01:00 8.2°C 51% 1.7 km/h 2.6 km/h 111° 1029.3 hPa 0.000 mm
2021-03-03 03:00:00 8.3°C 50% 1.6 km/h 2.1 km/h 99° 1029.3 hPa 0.000 mm
2021-03-03 02:59:00 8.5°C 50% 2.0 km/h 2.6 km/h 86° 1029.3 hPa 0.000 mm
2021-03-03 02:58:00 8.7°C 49% 2.5 km/h 3.2 km/h 88° 1029.3 hPa 0.000 mm
2021-03-03 02:57:00 8.8°C 48% 1.6 km/h 2.1 km/h 88° 1029.3 hPa 0.000 mm
2021-03-03 02:56:00 8.5°C 50% 1.4 km/h 2.1 km/h 88° 1029.4 hPa 0.000 mm
2021-03-03 02:55:00 8.3°C 50% 1.6 km/h 2.6 km/h 62° 1029.4 hPa 0.000 mm
2021-03-03 02:54:00 8.2°C 50% 1.1 km/h 2.6 km/h 65° 1029.4 hPa 0.000 mm
2021-03-03 02:53:00 8.2°C 50% 1.7 km/h 3.2 km/h 108° 1029.4 hPa 0.000 mm
2021-03-03 02:52:00 8.3°C 50% 2.2 km/h 3.2 km/h 51° 1029.3 hPa 0.000 mm
2021-03-03 02:51:00 8.4°C 50% 2.2 km/h 3.7 km/h 63° 1029.3 hPa 0.000 mm
2021-03-03 02:50:00 8.4°C 49% 2.4 km/h 3.2 km/h 80° 1029.4 hPa 0.000 mm
2021-03-03 02:49:00 8.4°C 49% 2.8 km/h 4.2 km/h 65° 1029.4 hPa 0.000 mm
2021-03-03 02:48:00 8.5°C 49% 2.4 km/h 3.2 km/h 63° 1029.3 hPa 0.000 mm
2021-03-03 02:47:00 8.7°C 48% 2.5 km/h 3.2 km/h 54° 1029.4 hPa 0.000 mm
2021-03-03 02:46:00 9.0°C 48% 1.0 km/h 2.1 km/h 123° 1029.4 hPa 0.000 mm
2021-03-03 02:45:00 8.9°C 48% 2.2 km/h 4.8 km/h 127° 1029.4 hPa 0.000 mm
2021-03-03 02:44:00 8.8°C 48% 2.2 km/h 3.7 km/h 104° 1029.4 hPa 0.000 mm
2021-03-03 02:43:00 8.8°C 48% 1.1 km/h 3.2 km/h 182° 1029.4 hPa 0.000 mm
2021-03-03 02:42:00 9.0°C 47% 2.4 km/h 3.7 km/h 160° 1029.4 hPa 0.000 mm
2021-03-03 02:41:00 9.1°C 47% 1.1 km/h 3.7 km/h 111° 1029.4 hPa 0.000 mm
2021-03-03 02:40:00 9.2°C 47% 0.7 km/h 1.1 km/h 149° 1029.4 hPa 0.000 mm
2021-03-03 02:39:00 9.4°C 46% 1.3 km/h 2.6 km/h 156° 1029.4 hPa 0.000 mm
2021-03-03 02:38:00 9.5°C 46% 2.4 km/h 3.2 km/h 212° 1029.4 hPa 0.000 mm
2021-03-03 02:37:00 9.5°C 46% 3.0 km/h 4.2 km/h 195° 1029.4 hPa 0.000 mm
2021-03-03 02:36:00 9.6°C 45% 3.2 km/h 5.8 km/h 135° 1029.4 hPa 0.000 mm
2021-03-03 02:35:00 9.6°C 45% 2.9 km/h 4.8 km/h 132° 1029.4 hPa 0.000 mm
2021-03-03 02:34:00 9.6°C 45% 3.0 km/h 4.8 km/h 135° 1029.4 hPa 0.000 mm
2021-03-03 02:33:00 9.5°C 45% 2.4 km/h 3.7 km/h 156° 1029.4 hPa 0.000 mm
2021-03-03 02:32:00 9.6°C 45% 2.3 km/h 3.2 km/h 150° 1029.4 hPa 0.000 mm
2021-03-03 02:31:00 9.5°C 45% 1.7 km/h 2.1 km/h 151° 1029.4 hPa 0.000 mm
2021-03-03 02:30:00 9.6°C 45% 1.8 km/h 3.2 km/h 143° 1029.4 hPa 0.000 mm
2021-03-03 02:29:00 9.7°C 45% 4.0 km/h 5.3 km/h 135° 1029.5 hPa 0.000 mm
2021-03-03 02:28:00 9.7°C 45% 2.8 km/h 4.8 km/h 151° 1029.5 hPa 0.000 mm
2021-03-03 02:27:00 9.8°C 45% 3.3 km/h 5.3 km/h 160° 1029.5 hPa 0.000 mm
2021-03-03 02:26:00 9.8°C 45% 2.4 km/h 3.7 km/h 126° 1029.5 hPa 0.000 mm
2021-03-03 02:25:00 9.8°C 44% 4.3 km/h 5.8 km/h 187° 1029.5 hPa 0.000 mm
2021-03-03 02:24:00 9.8°C 45% 4.1 km/h 6.9 km/h 159° 1029.5 hPa 0.000 mm
2021-03-03 02:23:00 9.8°C 45% 3.0 km/h 5.3 km/h 151° 1029.5 hPa 0.000 mm
2021-03-03 02:22:00 9.9°C 44% 3.4 km/h 6.3 km/h 140° 1029.5 hPa 0.000 mm
2021-03-03 02:21:00 9.8°C 45% 3.9 km/h 6.3 km/h 138° 1029.4 hPa 0.000 mm
2021-03-03 02:20:00 9.8°C 45% 4.7 km/h 7.9 km/h 151° 1029.4 hPa 0.000 mm
2021-03-03 02:19:00 9.9°C 45% 5.0 km/h 7.9 km/h 150° 1029.4 hPa 0.000 mm
2021-03-03 02:18:00 9.8°C 45% 6.0 km/h 7.9 km/h 145° 1029.4 hPa 0.000 mm
2021-03-03 02:17:00 9.6°C 45% 4.3 km/h 7.9 km/h 128° 1029.5 hPa 0.000 mm
2021-03-03 02:16:00 9.5°C 46% 3.1 km/h 4.8 km/h 135° 1029.5 hPa 0.000 mm
2021-03-03 02:15:00 9.6°C 45% 4.2 km/h 6.3 km/h 153° 1029.5 hPa 0.000 mm
2021-03-03 02:14:00 9.6°C 45% 2.4 km/h 5.3 km/h 133° 1029.5 hPa 0.000 mm
2021-03-03 02:13:00 9.7°C 45% 4.1 km/h 6.9 km/h 159° 1029.5 hPa 0.000 mm
2021-03-03 02:12:00 9.6°C 45% 3.6 km/h 6.3 km/h 125° 1029.5 hPa 0.000 mm
2021-03-03 02:11:00 9.6°C 46% 2.4 km/h 4.8 km/h 138° 1029.5 hPa 0.000 mm
2021-03-03 02:10:00 9.6°C 45% 3.3 km/h 5.8 km/h 158° 1029.5 hPa 0.000 mm
2021-03-03 02:09:00 9.5°C 46% 4.3 km/h 5.8 km/h 146° 1029.5 hPa 0.000 mm
2021-03-03 02:08:00 9.5°C 46% 2.9 km/h 4.8 km/h 161° 1029.5 hPa 0.000 mm
2021-03-03 02:07:00 9.6°C 46% 4.3 km/h 9.0 km/h 169° 1029.4 hPa 0.000 mm
2021-03-03 02:06:00 9.5°C 46% 4.3 km/h 6.9 km/h 138° 1029.5 hPa 0.000 mm
2021-03-03 02:05:00 9.6°C 46% 1.8 km/h 3.7 km/h 122° 1029.5 hPa 0.000 mm
2021-03-03 02:04:00 9.7°C 45% 2.8 km/h 5.3 km/h 146° 1029.5 hPa 0.000 mm
2021-03-03 02:03:00 9.7°C 46% 3.7 km/h 4.8 km/h 169° 1029.5 hPa 0.000 mm
2021-03-03 02:02:00 9.6°C 46% 3.0 km/h 4.2 km/h 129° 1029.5 hPa 0.000 mm
2021-03-03 02:01:00 9.6°C 46% 4.4 km/h 6.3 km/h 132° 1029.5 hPa 0.000 mm
2021-03-03 02:00:00 9.2°C 47% 5.6 km/h 9.0 km/h 162° 1029.5 hPa 0.000 mm
2021-03-03 01:59:00 9.0°C 47% 3.3 km/h 5.3 km/h 180° 1029.5 hPa 0.000 mm
2021-03-03 01:58:00 8.9°C 48% 2.1 km/h 4.8 km/h 135° 1029.5 hPa 0.000 mm
2021-03-03 01:57:00 9.2°C 47% 2.2 km/h 2.6 km/h 66° 1029.4 hPa 0.000 mm
2021-03-03 01:56:00 9.4°C 46% 2.1 km/h 3.7 km/h 53° 1029.4 hPa 0.000 mm
2021-03-03 01:55:00 9.5°C 46% 1.3 km/h 2.1 km/h 70° 1029.4 hPa 0.000 mm
2021-03-03 01:54:00 9.7°C 45% 1.0 km/h 2.6 km/h 173° 1029.4 hPa 0.000 mm
2021-03-03 01:53:00 9.6°C 46% 2.5 km/h 3.7 km/h 147° 1029.5 hPa 0.000 mm
2021-03-03 01:52:00 9.6°C 46% 1.5 km/h 3.2 km/h 149° 1029.5 hPa 0.000 mm
2021-03-03 01:51:00 9.7°C 45% 2.7 km/h 4.8 km/h 140° 1029.5 hPa 0.000 mm
2021-03-03 01:50:00 9.6°C 46% 4.2 km/h 6.9 km/h 133° 1029.4 hPa 0.000 mm
2021-03-03 01:49:00 9.3°C 46% 5.8 km/h 8.4 km/h 172° 1029.5 hPa 0.000 mm
2021-03-03 01:48:00 9.2°C 47% 5.9 km/h 9.5 km/h 125° 1029.5 hPa 0.000 mm
2021-03-03 01:47:00 9.1°C 47% 1.6 km/h 2.6 km/h 136° 1029.4 hPa 0.000 mm
2021-03-03 01:46:00 9.2°C 47% 1.5 km/h 2.6 km/h 97° 1029.4 hPa 0.000 mm
2021-03-03 01:45:00 9.3°C 47% 2.4 km/h 5.3 km/h 96° 1029.4 hPa 0.000 mm
2021-03-03 01:44:00 9.3°C 47% 3.0 km/h 6.9 km/h 95° 1029.4 hPa 0.000 mm
2021-03-03 01:43:00 9.2°C 47% 3.9 km/h 7.4 km/h 120° 1029.4 hPa 0.000 mm
2021-03-03 01:42:00 9.1°C 47% 7.6 km/h 11.6 km/h 168° 1029.5 hPa 0.000 mm
2021-03-03 01:41:00 8.8°C 48% 3.2 km/h 6.9 km/h 101° 1029.5 hPa 0.000 mm
2021-03-03 01:40:00 8.9°C 48% 1.1 km/h 2.6 km/h 48° 1029.5 hPa 0.000 mm
2021-03-03 01:39:00 8.9°C 48% 0.3 km/h 2.1 km/h 150° 1029.5 hPa 0.000 mm
2021-03-03 01:38:00 9.0°C 48% 1.4 km/h 3.2 km/h 218° 1029.5 hPa 0.000 mm
2021-03-03 01:37:00 9.3°C 47% 3.2 km/h 5.3 km/h 108° 1029.5 hPa 0.000 mm
2021-03-03 01:36:00 9.6°C 46% 1.6 km/h 3.2 km/h 56° 1029.4 hPa 0.000 mm
2021-03-03 01:35:00 9.3°C 47% 0.7 km/h 1.6 km/h 208° 1029.4 hPa 0.000 mm
2021-03-03 01:34:00 9.3°C 47% 1.2 km/h 2.1 km/h 212° 1029.4 hPa 0.000 mm
2021-03-03 01:33:00 9.3°C 47% 1.1 km/h 2.1 km/h 178° 1029.4 hPa 0.000 mm
2021-03-03 01:32:00 9.2°C 47% 1.2 km/h 2.1 km/h 117° 1029.4 hPa 0.000 mm
2021-03-03 01:31:00 9.3°C 46% 1.8 km/h 2.6 km/h 155° 1029.4 hPa 0.000 mm
2021-03-03 01:30:00 9.2°C 47% 3.3 km/h 4.8 km/h 142° 1029.3 hPa 0.000 mm
2021-03-03 01:29:00 9.2°C 47% 4.9 km/h 6.3 km/h 92° 1029.3 hPa 0.000 mm
2021-03-03 01:28:00 9.2°C 47% 4.6 km/h 7.4 km/h 104° 1029.3 hPa 0.000 mm
2021-03-03 01:27:00 9.3°C 47% 1.7 km/h 3.2 km/h 124° 1029.3 hPa 0.000 mm
2021-03-03 01:26:00 9.3°C 46% 4.3 km/h 8.4 km/h 160° 1029.3 hPa 0.000 mm
2021-03-03 01:25:00 9.4°C 46% 1.5 km/h 4.2 km/h 137° 1029.3 hPa 0.000 mm
2021-03-03 01:24:00 9.3°C 46% 2.5 km/h 4.2 km/h 99° 1029.3 hPa 0.000 mm
2021-03-03 01:23:00 9.3°C 46% 0.9 km/h 2.1 km/h 132° 1029.3 hPa 0.000 mm
2021-03-03 01:22:00 9.3°C 46% 1.7 km/h 2.6 km/h 114° 1029.4 hPa 0.000 mm
2021-03-03 01:21:00 9.2°C 46% 1.2 km/h 2.1 km/h 134° 1029.4 hPa 0.000 mm
2021-03-03 01:20:00 9.3°C 46% 1.3 km/h 2.1 km/h 160° 1029.4 hPa 0.000 mm
2021-03-03 01:19:00 9.3°C 46% 0.8 km/h 1.6 km/h 142° 1029.4 hPa 0.000 mm
2021-03-03 01:18:00 9.3°C 46% 1.2 km/h 2.6 km/h 126° 1029.4 hPa 0.000 mm
2021-03-03 01:17:00 9.4°C 46% 0.8 km/h 1.6 km/h 144° 1029.4 hPa 0.000 mm
2021-03-03 01:16:00 9.4°C 46% 1.7 km/h 2.6 km/h 102° 1029.3 hPa 0.000 mm
2021-03-03 01:15:00 9.5°C 46% 1.4 km/h 2.6 km/h 104° 1029.3 hPa 0.000 mm
2021-03-03 01:14:00 9.5°C 46% 0.5 km/h 2.1 km/h 160° 1029.4 hPa 0.000 mm
2021-03-03 01:13:00 9.6°C 46% 2.1 km/h 2.6 km/h 118° 1029.3 hPa 0.000 mm
2021-03-03 01:12:00 9.6°C 46% 2.3 km/h 3.7 km/h 113° 1029.3 hPa 0.000 mm
2021-03-03 01:11:00 9.6°C 46% 2.5 km/h 3.7 km/h 122° 1029.4 hPa 0.000 mm
2021-03-03 01:10:00 9.6°C 46% 2.9 km/h 5.3 km/h 117° 1029.3 hPa 0.000 mm
2021-03-03 01:09:00 9.7°C 45% 2.5 km/h 3.2 km/h 116° 1029.3 hPa 0.000 mm
2021-03-03 01:08:00 9.7°C 45% 2.6 km/h 4.2 km/h 115° 1029.3 hPa 0.000 mm
2021-03-03 01:07:00 9.8°C 45% 3.0 km/h 4.2 km/h 128° 1029.3 hPa 0.000 mm
2021-03-03 01:06:00 9.8°C 45% 2.9 km/h 4.8 km/h 123° 1029.4 hPa 0.000 mm
2021-03-03 01:05:00 9.8°C 45% 4.0 km/h 8.4 km/h 101° 1029.3 hPa 0.000 mm
2021-03-03 01:04:00 9.7°C 45% 2.4 km/h 5.3 km/h 131° 1029.3 hPa 0.000 mm
2021-03-03 01:03:00 9.7°C 45% 3.4 km/h 7.4 km/h 136° 1029.3 hPa 0.000 mm
2021-03-03 01:02:00 9.8°C 45% 3.5 km/h 6.9 km/h 132° 1029.3 hPa 0.000 mm
2021-03-03 01:01:00 9.8°C 45% 2.1 km/h 3.7 km/h 124° 1029.3 hPa 0.000 mm
2021-03-03 01:00:00 9.8°C 45% 2.7 km/h 4.2 km/h 150° 1029.3 hPa 0.000 mm
2021-03-03 00:59:00 9.8°C 45% 2.9 km/h 5.3 km/h 119° 1029.3 hPa 0.000 mm
2021-03-03 00:58:00 9.8°C 45% 4.2 km/h 6.9 km/h 122° 1029.3 hPa 0.000 mm
2021-03-03 00:57:00 9.8°C 45% 2.3 km/h 3.7 km/h 136° 1029.3 hPa 0.000 mm
2021-03-03 00:56:00 9.9°C 45% 4.4 km/h 7.9 km/h 159° 1029.3 hPa 0.000 mm
2021-03-03 00:55:00 9.9°C 45% 5.8 km/h 12.1 km/h 102° 1029.3 hPa 0.000 mm
2021-03-03 00:54:00 9.8°C 45% 7.5 km/h 12.7 km/h 97° 1029.3 hPa 0.000 mm
2021-03-03 00:53:00 9.7°C 45% 4.0 km/h 8.4 km/h 146° 1029.3 hPa 0.000 mm
2021-03-03 00:52:00 9.7°C 45% 2.4 km/h 3.7 km/h 109° 1029.3 hPa 0.000 mm
2021-03-03 00:51:00 9.8°C 45% 5.4 km/h 10.0 km/h 141° 1029.3 hPa 0.000 mm
2021-03-03 00:50:00 9.7°C 45% 4.3 km/h 6.3 km/h 106° 1029.3 hPa 0.000 mm
2021-03-03 00:49:00 9.7°C 45% 3.5 km/h 6.9 km/h 120° 1029.3 hPa 0.000 mm
2021-03-03 00:48:00 9.8°C 45% 4.1 km/h 6.9 km/h 124° 1029.3 hPa 0.000 mm
2021-03-03 00:47:00 9.9°C 44% 5.4 km/h 8.4 km/h 124° 1029.3 hPa 0.000 mm
2021-03-03 00:46:00 10.0°C 44% 8.1 km/h 10.6 km/h 127° 1029.3 hPa 0.000 mm
2021-03-03 00:45:00 10.0°C 44% 6.1 km/h 9.5 km/h 151° 1029.3 hPa 0.000 mm
2021-03-03 00:44:00 10.0°C 44% 3.5 km/h 5.8 km/h 153° 1029.3 hPa 0.000 mm
2021-03-03 00:43:00 10.0°C 44% 4.2 km/h 7.4 km/h 160° 1029.3 hPa 0.000 mm
2021-03-03 00:42:00 10.0°C 44% 3.7 km/h 5.8 km/h 132° 1029.3 hPa 0.000 mm
2021-03-03 00:41:00 10.0°C 44% 4.4 km/h 6.3 km/h 140° 1029.3 hPa 0.000 mm
2021-03-03 00:40:00 10.0°C 44% 3.5 km/h 5.3 km/h 134° 1029.4 hPa 0.000 mm
2021-03-03 00:39:00 10.0°C 44% 4.8 km/h 6.3 km/h 161° 1029.4 hPa 0.000 mm
2021-03-03 00:38:00 10.0°C 44% 3.5 km/h 5.8 km/h 141° 1029.4 hPa 0.000 mm
2021-03-03 00:37:00 9.9°C 44% 2.3 km/h 3.7 km/h 135° 1029.4 hPa 0.000 mm
2021-03-03 00:36:00 9.9°C 44% 3.8 km/h 5.8 km/h 165° 1029.3 hPa 0.000 mm
2021-03-03 00:35:00 10.0°C 44% 3.9 km/h 5.3 km/h 99° 1029.3 hPa 0.000 mm
2021-03-03 00:34:00 10.1°C 44% 5.1 km/h 9.0 km/h 149° 1029.3 hPa 0.000 mm
2021-03-03 00:33:00 10.1°C 44% 5.1 km/h 10.6 km/h 125° 1029.3 hPa 0.000 mm
2021-03-03 00:32:00 10.1°C 44% 4.4 km/h 9.0 km/h 154° 1029.3 hPa 0.000 mm
2021-03-03 00:31:00 10.1°C 44% 6.0 km/h 9.5 km/h 165° 1029.3 hPa 0.000 mm
2021-03-03 00:30:00 10.1°C 44% 4.4 km/h 6.3 km/h 101° 1029.3 hPa 0.000 mm
2021-03-03 00:29:00 10.1°C 44% 4.9 km/h 7.4 km/h 115° 1029.3 hPa 0.000 mm
2021-03-03 00:28:00 10.2°C 44% 5.3 km/h 7.4 km/h 137° 1029.3 hPa 0.000 mm
2021-03-03 00:27:00 10.2°C 44% 4.8 km/h 7.4 km/h 129° 1029.3 hPa 0.000 mm
2021-03-03 00:26:00 10.2°C 44% 5.6 km/h 8.4 km/h 133° 1029.3 hPa 0.000 mm
2021-03-03 00:25:00 10.1°C 44% 4.2 km/h 6.3 km/h 132° 1029.3 hPa 0.000 mm
2021-03-03 00:24:00 10.0°C 44% 4.8 km/h 9.0 km/h 133° 1029.3 hPa 0.000 mm
2021-03-03 00:23:00 10.0°C 44% 3.8 km/h 5.8 km/h 140° 1029.3 hPa 0.000 mm
2021-03-03 00:22:00 10.0°C 44% 3.6 km/h 5.8 km/h 93° 1029.3 hPa 0.000 mm
2021-03-03 00:21:00 10.1°C 44% 5.8 km/h 7.9 km/h 154° 1029.3 hPa 0.000 mm
2021-03-03 00:20:00 10.1°C 44% 6.2 km/h 9.5 km/h 120° 1029.3 hPa 0.000 mm
2021-03-03 00:19:00 10.2°C 44% 7.0 km/h 10.0 km/h 135° 1029.3 hPa 0.000 mm
2021-03-03 00:18:00 10.3°C 43% 12.2 km/h 20.1 km/h 182° 1029.3 hPa 0.000 mm
2021-03-03 00:17:00 10.3°C 43% 9.6 km/h 17.4 km/h 164° 1029.4 hPa 0.000 mm
2021-03-03 00:16:00 10.3°C 43% 6.0 km/h 10.0 km/h 143° 1029.4 hPa 0.000 mm
2021-03-03 00:15:00 10.3°C 43% 10.0 km/h 21.6 km/h 143° 1029.4 hPa 0.000 mm
2021-03-03 00:14:00 10.3°C 43% 6.0 km/h 7.9 km/h 138° 1029.4 hPa 0.000 mm
2021-03-03 00:13:00 10.3°C 44% 6.0 km/h 9.0 km/h 155° 1029.4 hPa 0.000 mm
2021-03-03 00:12:00 10.3°C 43% 5.7 km/h 7.4 km/h 164° 1029.4 hPa 0.000 mm
2021-03-03 00:11:00 10.3°C 43% 5.5 km/h 8.4 km/h 142° 1029.4 hPa 0.000 mm
2021-03-03 00:10:00 10.3°C 43% 5.8 km/h 6.9 km/h 123° 1029.4 hPa 0.000 mm
2021-03-03 00:09:00 10.4°C 43% 6.3 km/h 9.5 km/h 174° 1029.4 hPa 0.000 mm
2021-03-03 00:08:00 10.4°C 43% 10.4 km/h 14.2 km/h 198° 1029.4 hPa 0.000 mm
2021-03-03 00:07:00 10.3°C 43% 7.6 km/h 10.0 km/h 135° 1029.4 hPa 0.000 mm
2021-03-03 00:06:00 10.4°C 43% 9.2 km/h 11.6 km/h 167° 1029.4 hPa 0.000 mm
2021-03-03 00:05:00 10.3°C 44% 8.9 km/h 13.7 km/h 176° 1029.4 hPa 0.000 mm
2021-03-03 00:04:00 10.4°C 43% 8.1 km/h 11.1 km/h 177° 1029.4 hPa 0.000 mm
2021-03-03 00:03:00 10.4°C 43% 9.1 km/h 11.1 km/h 170° 1029.4 hPa 0.000 mm
2021-03-03 00:02:00 10.3°C 44% 8.7 km/h 13.7 km/h 145° 1029.4 hPa 0.000 mm
2021-03-03 00:01:00 10.3°C 43% 6.4 km/h 8.4 km/h 173° 1029.3 hPa 0.000 mm
2021-03-03 00:00:00 10.2°C 43% 6.4 km/h 10.6 km/h 181° 1029.4 hPa 0.000 mm
2021-03-02 23:59:00 10.1°C 44% 5.5 km/h 8.4 km/h 134° 1029.3 hPa 0.000 mm
2021-03-02 23:58:00 10.1°C 44% 3.2 km/h 4.8 km/h 159° 1029.3 hPa 0.000 mm
2021-03-02 23:57:00 10.1°C 44% 3.7 km/h 5.8 km/h 154° 1029.3 hPa 0.000 mm
2021-03-02 23:56:00 10.1°C 44% 4.5 km/h 6.9 km/h 149° 1029.3 hPa 0.000 mm
2021-03-02 23:55:00 10.2°C 44% 4.5 km/h 6.9 km/h 135° 1029.3 hPa 0.000 mm
2021-03-02 23:54:00 10.2°C 43% 6.5 km/h 12.1 km/h 153° 1029.3 hPa 0.000 mm
2021-03-02 23:53:00 10.3°C 43% 4.1 km/h 6.3 km/h 135° 1029.3 hPa 0.000 mm
2021-03-02 23:52:00 10.3°C 43% 6.2 km/h 9.0 km/h 144° 1029.3 hPa 0.000 mm
2021-03-02 23:51:00 10.3°C 43% 6.4 km/h 11.1 km/h 111° 1029.3 hPa 0.000 mm
2021-03-02 23:50:00 10.3°C 43% 6.7 km/h 11.6 km/h 145° 1029.3 hPa 0.000 mm
2021-03-02 23:49:00 10.3°C 43% 4.5 km/h 7.9 km/h 135° 1029.3 hPa 0.000 mm
2021-03-02 23:48:00 10.3°C 43% 8.4 km/h 12.7 km/h 160° 1029.4 hPa 0.000 mm
2021-03-02 23:47:00 10.3°C 43% 6.2 km/h 10.6 km/h 151° 1029.3 hPa 0.000 mm
2021-03-02 23:46:00 10.3°C 43% 5.8 km/h 9.0 km/h 131° 1029.3 hPa 0.000 mm
2021-03-02 23:45:00 10.2°C 43% 5.0 km/h 8.4 km/h 151° 1029.3 hPa 0.000 mm
2021-03-02 23:44:00 10.4°C 43% 6.8 km/h 10.0 km/h 173° 1029.3 hPa 0.000 mm
2021-03-02 23:43:00 10.3°C 43% 9.8 km/h 14.2 km/h 188° 1029.4 hPa 0.000 mm
2021-03-02 23:42:00 10.3°C 43% 8.0 km/h 16.9 km/h 156° 1029.4 hPa 0.000 mm
2021-03-02 23:41:00 10.2°C 43% 15.0 km/h 19.0 km/h 160° 1029.3 hPa 0.000 mm
2021-03-02 23:40:00 10.2°C 43% 8.8 km/h 11.1 km/h 159° 1029.3 hPa 0.000 mm
2021-03-02 23:39:00 10.2°C 43% 11.6 km/h 19.0 km/h 161° 1029.3 hPa 0.000 mm
2021-03-02 23:38:00 10.3°C 43% 13.2 km/h 20.6 km/h 154° 1029.3 hPa 0.000 mm
2021-03-02 23:37:00 10.3°C 43% 11.4 km/h 18.5 km/h 164° 1029.3 hPa 0.000 mm
2021-03-02 23:36:00 10.4°C 43% 10.1 km/h 15.8 km/h 153° 1029.3 hPa 0.000 mm
2021-03-02 23:35:00 10.4°C 43% 12.8 km/h 19.0 km/h 142° 1029.3 hPa 0.000 mm
2021-03-02 23:34:00 10.4°C 43% 9.9 km/h 12.7 km/h 181° 1029.3 hPa 0.000 mm
2021-03-02 23:33:00 10.3°C 43% 6.8 km/h 9.5 km/h 138° 1029.3 hPa 0.000 mm
2021-03-02 23:32:00 10.3°C 43% 9.2 km/h 12.1 km/h 142° 1029.3 hPa 0.000 mm
2021-03-02 23:31:00 10.3°C 43% 6.4 km/h 12.7 km/h 169° 1029.3 hPa 0.000 mm
2021-03-02 23:30:00 10.3°C 43% 6.4 km/h 7.9 km/h 173° 1029.3 hPa 0.000 mm
2021-03-02 23:29:00 10.3°C 43% 9.4 km/h 17.9 km/h 124° 1029.3 hPa 0.000 mm
2021-03-02 23:28:00 10.3°C 43% 8.3 km/h 12.7 km/h 168° 1029.3 hPa 0.000 mm
2021-03-02 23:27:00 10.4°C 43% 6.4 km/h 9.5 km/h 135° 1029.3 hPa 0.000 mm
2021-03-02 23:26:00 10.4°C 43% 8.0 km/h 10.6 km/h 159° 1029.3 hPa 0.000 mm
2021-03-02 23:25:00 10.4°C 43% 7.2 km/h 10.6 km/h 128° 1029.3 hPa 0.000 mm
2021-03-02 23:24:00 10.3°C 43% 5.7 km/h 7.9 km/h 136° 1029.3 hPa 0.000 mm
2021-03-02 23:23:00 10.3°C 43% 5.9 km/h 7.4 km/h 136° 1029.4 hPa 0.000 mm
2021-03-02 23:22:00 10.3°C 43% 7.2 km/h 10.0 km/h 168° 1029.3 hPa 0.000 mm
2021-03-02 23:21:00 10.3°C 43% 8.4 km/h 11.1 km/h 129° 1029.4 hPa 0.000 mm
2021-03-02 23:20:00 10.5°C 43% 6.9 km/h 9.0 km/h 154° 1029.4 hPa 0.000 mm
2021-03-02 23:19:00 10.5°C 42% 6.5 km/h 9.5 km/h 131° 1029.4 hPa 0.000 mm
2021-03-02 23:18:00 10.7°C 42% 7.2 km/h 10.0 km/h 169° 1029.4 hPa 0.000 mm
2021-03-02 23:17:00 10.6°C 42% 8.7 km/h 12.1 km/h 145° 1029.4 hPa 0.000 mm
2021-03-02 23:16:00 10.5°C 42% 6.4 km/h 12.1 km/h 158° 1029.3 hPa 0.000 mm
2021-03-02 23:15:00 10.5°C 42% 5.9 km/h 7.4 km/h 158° 1029.3 hPa 0.000 mm
2021-03-02 23:14:00 10.5°C 42% 5.1 km/h 9.0 km/h 145° 1029.4 hPa 0.000 mm
2021-03-02 23:13:00 10.5°C 42% 5.6 km/h 8.4 km/h 189° 1029.4 hPa 0.000 mm
2021-03-02 23:12:00 10.6°C 42% 6.9 km/h 9.5 km/h 152° 1029.4 hPa 0.000 mm
2021-03-02 23:11:00 10.5°C 42% 4.7 km/h 6.3 km/h 133° 1029.3 hPa 0.000 mm
2021-03-02 23:10:00 10.5°C 42% 4.9 km/h 6.3 km/h 154° 1029.3 hPa 0.000 mm
2021-03-02 23:09:00 10.6°C 42% 6.3 km/h 8.4 km/h 162° 1029.3 hPa 0.000 mm
2021-03-02 23:08:00 10.5°C 42% 7.9 km/h 9.5 km/h 163° 1029.3 hPa 0.000 mm
2021-03-02 23:07:00 10.5°C 43% 5.9 km/h 9.0 km/h 125° 1029.3 hPa 0.000 mm
2021-03-02 23:06:00 10.6°C 42% 4.2 km/h 5.3 km/h 168° 1029.3 hPa 0.000 mm
2021-03-02 23:05:00 10.6°C 42% 5.5 km/h 10.0 km/h 135° 1029.3 hPa 0.000 mm
2021-03-02 23:04:00 10.6°C 42% 5.1 km/h 7.9 km/h 136° 1029.3 hPa 0.000 mm
2021-03-02 23:03:00 10.7°C 42% 5.2 km/h 6.9 km/h 172° 1029.3 hPa 0.000 mm
2021-03-02 23:02:00 10.8°C 42% 5.6 km/h 6.9 km/h 173° 1029.3 hPa 0.000 mm
2021-03-02 23:01:00 10.7°C 42% 8.2 km/h 12.1 km/h 167° 1029.3 hPa 0.000 mm
2021-03-02 23:00:00 10.5°C 43% 7.6 km/h 11.1 km/h 149° 1029.3 hPa 0.000 mm
2021-03-02 22:59:00 10.6°C 42% 7.0 km/h 11.1 km/h 201° 1029.3 hPa 0.000 mm
2021-03-02 22:58:00 10.7°C 42% 6.8 km/h 8.4 km/h 147° 1029.2 hPa 0.000 mm
2021-03-02 22:57:00 10.7°C 42% 6.8 km/h 9.0 km/h 183° 1029.2 hPa 0.000 mm
2021-03-02 22:56:00 10.7°C 42% 7.3 km/h 9.5 km/h 192° 1029.2 hPa 0.000 mm
2021-03-02 22:55:00 10.7°C 42% 7.1 km/h 9.0 km/h 151° 1029.3 hPa 0.000 mm
2021-03-02 22:54:00 10.7°C 42% 7.4 km/h 9.5 km/h 186° 1029.2 hPa 0.000 mm
2021-03-02 22:53:00 10.8°C 42% 6.6 km/h 7.9 km/h 163° 1029.2 hPa 0.000 mm
2021-03-02 22:52:00 10.7°C 42% 10.7 km/h 14.8 km/h 183° 1029.1 hPa 0.000 mm
2021-03-02 22:51:00 10.7°C 42% 8.1 km/h 10.0 km/h 144° 1029.1 hPa 0.000 mm
2021-03-02 22:50:00 10.7°C 42% 9.2 km/h 11.1 km/h 172° 1029.1 hPa 0.000 mm
2021-03-02 22:49:00 10.7°C 42% 6.2 km/h 9.0 km/h 122° 1029.1 hPa 0.000 mm
2021-03-02 22:48:00 10.8°C 42% 9.1 km/h 11.6 km/h 179° 1029.1 hPa 0.000 mm
2021-03-02 22:47:00 10.8°C 42% 9.2 km/h 12.1 km/h 160° 1029.1 hPa 0.000 mm
2021-03-02 22:46:00 10.8°C 42% 8.3 km/h 11.6 km/h 145° 1029.2 hPa 0.000 mm
2021-03-02 22:45:00 10.8°C 42% 10.5 km/h 14.8 km/h 170° 1029.1 hPa 0.000 mm
2021-03-02 22:44:00 10.8°C 42% 7.7 km/h 12.1 km/h 156° 1029.2 hPa 0.000 mm
2021-03-02 22:43:00 10.8°C 42% 8.2 km/h 10.6 km/h 180° 1029.2 hPa 0.000 mm
2021-03-02 22:42:00 10.9°C 42% 9.9 km/h 13.2 km/h 168° 1029.2 hPa 0.000 mm
2021-03-02 22:41:00 10.8°C 42% 11.7 km/h 15.8 km/h 186° 1029.2 hPa 0.000 mm
2021-03-02 22:40:00 10.8°C 42% 10.5 km/h 13.2 km/h 133° 1029.2 hPa 0.000 mm
2021-03-02 22:39:00 10.8°C 42% 11.4 km/h 14.2 km/h 168° 1029.1 hPa 0.000 mm
2021-03-02 22:38:00 10.8°C 42% 10.8 km/h 15.3 km/h 170° 1029.1 hPa 0.000 mm
2021-03-02 22:37:00 10.8°C 42% 8.6 km/h 11.1 km/h 146° 1029.1 hPa 0.000 mm
2021-03-02 22:36:00 10.9°C 42% 11.6 km/h 16.4 km/h 176° 1029.1 hPa 0.000 mm
2021-03-02 22:35:00 10.9°C 42% 10.6 km/h 13.2 km/h 180° 1029.1 hPa 0.000 mm
2021-03-02 22:34:00 10.9°C 42% 11.9 km/h 16.4 km/h 172° 1029.1 hPa 0.000 mm
2021-03-02 22:33:00 10.9°C 41% 12.6 km/h 14.2 km/h 163° 1029.1 hPa 0.000 mm
2021-03-02 22:32:00 10.9°C 42% 12.9 km/h 18.5 km/h 141° 1029.1 hPa 0.000 mm
2021-03-02 22:31:00 10.9°C 42% 12.3 km/h 15.8 km/h 186° 1029.0 hPa 0.000 mm
2021-03-02 22:30:00 10.9°C 42% 11.9 km/h 14.8 km/h 159° 1029.1 hPa 0.000 mm
2021-03-02 22:29:00 10.8°C 42% 12.6 km/h 17.9 km/h 134° 1029.1 hPa 0.000 mm
2021-03-02 22:28:00 10.8°C 42% 11.5 km/h 13.7 km/h 177° 1029.1 hPa 0.000 mm
2021-03-02 22:27:00 10.8°C 42% 10.8 km/h 12.7 km/h 150° 1029.1 hPa 0.000 mm
2021-03-02 22:26:00 10.8°C 42% 11.9 km/h 15.3 km/h 172° 1029.1 hPa 0.000 mm
2021-03-02 22:25:00 10.7°C 42% 12.8 km/h 16.9 km/h 176° 1029.1 hPa 0.000 mm
2021-03-02 22:24:00 10.8°C 42% 10.2 km/h 13.2 km/h 150° 1029.1 hPa 0.000 mm
2021-03-02 22:23:00 10.8°C 42% 10.6 km/h 14.2 km/h 134° 1029.1 hPa 0.000 mm
2021-03-02 22:22:00 10.8°C 42% 12.1 km/h 16.9 km/h 180° 1029.1 hPa 0.000 mm
2021-03-02 22:21:00 10.8°C 42% 10.9 km/h 15.8 km/h 178° 1029.2 hPa 0.000 mm
2021-03-02 22:20:00 10.8°C 42% 13.0 km/h 17.4 km/h 173° 1029.1 hPa 0.000 mm
2021-03-02 22:19:00 10.6°C 43% 12.2 km/h 15.8 km/h 172° 1029.1 hPa 0.000 mm
2021-03-02 22:18:00 10.6°C 43% 11.5 km/h 16.4 km/h 155° 1029.1 hPa 0.000 mm
2021-03-02 22:17:00 10.7°C 43% 9.8 km/h 14.8 km/h 128° 1029.1 hPa 0.000 mm
2021-03-02 22:16:00 10.7°C 43% 11.0 km/h 13.2 km/h 196° 1029.1 hPa 0.000 mm
2021-03-02 22:15:00 10.7°C 43% 11.8 km/h 16.4 km/h 189° 1029.1 hPa 0.000 mm
2021-03-02 22:14:00 10.6°C 43% 8.7 km/h 12.1 km/h 186° 1029.1 hPa 0.000 mm
2021-03-02 22:13:00 10.6°C 43% 10.7 km/h 15.3 km/h 173° 1029.0 hPa 0.000 mm
2021-03-02 22:12:00 10.6°C 43% 11.2 km/h 14.8 km/h 200° 1029.1 hPa 0.000 mm
2021-03-02 22:11:00 10.6°C 43% 10.9 km/h 16.4 km/h 158° 1029.2 hPa 0.000 mm
2021-03-02 22:10:00 10.5°C 43% 9.3 km/h 12.7 km/h 154° 1029.3 hPa 0.000 mm
2021-03-02 22:09:00 10.5°C 43% 9.6 km/h 13.7 km/h 163° 1029.4 hPa 0.000 mm
2021-03-02 22:08:00 10.5°C 43% 7.7 km/h 12.7 km/h 128° 1029.4 hPa 0.000 mm
2021-03-02 22:07:00 10.5°C 43% 8.4 km/h 15.3 km/h 149° 1029.3 hPa 0.000 mm
2021-03-02 22:06:00 10.5°C 43% 9.4 km/h 15.3 km/h 124° 1029.3 hPa 0.000 mm
2021-03-02 22:05:00 10.6°C 43% 11.3 km/h 14.8 km/h 168° 1029.2 hPa 0.000 mm
2021-03-02 22:04:00 10.6°C 43% 9.4 km/h 14.8 km/h 142° 1029.1 hPa 0.000 mm
2021-03-02 22:03:00 10.6°C 43% 10.4 km/h 14.2 km/h 185° 1029.2 hPa 0.000 mm
2021-03-02 22:02:00 10.6°C 43% 12.1 km/h 21.1 km/h 128° 1029.2 hPa 0.000 mm
2021-03-02 22:01:00 10.6°C 43% 10.2 km/h 12.7 km/h 163° 1029.2 hPa 0.000 mm
2021-03-02 22:00:00 10.5°C 43% 11.0 km/h 19.0 km/h 165° 1029.3 hPa 0.000 mm
2021-03-02 21:59:00 10.5°C 43% 11.7 km/h 16.4 km/h 200° 1029.2 hPa 0.000 mm
2021-03-02 21:58:00 10.6°C 43% 11.4 km/h 15.8 km/h 176° 1029.2 hPa 0.000 mm
2021-03-02 21:57:00 10.5°C 43% 8.2 km/h 12.1 km/h 180° 1029.2 hPa 0.000 mm
2021-03-02 21:56:00 10.5°C 44% 9.9 km/h 16.4 km/h 162° 1029.1 hPa 0.000 mm
2021-03-02 21:55:00 10.4°C 44% 8.5 km/h 13.7 km/h 159° 1029.1 hPa 0.000 mm
2021-03-02 21:54:00 10.5°C 44% 8.4 km/h 10.6 km/h 123° 1029.1 hPa 0.000 mm
2021-03-02 21:53:00 10.4°C 44% 9.6 km/h 13.7 km/h 171° 1029.1 hPa 0.000 mm
2021-03-02 21:52:00 10.2°C 44% 8.3 km/h 14.2 km/h 173° 1029.1 hPa 0.000 mm
2021-03-02 21:51:00 10.3°C 44% 8.3 km/h 10.6 km/h 171° 1029.1 hPa 0.135 mm
2021-03-02 21:50:00 10.3°C 44% 7.8 km/h 9.5 km/h 110° 1029.1 hPa 0.000 mm
2021-03-02 21:49:00 10.2°C 44% 9.5 km/h 14.2 km/h 170° 1029.0 hPa 0.000 mm
2021-03-02 21:48:00 10.2°C 45% 8.6 km/h 12.1 km/h 133° 1029.1 hPa 0.000 mm
2021-03-02 21:47:00 10.2°C 45% 8.5 km/h 12.1 km/h 170° 1029.1 hPa 0.000 mm
2021-03-02 21:46:00 10.3°C 44% 8.3 km/h 11.1 km/h 189° 1029.1 hPa 0.000 mm
2021-03-02 21:45:00 10.3°C 44% 7.7 km/h 11.1 km/h 136° 1029.1 hPa 0.000 mm
2021-03-02 21:44:00 10.3°C 44% 9.0 km/h 14.2 km/h 169° 1029.0 hPa 0.000 mm
2021-03-02 21:43:00 10.2°C 44% 5.9 km/h 7.4 km/h 118° 1029.1 hPa 0.000 mm
2021-03-02 21:42:00 10.2°C 45% 5.6 km/h 7.9 km/h 115° 1029.1 hPa 0.000 mm
2021-03-02 21:41:00 10.3°C 44% 8.0 km/h 10.6 km/h 155° 1029.1 hPa 0.000 mm
2021-03-02 21:40:00 10.3°C 44% 5.7 km/h 7.9 km/h 179° 1029.2 hPa 0.000 mm
2021-03-02 21:39:00 10.4°C 44% 7.9 km/h 10.0 km/h 173° 1029.2 hPa 0.000 mm
2021-03-02 21:38:00 10.2°C 44% 6.8 km/h 11.6 km/h 102° 1029.2 hPa 0.000 mm
2021-03-02 21:37:00 10.3°C 44% 6.2 km/h 8.4 km/h 190° 1029.2 hPa 0.000 mm
2021-03-02 21:36:00 10.3°C 44% 8.7 km/h 11.1 km/h 181° 1029.2 hPa 0.000 mm
2021-03-02 21:35:00 10.2°C 45% 6.9 km/h 12.1 km/h 189° 1029.2 hPa 0.000 mm
2021-03-02 21:34:00 10.2°C 45% 5.7 km/h 7.9 km/h 151° 1029.2 hPa 0.000 mm
2021-03-02 21:33:00 10.1°C 45% 6.4 km/h 9.0 km/h 152° 1029.1 hPa 0.000 mm
2021-03-02 21:32:00 10.1°C 45% 3.8 km/h 6.3 km/h 158° 1029.1 hPa 0.000 mm
2021-03-02 21:31:00 10.2°C 45% 6.5 km/h 10.0 km/h 131° 1029.0 hPa 0.000 mm
2021-03-02 21:30:00 10.1°C 45% 5.7 km/h 7.9 km/h 127° 1029.0 hPa 0.000 mm
2021-03-02 21:29:00 10.1°C 45% 6.6 km/h 11.6 km/h 129° 1029.0 hPa 0.000 mm
2021-03-02 21:28:00 10.2°C 44% 4.3 km/h 5.8 km/h 99° 1029.0 hPa 0.000 mm
2021-03-02 21:27:00 10.2°C 44% 5.4 km/h 10.0 km/h 135° 1029.0 hPa 0.000 mm
2021-03-02 21:26:00 10.2°C 44% 5.0 km/h 7.9 km/h 147° 1029.0 hPa 0.000 mm
2021-03-02 21:25:00 10.2°C 44% 6.1 km/h 12.7 km/h 155° 1029.0 hPa 0.000 mm
2021-03-02 21:24:00 10.2°C 44% 7.2 km/h 10.0 km/h 115° 1029.1 hPa 0.000 mm
2021-03-02 21:23:00 10.2°C 44% 6.2 km/h 9.0 km/h 158° 1029.1 hPa 0.000 mm
2021-03-02 21:22:00 10.1°C 44% 5.7 km/h 7.9 km/h 136° 1029.2 hPa 0.000 mm
2021-03-02 21:21:00 10.2°C 44% 5.5 km/h 9.0 km/h 163° 1029.3 hPa 0.000 mm
2021-03-02 21:20:00 10.1°C 44% 6.2 km/h 9.5 km/h 119° 1029.4 hPa 0.000 mm
2021-03-02 21:19:00 10.2°C 44% 6.5 km/h 8.4 km/h 158° 1029.4 hPa 0.000 mm
2021-03-02 21:18:00 10.2°C 44% 5.7 km/h 7.9 km/h 153° 1029.4 hPa 0.000 mm
2021-03-02 21:17:00 10.3°C 44% 5.9 km/h 7.4 km/h 138° 1029.4 hPa 0.000 mm
2021-03-02 21:16:00 10.3°C 44% 5.1 km/h 6.9 km/h 109° 1029.4 hPa 0.000 mm
2021-03-02 21:15:00 10.3°C 44% 6.1 km/h 10.0 km/h 172° 1029.4 hPa 0.000 mm
2021-03-02 21:14:00 10.3°C 44% 6.9 km/h 10.6 km/h 152° 1029.5 hPa 0.000 mm
2021-03-02 21:13:00 10.3°C 44% 5.4 km/h 7.4 km/h 150° 1029.4 hPa 0.000 mm
2021-03-02 21:12:00 10.5°C 43% 7.2 km/h 10.6 km/h 125° 1029.4 hPa 0.000 mm
2021-03-02 21:11:00 10.4°C 43% 7.2 km/h 11.6 km/h 125° 1029.4 hPa 0.000 mm
2021-03-02 21:10:00 10.3°C 44% 7.0 km/h 11.6 km/h 124° 1029.4 hPa 0.000 mm
2021-03-02 21:09:00 10.4°C 43% 5.1 km/h 7.9 km/h 140° 1029.4 hPa 0.000 mm
2021-03-02 21:08:00 10.4°C 43% 4.6 km/h 7.4 km/h 97° 1029.3 hPa 0.000 mm
2021-03-02 21:07:00 10.4°C 43% 6.0 km/h 7.9 km/h 156° 1029.3 hPa 0.000 mm
2021-03-02 21:06:00 10.3°C 43% 8.1 km/h 12.7 km/h 133° 1029.3 hPa 0.000 mm
2021-03-02 21:05:00 10.2°C 44% 6.8 km/h 11.1 km/h 147° 1029.3 hPa 0.000 mm
2021-03-02 21:04:00 10.3°C 44% 6.7 km/h 9.5 km/h 155° 1029.3 hPa 0.000 mm
2021-03-02 21:03:00 10.3°C 43% 7.4 km/h 9.0 km/h 152° 1029.3 hPa 0.000 mm
2021-03-02 21:02:00 10.3°C 43% 5.8 km/h 11.1 km/h 162° 1029.2 hPa 0.000 mm
2021-03-02 21:01:00 10.4°C 43% 7.7 km/h 10.6 km/h 137° 1029.2 hPa 0.000 mm
2021-03-02 21:00:00 10.5°C 43% 7.8 km/h 9.5 km/h 161° 1029.1 hPa 0.000 mm
2021-03-02 20:59:00 10.4°C 43% 7.0 km/h 9.0 km/h 138° 1029.1 hPa 0.000 mm
2021-03-02 20:58:00 10.3°C 44% 6.8 km/h 11.6 km/h 167° 1029.1 hPa 0.000 mm
2021-03-02 20:57:00 10.3°C 43% 3.9 km/h 5.3 km/h 100° 1029.2 hPa 0.000 mm
2021-03-02 20:56:00 10.4°C 43% 4.5 km/h 5.8 km/h 147° 1029.2 hPa 0.000 mm
2021-03-02 20:55:00 10.3°C 43% 4.6 km/h 8.4 km/h 122° 1029.2 hPa 0.000 mm
2021-03-02 20:54:00 10.2°C 43% 5.5 km/h 8.4 km/h 127° 1029.2 hPa 0.000 mm
2021-03-02 20:53:00 10.2°C 44% 5.8 km/h 9.0 km/h 169° 1029.1 hPa 0.000 mm
2021-03-02 20:52:00 10.2°C 44% 4.4 km/h 10.6 km/h 135° 1029.1 hPa 0.000 mm
2021-03-02 20:51:00 10.3°C 43% 3.5 km/h 5.3 km/h 155° 1029.2 hPa 0.000 mm
2021-03-02 20:50:00 10.4°C 43% 5.1 km/h 7.4 km/h 142° 1029.2 hPa 0.000 mm
2021-03-02 20:49:00 10.5°C 43% 6.0 km/h 9.0 km/h 160° 1029.2 hPa 0.000 mm
2021-03-02 20:48:00 10.5°C 43% 5.3 km/h 7.9 km/h 144° 1029.2 hPa 0.000 mm
2021-03-02 20:47:00 10.4°C 43% 4.6 km/h 5.8 km/h 138° 1029.2 hPa 0.000 mm
2021-03-02 20:46:00 10.5°C 43% 3.9 km/h 6.3 km/h 114° 1029.1 hPa 0.000 mm
2021-03-02 20:45:00 10.5°C 43% 6.2 km/h 10.6 km/h 128° 1029.1 hPa 0.000 mm
2021-03-02 20:44:00 10.4°C 43% 7.5 km/h 11.6 km/h 128° 1029.1 hPa 0.000 mm
2021-03-02 20:43:00 10.3°C 43% 5.6 km/h 8.4 km/h 115° 1029.2 hPa 0.000 mm
2021-03-02 20:42:00 10.3°C 43% 4.9 km/h 7.9 km/h 143° 1029.1 hPa 0.000 mm
2021-03-02 20:41:00 10.2°C 43% 6.3 km/h 9.0 km/h 133° 1029.1 hPa 0.000 mm
2021-03-02 20:40:00 10.2°C 44% 5.8 km/h 11.1 km/h 132° 1029.1 hPa 0.000 mm
2021-03-02 20:39:00 10.3°C 43% 5.0 km/h 7.9 km/h 159° 1029.1 hPa 0.000 mm
2021-03-02 20:38:00 10.3°C 44% 4.5 km/h 6.3 km/h 128° 1029.1 hPa 0.000 mm
2021-03-02 20:37:00 10.3°C 44% 7.1 km/h 10.6 km/h 160° 1029.1 hPa 0.000 mm
2021-03-02 20:36:00 10.2°C 44% 7.1 km/h 10.0 km/h 164° 1029.1 hPa 0.000 mm
2021-03-02 20:35:00 10.3°C 44% 6.7 km/h 9.5 km/h 144° 1029.2 hPa 0.000 mm
2021-03-02 20:34:00 10.3°C 43% 4.5 km/h 8.4 km/h 111° 1029.2 hPa 0.000 mm
2021-03-02 20:33:00 10.3°C 43% 6.5 km/h 9.0 km/h 129° 1029.1 hPa 0.000 mm
2021-03-02 20:32:00 10.3°C 43% 6.2 km/h 10.0 km/h 168° 1029.1 hPa 0.000 mm
2021-03-02 20:31:00 10.4°C 43% 7.4 km/h 11.1 km/h 132° 1029.1 hPa 0.000 mm
2021-03-02 20:30:00 10.2°C 43% 7.4 km/h 10.0 km/h 104° 1029.1 hPa 0.000 mm
2021-03-02 20:29:00 10.2°C 44% 4.3 km/h 7.9 km/h 115° 1029.1 hPa 0.000 mm
2021-03-02 20:28:00 10.3°C 43% 5.3 km/h 10.0 km/h 173° 1029.1 hPa 0.000 mm
2021-03-02 20:27:00 10.4°C 43% 5.6 km/h 7.9 km/h 141° 1029.1 hPa 0.000 mm
2021-03-02 20:26:00 10.3°C 43% 4.1 km/h 9.5 km/h 138° 1029.1 hPa 0.000 mm
2021-03-02 20:25:00 10.5°C 43% 3.2 km/h 4.8 km/h 111° 1029.0 hPa 0.000 mm
2021-03-02 20:24:00 10.5°C 43% 4.2 km/h 6.9 km/h 127° 1029.0 hPa 0.000 mm
2021-03-02 20:23:00 10.5°C 43% 5.5 km/h 11.6 km/h 132° 1029.0 hPa 0.000 mm
2021-03-02 20:22:00 10.4°C 43% 7.6 km/h 11.1 km/h 131° 1029.0 hPa 0.000 mm
2021-03-02 20:21:00 10.4°C 43% 4.1 km/h 10.0 km/h 141° 1029.0 hPa 0.000 mm
2021-03-02 20:20:00 10.4°C 43% 4.1 km/h 7.9 km/h 113° 1029.0 hPa 0.000 mm
2021-03-02 20:19:00 10.4°C 43% 7.3 km/h 9.0 km/h 107° 1029.0 hPa 0.000 mm
2021-03-02 20:18:00 10.4°C 43% 5.8 km/h 7.9 km/h 132° 1029.1 hPa 0.000 mm
2021-03-02 20:17:00 10.3°C 43% 3.0 km/h 4.8 km/h 147° 1029.1 hPa 0.000 mm
2021-03-02 20:16:00 10.4°C 43% 5.3 km/h 8.4 km/h 149° 1029.0 hPa 0.000 mm
2021-03-02 20:15:00 10.4°C 43% 4.8 km/h 7.4 km/h 142° 1029.1 hPa 0.000 mm
2021-03-02 20:14:00 10.4°C 43% 6.0 km/h 10.6 km/h 150° 1029.1 hPa 0.000 mm
2021-03-02 20:13:00 10.5°C 43% 6.3 km/h 9.0 km/h 141° 1029.1 hPa 0.000 mm
2021-03-02 20:12:00 10.4°C 43% 5.2 km/h 9.0 km/h 125° 1029.0 hPa 0.000 mm
2021-03-02 20:11:00 10.4°C 43% 4.3 km/h 6.3 km/h 178° 1029.0 hPa 0.000 mm
2021-03-02 20:10:00 10.4°C 43% 6.2 km/h 8.4 km/h 117° 1029.0 hPa 0.000 mm
2021-03-02 20:09:00 10.4°C 43% 5.7 km/h 10.0 km/h 144° 1029.0 hPa 0.000 mm
2021-03-02 20:08:00 10.4°C 43% 4.5 km/h 6.9 km/h 115° 1029.0 hPa 0.000 mm
2021-03-02 20:07:00 10.5°C 43% 5.7 km/h 7.4 km/h 131° 1029.0 hPa 0.000 mm
2021-03-02 20:06:00 10.5°C 43% 7.2 km/h 9.0 km/h 159° 1029.0 hPa 0.000 mm
2021-03-02 20:05:00 10.6°C 43% 5.4 km/h 7.9 km/h 161° 1029.1 hPa 0.000 mm
2021-03-02 20:04:00 10.5°C 43% 7.8 km/h 11.1 km/h 163° 1029.1 hPa 0.000 mm
2021-03-02 20:03:00 10.4°C 43% 8.4 km/h 10.6 km/h 167° 1029.2 hPa 0.000 mm
2021-03-02 20:02:00 10.5°C 43% 5.5 km/h 9.0 km/h 108° 1029.2 hPa 0.000 mm
2021-03-02 20:01:00 10.3°C 43% 6.6 km/h 10.0 km/h 140° 1029.1 hPa 0.000 mm
2021-03-02 20:00:00 10.3°C 43% 7.3 km/h 10.6 km/h 143° 1029.0 hPa 0.000 mm
2021-03-02 19:59:00 10.3°C 43% 5.3 km/h 8.4 km/h 117° 1029.0 hPa 0.000 mm
2021-03-02 19:58:00 10.4°C 43% 4.3 km/h 6.3 km/h 149° 1029.0 hPa 0.000 mm
2021-03-02 19:57:00 10.3°C 43% 4.3 km/h 7.4 km/h 131° 1029.0 hPa 0.000 mm
2021-03-02 19:56:00 10.4°C 43% 5.1 km/h 6.9 km/h 133° 1029.0 hPa 0.000 mm
2021-03-02 19:55:00 10.4°C 43% 4.8 km/h 6.9 km/h 144° 1029.0 hPa 0.000 mm
2021-03-02 19:54:00 10.3°C 43% 4.9 km/h 6.3 km/h 138° 1029.1 hPa 0.000 mm
2021-03-02 19:53:00 10.4°C 43% 4.1 km/h 6.9 km/h 136° 1029.1 hPa 0.000 mm
2021-03-02 19:52:00 10.5°C 43% 4.1 km/h 5.8 km/h 142° 1029.2 hPa 0.000 mm
2021-03-02 19:51:00 10.5°C 42% 5.9 km/h 9.0 km/h 136° 1029.1 hPa 0.000 mm
2021-03-02 19:50:00 10.6°C 42% 3.7 km/h 5.8 km/h 131° 1029.1 hPa 0.000 mm
2021-03-02 19:49:00 10.6°C 42% 5.7 km/h 9.0 km/h 133° 1029.1 hPa 0.000 mm
2021-03-02 19:48:00 10.5°C 42% 4.6 km/h 7.4 km/h 131° 1029.1 hPa 0.000 mm
2021-03-02 19:47:00 10.5°C 43% 5.7 km/h 7.9 km/h 131° 1029.1 hPa 0.000 mm
2021-03-02 19:46:00 10.4°C 43% 7.4 km/h 12.1 km/h 99° 1029.0 hPa 0.000 mm
2021-03-02 19:45:00 10.5°C 43% 5.0 km/h 6.9 km/h 140° 1029.0 hPa 0.000 mm
2021-03-02 19:44:00 10.5°C 43% 5.9 km/h 6.9 km/h 138° 1029.0 hPa 0.000 mm
2021-03-02 19:43:00 10.5°C 43% 7.1 km/h 10.0 km/h 162° 1029.1 hPa 0.000 mm
2021-03-02 19:42:00 10.5°C 43% 5.1 km/h 6.9 km/h 147° 1029.0 hPa 0.000 mm
2021-03-02 19:41:00 10.5°C 43% 5.4 km/h 9.0 km/h 172° 1029.0 hPa 0.000 mm
2021-03-02 19:40:00 10.5°C 43% 8.0 km/h 11.1 km/h 138° 1029.0 hPa 0.000 mm
2021-03-02 19:39:00 10.6°C 42% 6.5 km/h 7.9 km/h 154° 1029.0 hPa 0.000 mm
2021-03-02 19:38:00 10.6°C 42% 9.1 km/h 13.2 km/h 164° 1029.0 hPa 0.000 mm
2021-03-02 19:37:00 10.5°C 43% 5.5 km/h 9.0 km/h 138° 1029.0 hPa 0.000 mm
2021-03-02 19:36:00 10.6°C 43% 5.6 km/h 7.4 km/h 149° 1029.0 hPa 0.000 mm
2021-03-02 19:35:00 10.6°C 42% 4.6 km/h 6.3 km/h 151° 1029.0 hPa 0.000 mm
2021-03-02 19:34:00 10.5°C 43% 5.5 km/h 11.6 km/h 167° 1029.0 hPa 0.000 mm
2021-03-02 19:33:00 10.5°C 43% 5.7 km/h 7.9 km/h 163° 1029.0 hPa 0.000 mm
2021-03-02 19:32:00 10.5°C 43% 5.7 km/h 9.5 km/h 163° 1029.0 hPa 0.000 mm
2021-03-02 19:31:00 10.5°C 43% 4.9 km/h 6.9 km/h 161° 1029.0 hPa 0.000 mm
2021-03-02 19:30:00 10.5°C 43% 5.2 km/h 7.9 km/h 105° 1029.0 hPa 0.000 mm
2021-03-02 19:29:00 10.7°C 42% 5.8 km/h 7.9 km/h 163° 1029.0 hPa 0.000 mm
2021-03-02 19:28:00 10.7°C 42% 6.0 km/h 9.0 km/h 151° 1029.0 hPa 0.000 mm
2021-03-02 19:27:00 10.6°C 42% 6.2 km/h 9.5 km/h 171° 1029.0 hPa 0.000 mm
2021-03-02 19:26:00 10.6°C 42% 3.9 km/h 5.3 km/h 142° 1029.0 hPa 0.000 mm
2021-03-02 19:25:00 10.5°C 43% 4.5 km/h 5.8 km/h 160° 1029.0 hPa 0.000 mm
2021-03-02 19:24:00 10.6°C 42% 2.8 km/h 6.9 km/h 122° 1029.0 hPa 0.000 mm
2021-03-02 19:23:00 10.6°C 42% 4.3 km/h 6.3 km/h 165° 1028.9 hPa 0.000 mm
2021-03-02 19:22:00 10.7°C 42% 4.5 km/h 5.3 km/h 182° 1028.9 hPa 0.000 mm
2021-03-02 19:21:00 10.7°C 42% 4.2 km/h 5.3 km/h 204° 1028.9 hPa 0.000 mm
2021-03-02 19:20:00 10.7°C 42% 4.4 km/h 9.5 km/h 163° 1028.9 hPa 0.000 mm
2021-03-02 19:19:00 10.7°C 42% 3.0 km/h 5.8 km/h 161° 1028.9 hPa 0.000 mm
2021-03-02 19:18:00 10.7°C 42% 4.1 km/h 6.9 km/h 136° 1028.9 hPa 0.000 mm
2021-03-02 19:17:00 10.8°C 42% 6.2 km/h 10.6 km/h 186° 1028.9 hPa 0.000 mm
2021-03-02 19:16:00 10.8°C 41% 5.7 km/h 9.5 km/h 174° 1028.9 hPa 0.000 mm
2021-03-02 19:15:00 10.8°C 41% 4.2 km/h 10.0 km/h 187° 1028.9 hPa 0.000 mm
2021-03-02 19:14:00 10.9°C 41% 5.8 km/h 7.9 km/h 163° 1028.9 hPa 0.000 mm
2021-03-02 19:13:00 10.9°C 41% 5.9 km/h 9.0 km/h 161° 1028.8 hPa 0.000 mm
2021-03-02 19:12:00 10.8°C 41% 7.2 km/h 10.0 km/h 126° 1028.8 hPa 0.000 mm
2021-03-02 19:11:00 10.8°C 42% 4.0 km/h 5.3 km/h 152° 1028.8 hPa 0.000 mm
2021-03-02 19:10:00 10.8°C 41% 6.2 km/h 10.0 km/h 146° 1028.8 hPa 0.000 mm
2021-03-02 19:09:00 10.9°C 41% 5.9 km/h 12.7 km/h 149° 1028.8 hPa 0.000 mm
2021-03-02 19:08:00 10.9°C 41% 5.2 km/h 7.4 km/h 135° 1028.8 hPa 0.000 mm